<?xml version="1.0" encoding="UTF-8" standalone="no" ?>
<gpx xmlns="http://www.topografix.com/GPX/1/1" xmlns:xsi="http://www.w3.org/2001/XMLSchema-instance" xsi:schemaLocation="http://www.topografix.com/GPX/1/1 http://www.topografix.com/GPX/1/1/gpx.xsd" version="1.1" creator="VisuGPX - https://www.visugpx.com">
  <metadata>
    <name>de St Alban sur Limagnole a Aumont Aubrac</name>
    <desc><![CDATA[Trace AlpineQuest 10/09/2012, 08:10:37]]></desc>
  </metadata>
  <wpt lat="44.78113" lon="3.38784">
    <ele>1024</ele>
    <name><![CDATA[hôtel du centre]]></name>
  </wpt>
  <wpt lat="44.73389" lon="3.33931">
    <ele>1033</ele>
    <name><![CDATA[les granges de bigose]]></name>
  </wpt>
  <trk>
    <name><![CDATA[De St Alban sur Limagnole a Aumont Aubrac]]></name>
    <trkseg>
      <trkpt lat="44.78113" lon="3.38784">
        <ele>1024</ele>
        <time>2012-09-10T06:10:37Z</time>
      </trkpt>
      <trkpt lat="44.78114" lon="3.38776">
        <ele>1013</ele>
        <time>2012-09-10T06:11:39Z</time>
      </trkpt>
      <trkpt lat="44.7812" lon="3.38786">
        <ele>1018</ele>
        <time>2012-09-10T06:11:57Z</time>
      </trkpt>
      <trkpt lat="44.78116" lon="3.38787">
        <ele>1018</ele>
        <time>2012-09-10T06:12:29Z</time>
      </trkpt>
      <trkpt lat="44.78114" lon="3.38788">
        <ele>1019</ele>
        <time>2012-09-10T06:12:50Z</time>
      </trkpt>
      <trkpt lat="44.7811" lon="3.38782">
        <ele>1024</ele>
        <time>2012-09-10T06:13:02Z</time>
      </trkpt>
      <trkpt lat="44.78101" lon="3.38777">
        <ele>1018</ele>
        <time>2012-09-10T06:13:14Z</time>
      </trkpt>
      <trkpt lat="44.78089" lon="3.38774">
        <ele>1018</ele>
        <time>2012-09-10T06:13:26Z</time>
      </trkpt>
      <trkpt lat="44.78089" lon="3.38771">
        <ele>1015</ele>
        <time>2012-09-10T06:13:39Z</time>
      </trkpt>
      <trkpt lat="44.78095" lon="3.38754">
        <ele>1018</ele>
        <time>2012-09-10T06:13:51Z</time>
      </trkpt>
      <trkpt lat="44.78098" lon="3.38753">
        <ele>1020</ele>
        <time>2012-09-10T06:14:03Z</time>
      </trkpt>
      <trkpt lat="44.78103" lon="3.38749">
        <ele>1029</ele>
        <time>2012-09-10T06:14:15Z</time>
      </trkpt>
      <trkpt lat="44.78111" lon="3.38728">
        <ele>1011</ele>
        <time>2012-09-10T06:14:25Z</time>
      </trkpt>
      <trkpt lat="44.78123" lon="3.38725">
        <ele>1015</ele>
        <time>2012-09-10T06:14:38Z</time>
      </trkpt>
      <trkpt lat="44.78134" lon="3.38705">
        <ele>1017</ele>
        <time>2012-09-10T06:14:51Z</time>
      </trkpt>
      <trkpt lat="44.78131" lon="3.38691">
        <ele>1012</ele>
        <time>2012-09-10T06:15:03Z</time>
      </trkpt>
      <trkpt lat="44.78125" lon="3.38681">
        <ele>1012</ele>
        <time>2012-09-10T06:15:14Z</time>
      </trkpt>
      <trkpt lat="44.7812" lon="3.3867">
        <ele>1013</ele>
        <time>2012-09-10T06:15:26Z</time>
      </trkpt>
      <trkpt lat="44.78114" lon="3.38654">
        <ele>1014</ele>
        <time>2012-09-10T06:15:38Z</time>
      </trkpt>
      <trkpt lat="44.78102" lon="3.38643">
        <ele>1014</ele>
        <time>2012-09-10T06:15:50Z</time>
      </trkpt>
      <trkpt lat="44.78102" lon="3.38634">
        <ele>1008</ele>
        <time>2012-09-10T06:16:01Z</time>
      </trkpt>
      <trkpt lat="44.781" lon="3.38623">
        <ele>1013</ele>
        <time>2012-09-10T06:16:25Z</time>
      </trkpt>
      <trkpt lat="44.78093" lon="3.38617">
        <ele>1014</ele>
        <time>2012-09-10T06:16:37Z</time>
      </trkpt>
      <trkpt lat="44.78085" lon="3.38606">
        <ele>1010</ele>
        <time>2012-09-10T06:16:50Z</time>
      </trkpt>
      <trkpt lat="44.78074" lon="3.38601">
        <ele>1008</ele>
        <time>2012-09-10T06:17:02Z</time>
      </trkpt>
      <trkpt lat="44.7807" lon="3.38591">
        <ele>1005</ele>
        <time>2012-09-10T06:17:13Z</time>
      </trkpt>
      <trkpt lat="44.78064" lon="3.38575">
        <ele>994</ele>
        <time>2012-09-10T06:17:28Z</time>
      </trkpt>
      <trkpt lat="44.78062" lon="3.38573">
        <ele>1002</ele>
        <time>2012-09-10T06:18:20Z</time>
      </trkpt>
      <trkpt lat="44.78058" lon="3.38574">
        <ele>994</ele>
        <time>2012-09-10T06:18:36Z</time>
      </trkpt>
      <trkpt lat="44.78056" lon="3.38574">
        <ele>1007</ele>
        <time>2012-09-10T06:18:57Z</time>
      </trkpt>
      <trkpt lat="44.78061" lon="3.38577">
        <ele>1003</ele>
        <time>2012-09-10T06:19:08Z</time>
      </trkpt>
      <trkpt lat="44.78051" lon="3.38584">
        <ele>997</ele>
        <time>2012-09-10T06:19:22Z</time>
      </trkpt>
      <trkpt lat="44.78039" lon="3.38575">
        <ele>1008</ele>
        <time>2012-09-10T06:19:34Z</time>
      </trkpt>
      <trkpt lat="44.78031" lon="3.38568">
        <ele>1003</ele>
        <time>2012-09-10T06:19:44Z</time>
      </trkpt>
      <trkpt lat="44.78022" lon="3.3856">
        <ele>999</ele>
        <time>2012-09-10T06:19:54Z</time>
      </trkpt>
      <trkpt lat="44.7801" lon="3.38554">
        <ele>1001</ele>
        <time>2012-09-10T06:20:07Z</time>
      </trkpt>
      <trkpt lat="44.78001" lon="3.38547">
        <ele>998</ele>
        <time>2012-09-10T06:20:18Z</time>
      </trkpt>
      <trkpt lat="44.7799" lon="3.3854">
        <ele>1000</ele>
        <time>2012-09-10T06:20:29Z</time>
      </trkpt>
      <trkpt lat="44.77979" lon="3.38531">
        <ele>993</ele>
        <time>2012-09-10T06:20:42Z</time>
      </trkpt>
      <trkpt lat="44.77967" lon="3.38524">
        <ele>997</ele>
        <time>2012-09-10T06:20:52Z</time>
      </trkpt>
      <trkpt lat="44.77958" lon="3.38519">
        <ele>998</ele>
        <time>2012-09-10T06:21:03Z</time>
      </trkpt>
      <trkpt lat="44.7795" lon="3.38506">
        <ele>993</ele>
        <time>2012-09-10T06:21:14Z</time>
      </trkpt>
      <trkpt lat="44.77942" lon="3.38496">
        <ele>992</ele>
        <time>2012-09-10T06:21:25Z</time>
      </trkpt>
      <trkpt lat="44.77938" lon="3.38484">
        <ele>989</ele>
        <time>2012-09-10T06:21:35Z</time>
      </trkpt>
      <trkpt lat="44.77934" lon="3.38471">
        <ele>981</ele>
        <time>2012-09-10T06:21:47Z</time>
      </trkpt>
      <trkpt lat="44.7793" lon="3.38459">
        <ele>986</ele>
        <time>2012-09-10T06:21:57Z</time>
      </trkpt>
      <trkpt lat="44.77925" lon="3.38447">
        <ele>989</ele>
        <time>2012-09-10T06:22:08Z</time>
      </trkpt>
      <trkpt lat="44.77921" lon="3.3843">
        <ele>990</ele>
        <time>2012-09-10T06:22:23Z</time>
      </trkpt>
      <trkpt lat="44.77916" lon="3.38414">
        <ele>988</ele>
        <time>2012-09-10T06:22:35Z</time>
      </trkpt>
      <trkpt lat="44.77908" lon="3.38398">
        <ele>988</ele>
        <time>2012-09-10T06:22:48Z</time>
      </trkpt>
      <trkpt lat="44.77903" lon="3.38381">
        <ele>986</ele>
        <time>2012-09-10T06:23:02Z</time>
      </trkpt>
      <trkpt lat="44.77897" lon="3.38363">
        <ele>984</ele>
        <time>2012-09-10T06:23:14Z</time>
      </trkpt>
      <trkpt lat="44.77894" lon="3.38347">
        <ele>986</ele>
        <time>2012-09-10T06:23:29Z</time>
      </trkpt>
      <trkpt lat="44.77883" lon="3.38338">
        <ele>984</ele>
        <time>2012-09-10T06:23:42Z</time>
      </trkpt>
      <trkpt lat="44.77878" lon="3.38327">
        <ele>990</ele>
        <time>2012-09-10T06:23:52Z</time>
      </trkpt>
      <trkpt lat="44.77869" lon="3.38307">
        <ele>979</ele>
        <time>2012-09-10T06:24:05Z</time>
      </trkpt>
      <trkpt lat="44.77863" lon="3.38293">
        <ele>977</ele>
        <time>2012-09-10T06:24:18Z</time>
      </trkpt>
      <trkpt lat="44.77861" lon="3.38279">
        <ele>983</ele>
        <time>2012-09-10T06:24:28Z</time>
      </trkpt>
      <trkpt lat="44.77858" lon="3.38262">
        <ele>983</ele>
        <time>2012-09-10T06:24:39Z</time>
      </trkpt>
      <trkpt lat="44.77853" lon="3.38246">
        <ele>994</ele>
        <time>2012-09-10T06:25:08Z</time>
      </trkpt>
      <trkpt lat="44.77845" lon="3.38234">
        <ele>989</ele>
        <time>2012-09-10T06:25:18Z</time>
      </trkpt>
      <trkpt lat="44.7784" lon="3.38217">
        <ele>986</ele>
        <time>2012-09-10T06:25:30Z</time>
      </trkpt>
      <trkpt lat="44.77833" lon="3.38202">
        <ele>978</ele>
        <time>2012-09-10T06:25:41Z</time>
      </trkpt>
      <trkpt lat="44.77831" lon="3.38199">
        <ele>982</ele>
        <time>2012-09-10T06:25:51Z</time>
      </trkpt>
      <trkpt lat="44.77828" lon="3.38186">
        <ele>980</ele>
        <time>2012-09-10T06:26:05Z</time>
      </trkpt>
      <trkpt lat="44.77825" lon="3.38168">
        <ele>983</ele>
        <time>2012-09-10T06:26:18Z</time>
      </trkpt>
      <trkpt lat="44.77821" lon="3.38156">
        <ele>979</ele>
        <time>2012-09-10T06:26:28Z</time>
      </trkpt>
      <trkpt lat="44.77816" lon="3.38139">
        <ele>986</ele>
        <time>2012-09-10T06:26:39Z</time>
      </trkpt>
      <trkpt lat="44.77813" lon="3.38122">
        <ele>986</ele>
        <time>2012-09-10T06:26:50Z</time>
      </trkpt>
      <trkpt lat="44.77807" lon="3.38103">
        <ele>987</ele>
        <time>2012-09-10T06:27:03Z</time>
      </trkpt>
      <trkpt lat="44.77798" lon="3.38088">
        <ele>982</ele>
        <time>2012-09-10T06:27:16Z</time>
      </trkpt>
      <trkpt lat="44.77794" lon="3.38069">
        <ele>984</ele>
        <time>2012-09-10T06:27:27Z</time>
      </trkpt>
      <trkpt lat="44.77791" lon="3.38053">
        <ele>979</ele>
        <time>2012-09-10T06:27:38Z</time>
      </trkpt>
      <trkpt lat="44.77785" lon="3.38039">
        <ele>982</ele>
        <time>2012-09-10T06:27:50Z</time>
      </trkpt>
      <trkpt lat="44.77781" lon="3.38022">
        <ele>981</ele>
        <time>2012-09-10T06:28:01Z</time>
      </trkpt>
      <trkpt lat="44.77776" lon="3.38007">
        <ele>984</ele>
        <time>2012-09-10T06:28:13Z</time>
      </trkpt>
      <trkpt lat="44.77771" lon="3.3799">
        <ele>984</ele>
        <time>2012-09-10T06:28:25Z</time>
      </trkpt>
      <trkpt lat="44.77762" lon="3.37977">
        <ele>992</ele>
        <time>2012-09-10T06:28:36Z</time>
      </trkpt>
      <trkpt lat="44.77754" lon="3.37963">
        <ele>985</ele>
        <time>2012-09-10T06:28:47Z</time>
      </trkpt>
      <trkpt lat="44.77754" lon="3.37945">
        <ele>987</ele>
        <time>2012-09-10T06:29:01Z</time>
      </trkpt>
      <trkpt lat="44.77754" lon="3.37928">
        <ele>984</ele>
        <time>2012-09-10T06:29:12Z</time>
      </trkpt>
      <trkpt lat="44.77757" lon="3.37917">
        <ele>976</ele>
        <time>2012-09-10T06:30:00Z</time>
      </trkpt>
      <trkpt lat="44.77758" lon="3.37913">
        <ele>976</ele>
        <time>2012-09-10T06:30:15Z</time>
      </trkpt>
      <trkpt lat="44.77776" lon="3.37914">
        <ele>981</ele>
        <time>2012-09-10T06:30:28Z</time>
      </trkpt>
      <trkpt lat="44.77789" lon="3.37909">
        <ele>977</ele>
        <time>2012-09-10T06:30:38Z</time>
      </trkpt>
      <trkpt lat="44.77797" lon="3.37904">
        <ele>973</ele>
        <time>2012-09-10T06:30:48Z</time>
      </trkpt>
      <trkpt lat="44.7781" lon="3.37899">
        <ele>973</ele>
        <time>2012-09-10T06:31:00Z</time>
      </trkpt>
      <trkpt lat="44.77822" lon="3.37898">
        <ele>979</ele>
        <time>2012-09-10T06:31:13Z</time>
      </trkpt>
      <trkpt lat="44.77829" lon="3.37888">
        <ele>982</ele>
        <time>2012-09-10T06:31:25Z</time>
      </trkpt>
      <trkpt lat="44.77837" lon="3.37875">
        <ele>976</ele>
        <time>2012-09-10T06:31:37Z</time>
      </trkpt>
      <trkpt lat="44.77848" lon="3.37862">
        <ele>983</ele>
        <time>2012-09-10T06:31:49Z</time>
      </trkpt>
      <trkpt lat="44.77856" lon="3.37849">
        <ele>980</ele>
        <time>2012-09-10T06:31:59Z</time>
      </trkpt>
      <trkpt lat="44.77864" lon="3.37838">
        <ele>989</ele>
        <time>2012-09-10T06:32:09Z</time>
      </trkpt>
      <trkpt lat="44.77869" lon="3.37828">
        <ele>984</ele>
        <time>2012-09-10T06:32:20Z</time>
      </trkpt>
      <trkpt lat="44.77871" lon="3.37811">
        <ele>980</ele>
        <time>2012-09-10T06:32:33Z</time>
      </trkpt>
      <trkpt lat="44.77872" lon="3.37794">
        <ele>980</ele>
        <time>2012-09-10T06:32:43Z</time>
      </trkpt>
      <trkpt lat="44.77872" lon="3.37775">
        <ele>983</ele>
        <time>2012-09-10T06:32:55Z</time>
      </trkpt>
      <trkpt lat="44.77866" lon="3.37758">
        <ele>986</ele>
        <time>2012-09-10T06:33:07Z</time>
      </trkpt>
      <trkpt lat="44.77859" lon="3.3774">
        <ele>985</ele>
        <time>2012-09-10T06:33:20Z</time>
      </trkpt>
      <trkpt lat="44.77851" lon="3.37727">
        <ele>986</ele>
        <time>2012-09-10T06:33:32Z</time>
      </trkpt>
      <trkpt lat="44.77844" lon="3.37718">
        <ele>977</ele>
        <time>2012-09-10T06:33:43Z</time>
      </trkpt>
      <trkpt lat="44.77837" lon="3.377">
        <ele>976</ele>
        <time>2012-09-10T06:33:56Z</time>
      </trkpt>
      <trkpt lat="44.77832" lon="3.37689">
        <ele>988</ele>
        <time>2012-09-10T06:34:06Z</time>
      </trkpt>
      <trkpt lat="44.77829" lon="3.37683">
        <ele>987</ele>
        <time>2012-09-10T06:34:17Z</time>
      </trkpt>
      <trkpt lat="44.77822" lon="3.37674">
        <ele>994</ele>
        <time>2012-09-10T06:34:27Z</time>
      </trkpt>
      <trkpt lat="44.77811" lon="3.37662">
        <ele>994</ele>
        <time>2012-09-10T06:34:41Z</time>
      </trkpt>
      <trkpt lat="44.77808" lon="3.37649">
        <ele>996</ele>
        <time>2012-09-10T06:34:54Z</time>
      </trkpt>
      <trkpt lat="44.77803" lon="3.37632">
        <ele>993</ele>
        <time>2012-09-10T06:35:06Z</time>
      </trkpt>
      <trkpt lat="44.77795" lon="3.37619">
        <ele>994</ele>
        <time>2012-09-10T06:35:18Z</time>
      </trkpt>
      <trkpt lat="44.77789" lon="3.37607">
        <ele>995</ele>
        <time>2012-09-10T06:35:28Z</time>
      </trkpt>
      <trkpt lat="44.77781" lon="3.37592">
        <ele>993</ele>
        <time>2012-09-10T06:35:40Z</time>
      </trkpt>
      <trkpt lat="44.77776" lon="3.3758">
        <ele>996</ele>
        <time>2012-09-10T06:35:50Z</time>
      </trkpt>
      <trkpt lat="44.77772" lon="3.37566">
        <ele>996</ele>
        <time>2012-09-10T06:36:02Z</time>
      </trkpt>
      <trkpt lat="44.77766" lon="3.37555">
        <ele>992</ele>
        <time>2012-09-10T06:36:13Z</time>
      </trkpt>
      <trkpt lat="44.7776" lon="3.37541">
        <ele>997</ele>
        <time>2012-09-10T06:36:25Z</time>
      </trkpt>
      <trkpt lat="44.77756" lon="3.37529">
        <ele>1003</ele>
        <time>2012-09-10T06:36:39Z</time>
      </trkpt>
      <trkpt lat="44.77758" lon="3.37523">
        <ele>1006</ele>
        <time>2012-09-10T06:37:00Z</time>
      </trkpt>
      <trkpt lat="44.77753" lon="3.37507">
        <ele>998</ele>
        <time>2012-09-10T06:37:14Z</time>
      </trkpt>
      <trkpt lat="44.77748" lon="3.37495">
        <ele>1000</ele>
        <time>2012-09-10T06:37:25Z</time>
      </trkpt>
      <trkpt lat="44.77743" lon="3.37477">
        <ele>1002</ele>
        <time>2012-09-10T06:37:37Z</time>
      </trkpt>
      <trkpt lat="44.77739" lon="3.37466">
        <ele>1000</ele>
        <time>2012-09-10T06:37:48Z</time>
      </trkpt>
      <trkpt lat="44.77737" lon="3.37451">
        <ele>1003</ele>
        <time>2012-09-10T06:37:58Z</time>
      </trkpt>
      <trkpt lat="44.77739" lon="3.37433">
        <ele>1003</ele>
        <time>2012-09-10T06:38:09Z</time>
      </trkpt>
      <trkpt lat="44.77739" lon="3.37415">
        <ele>1007</ele>
        <time>2012-09-10T06:38:21Z</time>
      </trkpt>
      <trkpt lat="44.77738" lon="3.37398">
        <ele>1006</ele>
        <time>2012-09-10T06:38:32Z</time>
      </trkpt>
      <trkpt lat="44.77738" lon="3.37384">
        <ele>1004</ele>
        <time>2012-09-10T06:38:42Z</time>
      </trkpt>
      <trkpt lat="44.77743" lon="3.37368">
        <ele>999</ele>
        <time>2012-09-10T06:38:55Z</time>
      </trkpt>
      <trkpt lat="44.77749" lon="3.37352">
        <ele>1002</ele>
        <time>2012-09-10T06:39:07Z</time>
      </trkpt>
      <trkpt lat="44.77751" lon="3.37335">
        <ele>1008</ele>
        <time>2012-09-10T06:39:18Z</time>
      </trkpt>
      <trkpt lat="44.77751" lon="3.37321">
        <ele>1008</ele>
        <time>2012-09-10T06:39:30Z</time>
      </trkpt>
      <trkpt lat="44.77748" lon="3.37309">
        <ele>1009</ele>
        <time>2012-09-10T06:39:42Z</time>
      </trkpt>
      <trkpt lat="44.77746" lon="3.37296">
        <ele>1013</ele>
        <time>2012-09-10T06:39:52Z</time>
      </trkpt>
      <trkpt lat="44.77745" lon="3.37278">
        <ele>1014</ele>
        <time>2012-09-10T06:40:05Z</time>
      </trkpt>
      <trkpt lat="44.77743" lon="3.37265">
        <ele>1015</ele>
        <time>2012-09-10T06:40:19Z</time>
      </trkpt>
      <trkpt lat="44.77741" lon="3.37252">
        <ele>1017</ele>
        <time>2012-09-10T06:40:30Z</time>
      </trkpt>
      <trkpt lat="44.77739" lon="3.37238">
        <ele>1017</ele>
        <time>2012-09-10T06:40:43Z</time>
      </trkpt>
      <trkpt lat="44.77739" lon="3.37225">
        <ele>1017</ele>
        <time>2012-09-10T06:40:56Z</time>
      </trkpt>
      <trkpt lat="44.7774" lon="3.37212">
        <ele>1024</ele>
        <time>2012-09-10T06:41:08Z</time>
      </trkpt>
      <trkpt lat="44.77739" lon="3.37194">
        <ele>1029</ele>
        <time>2012-09-10T06:41:20Z</time>
      </trkpt>
      <trkpt lat="44.77739" lon="3.37185">
        <ele>1028</ele>
        <time>2012-09-10T06:41:31Z</time>
      </trkpt>
      <trkpt lat="44.77736" lon="3.37173">
        <ele>1026</ele>
        <time>2012-09-10T06:41:42Z</time>
      </trkpt>
      <trkpt lat="44.77734" lon="3.37159">
        <ele>1027</ele>
        <time>2012-09-10T06:41:52Z</time>
      </trkpt>
      <trkpt lat="44.77733" lon="3.37141">
        <ele>1026</ele>
        <time>2012-09-10T06:42:03Z</time>
      </trkpt>
      <trkpt lat="44.77735" lon="3.37127">
        <ele>1030</ele>
        <time>2012-09-10T06:42:13Z</time>
      </trkpt>
      <trkpt lat="44.77731" lon="3.3711">
        <ele>1034</ele>
        <time>2012-09-10T06:42:26Z</time>
      </trkpt>
      <trkpt lat="44.77728" lon="3.37094">
        <ele>1035</ele>
        <time>2012-09-10T06:42:39Z</time>
      </trkpt>
      <trkpt lat="44.77725" lon="3.37082">
        <ele>1034</ele>
        <time>2012-09-10T06:42:49Z</time>
      </trkpt>
      <trkpt lat="44.77721" lon="3.37071">
        <ele>1033</ele>
        <time>2012-09-10T06:43:01Z</time>
      </trkpt>
      <trkpt lat="44.7772" lon="3.37056">
        <ele>1036</ele>
        <time>2012-09-10T06:43:14Z</time>
      </trkpt>
      <trkpt lat="44.77721" lon="3.37052">
        <ele>1043</ele>
        <time>2012-09-10T06:43:40Z</time>
      </trkpt>
      <trkpt lat="44.77718" lon="3.3705">
        <ele>1033</ele>
        <time>2012-09-10T06:44:27Z</time>
      </trkpt>
      <trkpt lat="44.77721" lon="3.37052">
        <ele>1035</ele>
        <time>2012-09-10T06:45:10Z</time>
      </trkpt>
      <trkpt lat="44.77718" lon="3.37044">
        <ele>1036</ele>
        <time>2012-09-10T06:45:21Z</time>
      </trkpt>
      <trkpt lat="44.77715" lon="3.37027">
        <ele>1036</ele>
        <time>2012-09-10T06:45:33Z</time>
      </trkpt>
      <trkpt lat="44.77709" lon="3.37015">
        <ele>1037</ele>
        <time>2012-09-10T06:45:44Z</time>
      </trkpt>
      <trkpt lat="44.77699" lon="3.37003">
        <ele>1034</ele>
        <time>2012-09-10T06:45:55Z</time>
      </trkpt>
      <trkpt lat="44.77696" lon="3.3699">
        <ele>1032</ele>
        <time>2012-09-10T06:46:07Z</time>
      </trkpt>
      <trkpt lat="44.777" lon="3.36973">
        <ele>1028</ele>
        <time>2012-09-10T06:46:19Z</time>
      </trkpt>
      <trkpt lat="44.77704" lon="3.36971">
        <ele>1030</ele>
        <time>2012-09-10T06:46:46Z</time>
      </trkpt>
      <trkpt lat="44.77706" lon="3.36967">
        <ele>1031</ele>
        <time>2012-09-10T06:47:49Z</time>
      </trkpt>
      <trkpt lat="44.77716" lon="3.36958">
        <ele>1029</ele>
        <time>2012-09-10T06:48:04Z</time>
      </trkpt>
      <trkpt lat="44.77724" lon="3.36954">
        <ele>1031</ele>
        <time>2012-09-10T06:48:18Z</time>
      </trkpt>
      <trkpt lat="44.77732" lon="3.36947">
        <ele>1027</ele>
        <time>2012-09-10T06:48:28Z</time>
      </trkpt>
      <trkpt lat="44.77741" lon="3.36942">
        <ele>1026</ele>
        <time>2012-09-10T06:48:38Z</time>
      </trkpt>
      <trkpt lat="44.77749" lon="3.36935">
        <ele>1027</ele>
        <time>2012-09-10T06:48:49Z</time>
      </trkpt>
      <trkpt lat="44.77758" lon="3.36925">
        <ele>1025</ele>
        <time>2012-09-10T06:49:02Z</time>
      </trkpt>
      <trkpt lat="44.77767" lon="3.36917">
        <ele>1024</ele>
        <time>2012-09-10T06:49:13Z</time>
      </trkpt>
      <trkpt lat="44.77774" lon="3.36909">
        <ele>1018</ele>
        <time>2012-09-10T06:49:24Z</time>
      </trkpt>
      <trkpt lat="44.77777" lon="3.36902">
        <ele>1018</ele>
        <time>2012-09-10T06:49:37Z</time>
      </trkpt>
      <trkpt lat="44.77791" lon="3.36889">
        <ele>1019</ele>
        <time>2012-09-10T06:49:49Z</time>
      </trkpt>
      <trkpt lat="44.778" lon="3.36879">
        <ele>1018</ele>
        <time>2012-09-10T06:50:02Z</time>
      </trkpt>
      <trkpt lat="44.77813" lon="3.3687">
        <ele>1022</ele>
        <time>2012-09-10T06:50:14Z</time>
      </trkpt>
      <trkpt lat="44.77825" lon="3.36867">
        <ele>1020</ele>
        <time>2012-09-10T06:50:26Z</time>
      </trkpt>
      <trkpt lat="44.77834" lon="3.36866">
        <ele>1015</ele>
        <time>2012-09-10T06:50:36Z</time>
      </trkpt>
      <trkpt lat="44.77843" lon="3.36866">
        <ele>1014</ele>
        <time>2012-09-10T06:50:48Z</time>
      </trkpt>
      <trkpt lat="44.77856" lon="3.36859">
        <ele>1016</ele>
        <time>2012-09-10T06:51:00Z</time>
      </trkpt>
      <trkpt lat="44.77864" lon="3.36847">
        <ele>1014</ele>
        <time>2012-09-10T06:51:12Z</time>
      </trkpt>
      <trkpt lat="44.77877" lon="3.36837">
        <ele>1009</ele>
        <time>2012-09-10T06:51:23Z</time>
      </trkpt>
      <trkpt lat="44.77885" lon="3.3683">
        <ele>1016</ele>
        <time>2012-09-10T06:51:33Z</time>
      </trkpt>
      <trkpt lat="44.77893" lon="3.36817">
        <ele>1014</ele>
        <time>2012-09-10T06:51:44Z</time>
      </trkpt>
      <trkpt lat="44.77902" lon="3.36804">
        <ele>1016</ele>
        <time>2012-09-10T06:51:56Z</time>
      </trkpt>
      <trkpt lat="44.77913" lon="3.36795">
        <ele>1010</ele>
        <time>2012-09-10T06:52:08Z</time>
      </trkpt>
      <trkpt lat="44.77903" lon="3.36785">
        <ele>1013</ele>
        <time>2012-09-10T06:52:23Z</time>
      </trkpt>
      <trkpt lat="44.77894" lon="3.36784">
        <ele>1007</ele>
        <time>2012-09-10T06:52:34Z</time>
      </trkpt>
      <trkpt lat="44.77887" lon="3.36788">
        <ele>1006</ele>
        <time>2012-09-10T06:52:44Z</time>
      </trkpt>
      <trkpt lat="44.77879" lon="3.3679">
        <ele>1000</ele>
        <time>2012-09-10T06:52:55Z</time>
      </trkpt>
      <trkpt lat="44.77869" lon="3.36795">
        <ele>999</ele>
        <time>2012-09-10T06:53:06Z</time>
      </trkpt>
      <trkpt lat="44.7786" lon="3.36796">
        <ele>1001</ele>
        <time>2012-09-10T06:53:16Z</time>
      </trkpt>
      <trkpt lat="44.77848" lon="3.36797">
        <ele>1003</ele>
        <time>2012-09-10T06:53:30Z</time>
      </trkpt>
      <trkpt lat="44.77842" lon="3.36795">
        <ele>1000</ele>
        <time>2012-09-10T06:53:40Z</time>
      </trkpt>
      <trkpt lat="44.77834" lon="3.36783">
        <ele>1011</ele>
        <time>2012-09-10T06:53:50Z</time>
      </trkpt>
      <trkpt lat="44.77822" lon="3.36777">
        <ele>1005</ele>
        <time>2012-09-10T06:54:04Z</time>
      </trkpt>
      <trkpt lat="44.77813" lon="3.36764">
        <ele>1002</ele>
        <time>2012-09-10T06:54:16Z</time>
      </trkpt>
      <trkpt lat="44.77801" lon="3.36765">
        <ele>1000</ele>
        <time>2012-09-10T06:54:29Z</time>
      </trkpt>
      <trkpt lat="44.77791" lon="3.36763">
        <ele>989</ele>
        <time>2012-09-10T06:54:42Z</time>
      </trkpt>
      <trkpt lat="44.77783" lon="3.36757">
        <ele>992</ele>
        <time>2012-09-10T06:54:52Z</time>
      </trkpt>
      <trkpt lat="44.77774" lon="3.36752">
        <ele>988</ele>
        <time>2012-09-10T06:55:03Z</time>
      </trkpt>
      <trkpt lat="44.77767" lon="3.36743">
        <ele>995</ele>
        <time>2012-09-10T06:55:15Z</time>
      </trkpt>
      <trkpt lat="44.77764" lon="3.36737">
        <ele>988</ele>
        <time>2012-09-10T06:55:27Z</time>
      </trkpt>
      <trkpt lat="44.77775" lon="3.3672">
        <ele>983</ele>
        <time>2012-09-10T06:55:38Z</time>
      </trkpt>
      <trkpt lat="44.77775" lon="3.3671">
        <ele>982</ele>
        <time>2012-09-10T06:55:49Z</time>
      </trkpt>
      <trkpt lat="44.7777" lon="3.36709">
        <ele>985</ele>
        <time>2012-09-10T06:56:02Z</time>
      </trkpt>
      <trkpt lat="44.77757" lon="3.36708">
        <ele>985</ele>
        <time>2012-09-10T06:56:16Z</time>
      </trkpt>
      <trkpt lat="44.77747" lon="3.36709">
        <ele>976</ele>
        <time>2012-09-10T06:56:27Z</time>
      </trkpt>
      <trkpt lat="44.77734" lon="3.36716">
        <ele>980</ele>
        <time>2012-09-10T06:56:38Z</time>
      </trkpt>
      <trkpt lat="44.77723" lon="3.36716">
        <ele>973</ele>
        <time>2012-09-10T06:56:53Z</time>
      </trkpt>
      <trkpt lat="44.77713" lon="3.36703">
        <ele>980</ele>
        <time>2012-09-10T06:57:06Z</time>
      </trkpt>
      <trkpt lat="44.77716" lon="3.36687">
        <ele>977</ele>
        <time>2012-09-10T06:57:17Z</time>
      </trkpt>
      <trkpt lat="44.7772" lon="3.36671">
        <ele>977</ele>
        <time>2012-09-10T06:57:29Z</time>
      </trkpt>
      <trkpt lat="44.77722" lon="3.36652">
        <ele>975</ele>
        <time>2012-09-10T06:57:43Z</time>
      </trkpt>
      <trkpt lat="44.77726" lon="3.36635">
        <ele>970</ele>
        <time>2012-09-10T06:57:57Z</time>
      </trkpt>
      <trkpt lat="44.77727" lon="3.36615">
        <ele>977</ele>
        <time>2012-09-10T06:58:09Z</time>
      </trkpt>
      <trkpt lat="44.77726" lon="3.36601">
        <ele>977</ele>
        <time>2012-09-10T06:58:19Z</time>
      </trkpt>
      <trkpt lat="44.77728" lon="3.36583">
        <ele>977</ele>
        <time>2012-09-10T06:58:31Z</time>
      </trkpt>
      <trkpt lat="44.77729" lon="3.36569">
        <ele>969</ele>
        <time>2012-09-10T06:58:41Z</time>
      </trkpt>
      <trkpt lat="44.77729" lon="3.36548">
        <ele>975</ele>
        <time>2012-09-10T06:58:55Z</time>
      </trkpt>
      <trkpt lat="44.77729" lon="3.3653">
        <ele>970</ele>
        <time>2012-09-10T06:59:07Z</time>
      </trkpt>
      <trkpt lat="44.77723" lon="3.36526">
        <ele>975</ele>
        <time>2012-09-10T06:59:21Z</time>
      </trkpt>
      <trkpt lat="44.7772" lon="3.36526">
        <ele>975</ele>
        <time>2012-09-10T06:59:38Z</time>
      </trkpt>
      <trkpt lat="44.77722" lon="3.36524">
        <ele>978</ele>
        <time>2012-09-10T07:00:52Z</time>
      </trkpt>
      <trkpt lat="44.77722" lon="3.3652">
        <ele>977</ele>
        <time>2012-09-10T07:01:23Z</time>
      </trkpt>
      <trkpt lat="44.77711" lon="3.36509">
        <ele>964</ele>
        <time>2012-09-10T07:01:35Z</time>
      </trkpt>
      <trkpt lat="44.77702" lon="3.36505">
        <ele>965</ele>
        <time>2012-09-10T07:01:46Z</time>
      </trkpt>
      <trkpt lat="44.77689" lon="3.36499">
        <ele>968</ele>
        <time>2012-09-10T07:01:59Z</time>
      </trkpt>
      <trkpt lat="44.77677" lon="3.36496">
        <ele>978</ele>
        <time>2012-09-10T07:02:10Z</time>
      </trkpt>
      <trkpt lat="44.77665" lon="3.36494">
        <ele>973</ele>
        <time>2012-09-10T07:02:22Z</time>
      </trkpt>
      <trkpt lat="44.77649" lon="3.36493">
        <ele>973</ele>
        <time>2012-09-10T07:02:35Z</time>
      </trkpt>
      <trkpt lat="44.77639" lon="3.36489">
        <ele>976</ele>
        <time>2012-09-10T07:02:49Z</time>
      </trkpt>
      <trkpt lat="44.77626" lon="3.36485">
        <ele>972</ele>
        <time>2012-09-10T07:03:01Z</time>
      </trkpt>
      <trkpt lat="44.77617" lon="3.36479">
        <ele>976</ele>
        <time>2012-09-10T07:03:11Z</time>
      </trkpt>
      <trkpt lat="44.77608" lon="3.36474">
        <ele>986</ele>
        <time>2012-09-10T07:04:08Z</time>
      </trkpt>
      <trkpt lat="44.7761" lon="3.36471">
        <ele>975</ele>
        <time>2012-09-10T07:04:37Z</time>
      </trkpt>
      <trkpt lat="44.7761" lon="3.36463">
        <ele>978</ele>
        <time>2012-09-10T07:04:48Z</time>
      </trkpt>
      <trkpt lat="44.77615" lon="3.36452">
        <ele>979</ele>
        <time>2012-09-10T07:04:58Z</time>
      </trkpt>
      <trkpt lat="44.77621" lon="3.36442">
        <ele>969</ele>
        <time>2012-09-10T07:05:09Z</time>
      </trkpt>
      <trkpt lat="44.77625" lon="3.3643">
        <ele>973</ele>
        <time>2012-09-10T07:05:22Z</time>
      </trkpt>
      <trkpt lat="44.77631" lon="3.3642">
        <ele>970</ele>
        <time>2012-09-10T07:05:33Z</time>
      </trkpt>
      <trkpt lat="44.77636" lon="3.36404">
        <ele>981</ele>
        <time>2012-09-10T07:05:47Z</time>
      </trkpt>
      <trkpt lat="44.77637" lon="3.36391">
        <ele>983</ele>
        <time>2012-09-10T07:05:58Z</time>
      </trkpt>
      <trkpt lat="44.77639" lon="3.36379">
        <ele>974</ele>
        <time>2012-09-10T07:06:10Z</time>
      </trkpt>
      <trkpt lat="44.77629" lon="3.3637">
        <ele>982</ele>
        <time>2012-09-10T07:06:24Z</time>
      </trkpt>
      <trkpt lat="44.77624" lon="3.36375">
        <ele>985</ele>
        <time>2012-09-10T07:06:34Z</time>
      </trkpt>
      <trkpt lat="44.77624" lon="3.36388">
        <ele>984</ele>
        <time>2012-09-10T07:06:45Z</time>
      </trkpt>
      <trkpt lat="44.77623" lon="3.36406">
        <ele>991</ele>
        <time>2012-09-10T07:06:58Z</time>
      </trkpt>
      <trkpt lat="44.77613" lon="3.36404">
        <ele>988</ele>
        <time>2012-09-10T07:07:09Z</time>
      </trkpt>
      <trkpt lat="44.77604" lon="3.36403">
        <ele>996</ele>
        <time>2012-09-10T07:07:19Z</time>
      </trkpt>
      <trkpt lat="44.77595" lon="3.36402">
        <ele>998</ele>
        <time>2012-09-10T07:07:30Z</time>
      </trkpt>
      <trkpt lat="44.77586" lon="3.36399">
        <ele>995</ele>
        <time>2012-09-10T07:07:41Z</time>
      </trkpt>
      <trkpt lat="44.7758" lon="3.36396">
        <ele>1000</ele>
        <time>2012-09-10T07:08:23Z</time>
      </trkpt>
      <trkpt lat="44.77571" lon="3.36395">
        <ele>997</ele>
        <time>2012-09-10T07:08:34Z</time>
      </trkpt>
      <trkpt lat="44.7756" lon="3.36397">
        <ele>999</ele>
        <time>2012-09-10T07:08:46Z</time>
      </trkpt>
      <trkpt lat="44.77554" lon="3.36395">
        <ele>1003</ele>
        <time>2012-09-10T07:08:56Z</time>
      </trkpt>
      <trkpt lat="44.77538" lon="3.36402">
        <ele>1001</ele>
        <time>2012-09-10T07:09:09Z</time>
      </trkpt>
      <trkpt lat="44.7753" lon="3.36396">
        <ele>1003</ele>
        <time>2012-09-10T07:09:21Z</time>
      </trkpt>
      <trkpt lat="44.77516" lon="3.36397">
        <ele>1001</ele>
        <time>2012-09-10T07:09:33Z</time>
      </trkpt>
      <trkpt lat="44.77502" lon="3.36397">
        <ele>998</ele>
        <time>2012-09-10T07:09:45Z</time>
      </trkpt>
      <trkpt lat="44.77494" lon="3.36397">
        <ele>1005</ele>
        <time>2012-09-10T07:09:56Z</time>
      </trkpt>
      <trkpt lat="44.7748" lon="3.36401">
        <ele>998</ele>
        <time>2012-09-10T07:10:08Z</time>
      </trkpt>
      <trkpt lat="44.77471" lon="3.36403">
        <ele>998</ele>
        <time>2012-09-10T07:10:18Z</time>
      </trkpt>
      <trkpt lat="44.7746" lon="3.36404">
        <ele>1006</ele>
        <time>2012-09-10T07:10:29Z</time>
      </trkpt>
      <trkpt lat="44.7745" lon="3.36406">
        <ele>1004</ele>
        <time>2012-09-10T07:10:39Z</time>
      </trkpt>
      <trkpt lat="44.77438" lon="3.36407">
        <ele>1005</ele>
        <time>2012-09-10T07:10:54Z</time>
      </trkpt>
      <trkpt lat="44.77428" lon="3.36402">
        <ele>1005</ele>
        <time>2012-09-10T07:11:05Z</time>
      </trkpt>
      <trkpt lat="44.7742" lon="3.364">
        <ele>1007</ele>
        <time>2012-09-10T07:11:18Z</time>
      </trkpt>
      <trkpt lat="44.77411" lon="3.36404">
        <ele>1001</ele>
        <time>2012-09-10T07:11:29Z</time>
      </trkpt>
      <trkpt lat="44.77405" lon="3.36402">
        <ele>1007</ele>
        <time>2012-09-10T07:11:41Z</time>
      </trkpt>
      <trkpt lat="44.77392" lon="3.36397">
        <ele>1016</ele>
        <time>2012-09-10T07:11:53Z</time>
      </trkpt>
      <trkpt lat="44.77383" lon="3.36387">
        <ele>1017</ele>
        <time>2012-09-10T07:12:05Z</time>
      </trkpt>
      <trkpt lat="44.77372" lon="3.36386">
        <ele>1017</ele>
        <time>2012-09-10T07:12:16Z</time>
      </trkpt>
      <trkpt lat="44.77364" lon="3.36388">
        <ele>1022</ele>
        <time>2012-09-10T07:12:26Z</time>
      </trkpt>
      <trkpt lat="44.77355" lon="3.36383">
        <ele>1018</ele>
        <time>2012-09-10T07:12:37Z</time>
      </trkpt>
      <trkpt lat="44.77347" lon="3.36378">
        <ele>1022</ele>
        <time>2012-09-10T07:12:48Z</time>
      </trkpt>
      <trkpt lat="44.77339" lon="3.3637">
        <ele>1023</ele>
        <time>2012-09-10T07:12:59Z</time>
      </trkpt>
      <trkpt lat="44.77328" lon="3.36361">
        <ele>1016</ele>
        <time>2012-09-10T07:13:11Z</time>
      </trkpt>
      <trkpt lat="44.77319" lon="3.36348">
        <ele>1023</ele>
        <time>2012-09-10T07:13:23Z</time>
      </trkpt>
      <trkpt lat="44.77312" lon="3.36337">
        <ele>1023</ele>
        <time>2012-09-10T07:13:33Z</time>
      </trkpt>
      <trkpt lat="44.77311" lon="3.3632">
        <ele>1023</ele>
        <time>2012-09-10T07:13:44Z</time>
      </trkpt>
      <trkpt lat="44.77309" lon="3.363">
        <ele>1029</ele>
        <time>2012-09-10T07:13:56Z</time>
      </trkpt>
      <trkpt lat="44.77304" lon="3.3629">
        <ele>1024</ele>
        <time>2012-09-10T07:14:09Z</time>
      </trkpt>
      <trkpt lat="44.77304" lon="3.36281">
        <ele>1028</ele>
        <time>2012-09-10T07:14:23Z</time>
      </trkpt>
      <trkpt lat="44.77302" lon="3.36265">
        <ele>1028</ele>
        <time>2012-09-10T07:14:33Z</time>
      </trkpt>
      <trkpt lat="44.77294" lon="3.36251">
        <ele>1025</ele>
        <time>2012-09-10T07:14:46Z</time>
      </trkpt>
      <trkpt lat="44.77284" lon="3.36241">
        <ele>1023</ele>
        <time>2012-09-10T07:15:18Z</time>
      </trkpt>
      <trkpt lat="44.77287" lon="3.36239">
        <ele>1023</ele>
        <time>2012-09-10T07:16:26Z</time>
      </trkpt>
      <trkpt lat="44.77286" lon="3.36243">
        <ele>1025</ele>
        <time>2012-09-10T07:16:39Z</time>
      </trkpt>
      <trkpt lat="44.77283" lon="3.36243">
        <ele>1012</ele>
        <time>2012-09-10T07:16:51Z</time>
      </trkpt>
      <trkpt lat="44.77291" lon="3.36239">
        <ele>1025</ele>
        <time>2012-09-10T07:17:07Z</time>
      </trkpt>
      <trkpt lat="44.77293" lon="3.36229">
        <ele>1023</ele>
        <time>2012-09-10T07:17:31Z</time>
      </trkpt>
      <trkpt lat="44.77287" lon="3.36236">
        <ele>1033</ele>
        <time>2012-09-10T07:17:42Z</time>
      </trkpt>
      <trkpt lat="44.77288" lon="3.3624">
        <ele>1024</ele>
        <time>2012-09-10T07:18:36Z</time>
      </trkpt>
      <trkpt lat="44.77285" lon="3.36237">
        <ele>1032</ele>
        <time>2012-09-10T07:18:54Z</time>
      </trkpt>
      <trkpt lat="44.77273" lon="3.36231">
        <ele>1035</ele>
        <time>2012-09-10T07:19:07Z</time>
      </trkpt>
      <trkpt lat="44.77264" lon="3.36224">
        <ele>1035</ele>
        <time>2012-09-10T07:19:18Z</time>
      </trkpt>
      <trkpt lat="44.77256" lon="3.36219">
        <ele>1036</ele>
        <time>2012-09-10T07:19:28Z</time>
      </trkpt>
      <trkpt lat="44.77244" lon="3.36212">
        <ele>1041</ele>
        <time>2012-09-10T07:19:38Z</time>
      </trkpt>
      <trkpt lat="44.77233" lon="3.36204">
        <ele>1034</ele>
        <time>2012-09-10T07:19:49Z</time>
      </trkpt>
      <trkpt lat="44.77228" lon="3.36199">
        <ele>1039</ele>
        <time>2012-09-10T07:20:01Z</time>
      </trkpt>
      <trkpt lat="44.77219" lon="3.36195">
        <ele>1034</ele>
        <time>2012-09-10T07:20:15Z</time>
      </trkpt>
      <trkpt lat="44.77216" lon="3.36189">
        <ele>1040</ele>
        <time>2012-09-10T07:20:27Z</time>
      </trkpt>
      <trkpt lat="44.77211" lon="3.36173">
        <ele>1043</ele>
        <time>2012-09-10T07:20:39Z</time>
      </trkpt>
      <trkpt lat="44.77205" lon="3.36164">
        <ele>1046</ele>
        <time>2012-09-10T07:20:50Z</time>
      </trkpt>
      <trkpt lat="44.77192" lon="3.36157">
        <ele>1043</ele>
        <time>2012-09-10T07:21:03Z</time>
      </trkpt>
      <trkpt lat="44.7718" lon="3.36149">
        <ele>1042</ele>
        <time>2012-09-10T07:21:15Z</time>
      </trkpt>
      <trkpt lat="44.77171" lon="3.36136">
        <ele>1044</ele>
        <time>2012-09-10T07:21:28Z</time>
      </trkpt>
      <trkpt lat="44.77163" lon="3.36123">
        <ele>1050</ele>
        <time>2012-09-10T07:21:40Z</time>
      </trkpt>
      <trkpt lat="44.77155" lon="3.36114">
        <ele>1049</ele>
        <time>2012-09-10T07:21:50Z</time>
      </trkpt>
      <trkpt lat="44.7715" lon="3.36103">
        <ele>1047</ele>
        <time>2012-09-10T07:22:02Z</time>
      </trkpt>
      <trkpt lat="44.77143" lon="3.36092">
        <ele>1049</ele>
        <time>2012-09-10T07:22:13Z</time>
      </trkpt>
      <trkpt lat="44.77135" lon="3.36084">
        <ele>1050</ele>
        <time>2012-09-10T07:22:23Z</time>
      </trkpt>
      <trkpt lat="44.77126" lon="3.36077">
        <ele>1055</ele>
        <time>2012-09-10T07:22:33Z</time>
      </trkpt>
      <trkpt lat="44.77114" lon="3.3607">
        <ele>1050</ele>
        <time>2012-09-10T07:22:45Z</time>
      </trkpt>
      <trkpt lat="44.77108" lon="3.36056">
        <ele>1053</ele>
        <time>2012-09-10T07:22:57Z</time>
      </trkpt>
      <trkpt lat="44.77099" lon="3.36045">
        <ele>1052</ele>
        <time>2012-09-10T07:23:09Z</time>
      </trkpt>
      <trkpt lat="44.77091" lon="3.36038">
        <ele>1051</ele>
        <time>2012-09-10T07:23:21Z</time>
      </trkpt>
      <trkpt lat="44.7708" lon="3.3603">
        <ele>1057</ele>
        <time>2012-09-10T07:23:34Z</time>
      </trkpt>
      <trkpt lat="44.77072" lon="3.36027">
        <ele>1059</ele>
        <time>2012-09-10T07:23:47Z</time>
      </trkpt>
      <trkpt lat="44.77065" lon="3.36019">
        <ele>1061</ele>
        <time>2012-09-10T07:23:58Z</time>
      </trkpt>
      <trkpt lat="44.77058" lon="3.3601">
        <ele>1065</ele>
        <time>2012-09-10T07:24:09Z</time>
      </trkpt>
      <trkpt lat="44.77049" lon="3.35998">
        <ele>1067</ele>
        <time>2012-09-10T07:24:20Z</time>
      </trkpt>
      <trkpt lat="44.77044" lon="3.35993">
        <ele>1060</ele>
        <time>2012-09-10T07:24:30Z</time>
      </trkpt>
      <trkpt lat="44.77039" lon="3.35982">
        <ele>1066</ele>
        <time>2012-09-10T07:24:43Z</time>
      </trkpt>
      <trkpt lat="44.77031" lon="3.35972">
        <ele>1068</ele>
        <time>2012-09-10T07:24:56Z</time>
      </trkpt>
      <trkpt lat="44.77025" lon="3.35963">
        <ele>1076</ele>
        <time>2012-09-10T07:25:06Z</time>
      </trkpt>
      <trkpt lat="44.77021" lon="3.35957">
        <ele>1072</ele>
        <time>2012-09-10T07:26:14Z</time>
      </trkpt>
      <trkpt lat="44.7701" lon="3.35947">
        <ele>1066</ele>
        <time>2012-09-10T07:26:26Z</time>
      </trkpt>
      <trkpt lat="44.77002" lon="3.35939">
        <ele>1073</ele>
        <time>2012-09-10T07:26:36Z</time>
      </trkpt>
      <trkpt lat="44.7699" lon="3.3593">
        <ele>1075</ele>
        <time>2012-09-10T07:26:48Z</time>
      </trkpt>
      <trkpt lat="44.76985" lon="3.35919">
        <ele>1071</ele>
        <time>2012-09-10T07:26:59Z</time>
      </trkpt>
      <trkpt lat="44.76978" lon="3.35912">
        <ele>1074</ele>
        <time>2012-09-10T07:27:09Z</time>
      </trkpt>
      <trkpt lat="44.76965" lon="3.35907">
        <ele>1076</ele>
        <time>2012-09-10T07:27:20Z</time>
      </trkpt>
      <trkpt lat="44.76954" lon="3.35902">
        <ele>1074</ele>
        <time>2012-09-10T07:27:31Z</time>
      </trkpt>
      <trkpt lat="44.76944" lon="3.35895">
        <ele>1071</ele>
        <time>2012-09-10T07:27:42Z</time>
      </trkpt>
      <trkpt lat="44.76935" lon="3.3589">
        <ele>1079</ele>
        <time>2012-09-10T07:27:54Z</time>
      </trkpt>
      <trkpt lat="44.76923" lon="3.35896">
        <ele>1073</ele>
        <time>2012-09-10T07:28:05Z</time>
      </trkpt>
      <trkpt lat="44.76911" lon="3.359">
        <ele>1071</ele>
        <time>2012-09-10T07:28:17Z</time>
      </trkpt>
      <trkpt lat="44.76897" lon="3.35895">
        <ele>1073</ele>
        <time>2012-09-10T07:28:28Z</time>
      </trkpt>
      <trkpt lat="44.76884" lon="3.35895">
        <ele>1077</ele>
        <time>2012-09-10T07:28:40Z</time>
      </trkpt>
      <trkpt lat="44.76875" lon="3.35892">
        <ele>1068</ele>
        <time>2012-09-10T07:28:52Z</time>
      </trkpt>
      <trkpt lat="44.76863" lon="3.35889">
        <ele>1071</ele>
        <time>2012-09-10T07:29:05Z</time>
      </trkpt>
      <trkpt lat="44.76851" lon="3.3589">
        <ele>1076</ele>
        <time>2012-09-10T07:29:19Z</time>
      </trkpt>
      <trkpt lat="44.76842" lon="3.35883">
        <ele>1078</ele>
        <time>2012-09-10T07:29:30Z</time>
      </trkpt>
      <trkpt lat="44.76832" lon="3.35879">
        <ele>1075</ele>
        <time>2012-09-10T07:29:41Z</time>
      </trkpt>
      <trkpt lat="44.76822" lon="3.35871">
        <ele>1083</ele>
        <time>2012-09-10T07:29:51Z</time>
      </trkpt>
      <trkpt lat="44.76809" lon="3.35867">
        <ele>1076</ele>
        <time>2012-09-10T07:30:05Z</time>
      </trkpt>
      <trkpt lat="44.76799" lon="3.35859">
        <ele>1083</ele>
        <time>2012-09-10T07:30:17Z</time>
      </trkpt>
      <trkpt lat="44.76784" lon="3.35855">
        <ele>1092</ele>
        <time>2012-09-10T07:30:30Z</time>
      </trkpt>
      <trkpt lat="44.76772" lon="3.3585">
        <ele>1089</ele>
        <time>2012-09-10T07:30:43Z</time>
      </trkpt>
      <trkpt lat="44.76757" lon="3.35844">
        <ele>1092</ele>
        <time>2012-09-10T07:30:56Z</time>
      </trkpt>
      <trkpt lat="44.76745" lon="3.35837">
        <ele>1097</ele>
        <time>2012-09-10T07:31:10Z</time>
      </trkpt>
      <trkpt lat="44.76732" lon="3.35825">
        <ele>1087</ele>
        <time>2012-09-10T07:31:24Z</time>
      </trkpt>
      <trkpt lat="44.76723" lon="3.3582">
        <ele>1087</ele>
        <time>2012-09-10T07:31:35Z</time>
      </trkpt>
      <trkpt lat="44.76711" lon="3.35812">
        <ele>1080</ele>
        <time>2012-09-10T07:31:47Z</time>
      </trkpt>
      <trkpt lat="44.76699" lon="3.35805">
        <ele>1087</ele>
        <time>2012-09-10T07:32:01Z</time>
      </trkpt>
      <trkpt lat="44.76687" lon="3.35799">
        <ele>1086</ele>
        <time>2012-09-10T07:32:14Z</time>
      </trkpt>
      <trkpt lat="44.76678" lon="3.35795">
        <ele>1091</ele>
        <time>2012-09-10T07:32:28Z</time>
      </trkpt>
      <trkpt lat="44.76668" lon="3.3579">
        <ele>1085</ele>
        <time>2012-09-10T07:32:38Z</time>
      </trkpt>
      <trkpt lat="44.76653" lon="3.35791">
        <ele>1089</ele>
        <time>2012-09-10T07:32:49Z</time>
      </trkpt>
      <trkpt lat="44.76643" lon="3.35791">
        <ele>1091</ele>
        <time>2012-09-10T07:32:59Z</time>
      </trkpt>
      <trkpt lat="44.76629" lon="3.35794">
        <ele>1087</ele>
        <time>2012-09-10T07:33:11Z</time>
      </trkpt>
      <trkpt lat="44.76617" lon="3.35795">
        <ele>1088</ele>
        <time>2012-09-10T07:33:22Z</time>
      </trkpt>
      <trkpt lat="44.76607" lon="3.35795">
        <ele>1086</ele>
        <time>2012-09-10T07:33:32Z</time>
      </trkpt>
      <trkpt lat="44.76594" lon="3.3579">
        <ele>1091</ele>
        <time>2012-09-10T07:33:43Z</time>
      </trkpt>
      <trkpt lat="44.7658" lon="3.35788">
        <ele>1087</ele>
        <time>2012-09-10T07:33:54Z</time>
      </trkpt>
      <trkpt lat="44.76569" lon="3.35788">
        <ele>1085</ele>
        <time>2012-09-10T07:34:05Z</time>
      </trkpt>
      <trkpt lat="44.76556" lon="3.35787">
        <ele>1087</ele>
        <time>2012-09-10T07:34:15Z</time>
      </trkpt>
      <trkpt lat="44.76546" lon="3.35787">
        <ele>1089</ele>
        <time>2012-09-10T07:34:26Z</time>
      </trkpt>
      <trkpt lat="44.76533" lon="3.35788">
        <ele>1090</ele>
        <time>2012-09-10T07:34:36Z</time>
      </trkpt>
      <trkpt lat="44.76521" lon="3.35788">
        <ele>1088</ele>
        <time>2012-09-10T07:34:47Z</time>
      </trkpt>
      <trkpt lat="44.76509" lon="3.35788">
        <ele>1088</ele>
        <time>2012-09-10T07:34:57Z</time>
      </trkpt>
      <trkpt lat="44.76496" lon="3.35786">
        <ele>1086</ele>
        <time>2012-09-10T07:35:09Z</time>
      </trkpt>
      <trkpt lat="44.76482" lon="3.35775">
        <ele>1089</ele>
        <time>2012-09-10T07:35:20Z</time>
      </trkpt>
      <trkpt lat="44.76471" lon="3.35765">
        <ele>1081</ele>
        <time>2012-09-10T07:35:31Z</time>
      </trkpt>
      <trkpt lat="44.7646" lon="3.35753">
        <ele>1078</ele>
        <time>2012-09-10T07:35:43Z</time>
      </trkpt>
      <trkpt lat="44.7645" lon="3.35743">
        <ele>1083</ele>
        <time>2012-09-10T07:35:54Z</time>
      </trkpt>
      <trkpt lat="44.76439" lon="3.35734">
        <ele>1084</ele>
        <time>2012-09-10T07:36:06Z</time>
      </trkpt>
      <trkpt lat="44.76427" lon="3.35725">
        <ele>1078</ele>
        <time>2012-09-10T07:36:18Z</time>
      </trkpt>
      <trkpt lat="44.76419" lon="3.35721">
        <ele>1085</ele>
        <time>2012-09-10T07:36:29Z</time>
      </trkpt>
      <trkpt lat="44.76409" lon="3.35717">
        <ele>1084</ele>
        <time>2012-09-10T07:36:40Z</time>
      </trkpt>
      <trkpt lat="44.76395" lon="3.35716">
        <ele>1087</ele>
        <time>2012-09-10T07:36:51Z</time>
      </trkpt>
      <trkpt lat="44.76382" lon="3.35714">
        <ele>1089</ele>
        <time>2012-09-10T07:37:03Z</time>
      </trkpt>
      <trkpt lat="44.7637" lon="3.35709">
        <ele>1083</ele>
        <time>2012-09-10T07:37:14Z</time>
      </trkpt>
      <trkpt lat="44.76357" lon="3.3571">
        <ele>1086</ele>
        <time>2012-09-10T07:37:26Z</time>
      </trkpt>
      <trkpt lat="44.76344" lon="3.35707">
        <ele>1083</ele>
        <time>2012-09-10T07:37:38Z</time>
      </trkpt>
      <trkpt lat="44.7633" lon="3.35706">
        <ele>1082</ele>
        <time>2012-09-10T07:37:50Z</time>
      </trkpt>
      <trkpt lat="44.7632" lon="3.35703">
        <ele>1082</ele>
        <time>2012-09-10T07:38:01Z</time>
      </trkpt>
      <trkpt lat="44.7631" lon="3.35701">
        <ele>1083</ele>
        <time>2012-09-10T07:38:14Z</time>
      </trkpt>
      <trkpt lat="44.76297" lon="3.35701">
        <ele>1081</ele>
        <time>2012-09-10T07:38:26Z</time>
      </trkpt>
      <trkpt lat="44.76286" lon="3.35705">
        <ele>1087</ele>
        <time>2012-09-10T07:38:39Z</time>
      </trkpt>
      <trkpt lat="44.7627" lon="3.35707">
        <ele>1083</ele>
        <time>2012-09-10T07:38:52Z</time>
      </trkpt>
      <trkpt lat="44.76256" lon="3.35707">
        <ele>1084</ele>
        <time>2012-09-10T07:39:04Z</time>
      </trkpt>
      <trkpt lat="44.76243" lon="3.35707">
        <ele>1082</ele>
        <time>2012-09-10T07:39:15Z</time>
      </trkpt>
      <trkpt lat="44.76233" lon="3.35706">
        <ele>1076</ele>
        <time>2012-09-10T07:39:28Z</time>
      </trkpt>
      <trkpt lat="44.76223" lon="3.35704">
        <ele>1081</ele>
        <time>2012-09-10T07:39:40Z</time>
      </trkpt>
      <trkpt lat="44.76209" lon="3.35703">
        <ele>1081</ele>
        <time>2012-09-10T07:39:51Z</time>
      </trkpt>
      <trkpt lat="44.76197" lon="3.35701">
        <ele>1083</ele>
        <time>2012-09-10T07:40:03Z</time>
      </trkpt>
      <trkpt lat="44.76184" lon="3.35699">
        <ele>1086</ele>
        <time>2012-09-10T07:40:15Z</time>
      </trkpt>
      <trkpt lat="44.76173" lon="3.35694">
        <ele>1086</ele>
        <time>2012-09-10T07:40:26Z</time>
      </trkpt>
      <trkpt lat="44.7616" lon="3.35692">
        <ele>1081</ele>
        <time>2012-09-10T07:40:36Z</time>
      </trkpt>
      <trkpt lat="44.76145" lon="3.35696">
        <ele>1088</ele>
        <time>2012-09-10T07:40:48Z</time>
      </trkpt>
      <trkpt lat="44.76133" lon="3.35702">
        <ele>1081</ele>
        <time>2012-09-10T07:41:01Z</time>
      </trkpt>
      <trkpt lat="44.76124" lon="3.35689">
        <ele>1078</ele>
        <time>2012-09-10T07:41:12Z</time>
      </trkpt>
      <trkpt lat="44.76117" lon="3.35672">
        <ele>1081</ele>
        <time>2012-09-10T07:41:23Z</time>
      </trkpt>
      <trkpt lat="44.76115" lon="3.35655">
        <ele>1080</ele>
        <time>2012-09-10T07:41:35Z</time>
      </trkpt>
      <trkpt lat="44.76115" lon="3.35654">
        <ele>1069</ele>
        <time>2012-09-10T07:43:06Z</time>
      </trkpt>
      <trkpt lat="44.76112" lon="3.35656">
        <ele>1066</ele>
        <time>2012-09-10T07:43:33Z</time>
      </trkpt>
      <trkpt lat="44.7611" lon="3.35652">
        <ele>1076</ele>
        <time>2012-09-10T07:43:53Z</time>
      </trkpt>
      <trkpt lat="44.76107" lon="3.35641">
        <ele>1082</ele>
        <time>2012-09-10T07:44:05Z</time>
      </trkpt>
      <trkpt lat="44.76106" lon="3.35636">
        <ele>1079</ele>
        <time>2012-09-10T07:44:17Z</time>
      </trkpt>
      <trkpt lat="44.76114" lon="3.3563">
        <ele>1080</ele>
        <time>2012-09-10T07:44:28Z</time>
      </trkpt>
      <trkpt lat="44.76121" lon="3.35624">
        <ele>1079</ele>
        <time>2012-09-10T07:44:41Z</time>
      </trkpt>
      <trkpt lat="44.76121" lon="3.35605">
        <ele>1075</ele>
        <time>2012-09-10T07:44:53Z</time>
      </trkpt>
      <trkpt lat="44.76114" lon="3.3559">
        <ele>1074</ele>
        <time>2012-09-10T07:45:05Z</time>
      </trkpt>
      <trkpt lat="44.76104" lon="3.35585">
        <ele>1075</ele>
        <time>2012-09-10T07:45:16Z</time>
      </trkpt>
      <trkpt lat="44.76091" lon="3.35588">
        <ele>1072</ele>
        <time>2012-09-10T07:45:27Z</time>
      </trkpt>
      <trkpt lat="44.76077" lon="3.35584">
        <ele>1068</ele>
        <time>2012-09-10T07:45:39Z</time>
      </trkpt>
      <trkpt lat="44.76069" lon="3.35582">
        <ele>1070</ele>
        <time>2012-09-10T07:45:49Z</time>
      </trkpt>
      <trkpt lat="44.76059" lon="3.35586">
        <ele>1071</ele>
        <time>2012-09-10T07:45:59Z</time>
      </trkpt>
      <trkpt lat="44.76047" lon="3.35593">
        <ele>1069</ele>
        <time>2012-09-10T07:46:12Z</time>
      </trkpt>
      <trkpt lat="44.76035" lon="3.35602">
        <ele>1067</ele>
        <time>2012-09-10T07:46:25Z</time>
      </trkpt>
      <trkpt lat="44.76027" lon="3.35613">
        <ele>1070</ele>
        <time>2012-09-10T07:46:37Z</time>
      </trkpt>
      <trkpt lat="44.76016" lon="3.35621">
        <ele>1069</ele>
        <time>2012-09-10T07:46:48Z</time>
      </trkpt>
      <trkpt lat="44.76003" lon="3.35627">
        <ele>1075</ele>
        <time>2012-09-10T07:46:59Z</time>
      </trkpt>
      <trkpt lat="44.75992" lon="3.35632">
        <ele>1067</ele>
        <time>2012-09-10T07:47:11Z</time>
      </trkpt>
      <trkpt lat="44.75979" lon="3.35636">
        <ele>1069</ele>
        <time>2012-09-10T07:47:23Z</time>
      </trkpt>
      <trkpt lat="44.75967" lon="3.35646">
        <ele>1071</ele>
        <time>2012-09-10T07:47:35Z</time>
      </trkpt>
      <trkpt lat="44.75958" lon="3.35655">
        <ele>1070</ele>
        <time>2012-09-10T07:47:45Z</time>
      </trkpt>
      <trkpt lat="44.75947" lon="3.35666">
        <ele>1065</ele>
        <time>2012-09-10T07:47:56Z</time>
      </trkpt>
      <trkpt lat="44.75935" lon="3.35673">
        <ele>1070</ele>
        <time>2012-09-10T07:48:08Z</time>
      </trkpt>
      <trkpt lat="44.75925" lon="3.35681">
        <ele>1075</ele>
        <time>2012-09-10T07:48:20Z</time>
      </trkpt>
      <trkpt lat="44.75912" lon="3.3569">
        <ele>1073</ele>
        <time>2012-09-10T07:48:32Z</time>
      </trkpt>
      <trkpt lat="44.759" lon="3.35697">
        <ele>1068</ele>
        <time>2012-09-10T07:48:45Z</time>
      </trkpt>
      <trkpt lat="44.75885" lon="3.35705">
        <ele>1075</ele>
        <time>2012-09-10T07:48:57Z</time>
      </trkpt>
      <trkpt lat="44.75873" lon="3.35716">
        <ele>1075</ele>
        <time>2012-09-10T07:49:09Z</time>
      </trkpt>
      <trkpt lat="44.75861" lon="3.35722">
        <ele>1075</ele>
        <time>2012-09-10T07:49:20Z</time>
      </trkpt>
      <trkpt lat="44.75847" lon="3.35727">
        <ele>1072</ele>
        <time>2012-09-10T07:49:30Z</time>
      </trkpt>
      <trkpt lat="44.75835" lon="3.35733">
        <ele>1074</ele>
        <time>2012-09-10T07:49:41Z</time>
      </trkpt>
      <trkpt lat="44.75822" lon="3.35741">
        <ele>1076</ele>
        <time>2012-09-10T07:49:52Z</time>
      </trkpt>
      <trkpt lat="44.7581" lon="3.35747">
        <ele>1077</ele>
        <time>2012-09-10T07:50:03Z</time>
      </trkpt>
      <trkpt lat="44.75798" lon="3.35754">
        <ele>1079</ele>
        <time>2012-09-10T07:50:14Z</time>
      </trkpt>
      <trkpt lat="44.75784" lon="3.35761">
        <ele>1076</ele>
        <time>2012-09-10T07:50:27Z</time>
      </trkpt>
      <trkpt lat="44.75769" lon="3.35768">
        <ele>1077</ele>
        <time>2012-09-10T07:50:39Z</time>
      </trkpt>
      <trkpt lat="44.7576" lon="3.35776">
        <ele>1078</ele>
        <time>2012-09-10T07:50:49Z</time>
      </trkpt>
      <trkpt lat="44.75747" lon="3.3578">
        <ele>1075</ele>
        <time>2012-09-10T07:51:01Z</time>
      </trkpt>
      <trkpt lat="44.75736" lon="3.35789">
        <ele>1078</ele>
        <time>2012-09-10T07:51:12Z</time>
      </trkpt>
      <trkpt lat="44.75725" lon="3.35795">
        <ele>1080</ele>
        <time>2012-09-10T07:51:23Z</time>
      </trkpt>
      <trkpt lat="44.75713" lon="3.35801">
        <ele>1083</ele>
        <time>2012-09-10T07:51:35Z</time>
      </trkpt>
      <trkpt lat="44.75697" lon="3.35807">
        <ele>1088</ele>
        <time>2012-09-10T07:51:47Z</time>
      </trkpt>
      <trkpt lat="44.75684" lon="3.35814">
        <ele>1086</ele>
        <time>2012-09-10T07:52:00Z</time>
      </trkpt>
      <trkpt lat="44.75673" lon="3.35821">
        <ele>1083</ele>
        <time>2012-09-10T07:52:11Z</time>
      </trkpt>
      <trkpt lat="44.7566" lon="3.35826">
        <ele>1085</ele>
        <time>2012-09-10T07:52:21Z</time>
      </trkpt>
      <trkpt lat="44.75647" lon="3.35833">
        <ele>1084</ele>
        <time>2012-09-10T07:52:33Z</time>
      </trkpt>
      <trkpt lat="44.75634" lon="3.3584">
        <ele>1085</ele>
        <time>2012-09-10T07:52:44Z</time>
      </trkpt>
      <trkpt lat="44.75618" lon="3.35845">
        <ele>1082</ele>
        <time>2012-09-10T07:52:57Z</time>
      </trkpt>
      <trkpt lat="44.75604" lon="3.35848">
        <ele>1086</ele>
        <time>2012-09-10T07:53:10Z</time>
      </trkpt>
      <trkpt lat="44.75591" lon="3.35852">
        <ele>1078</ele>
        <time>2012-09-10T07:53:21Z</time>
      </trkpt>
      <trkpt lat="44.75578" lon="3.35856">
        <ele>1084</ele>
        <time>2012-09-10T07:53:33Z</time>
      </trkpt>
      <trkpt lat="44.75563" lon="3.35855">
        <ele>1081</ele>
        <time>2012-09-10T07:53:45Z</time>
      </trkpt>
      <trkpt lat="44.7555" lon="3.35857">
        <ele>1084</ele>
        <time>2012-09-10T07:53:57Z</time>
      </trkpt>
      <trkpt lat="44.75534" lon="3.35854">
        <ele>1084</ele>
        <time>2012-09-10T07:54:09Z</time>
      </trkpt>
      <trkpt lat="44.75521" lon="3.35855">
        <ele>1083</ele>
        <time>2012-09-10T07:54:20Z</time>
      </trkpt>
      <trkpt lat="44.75511" lon="3.35854">
        <ele>1081</ele>
        <time>2012-09-10T07:54:31Z</time>
      </trkpt>
      <trkpt lat="44.75502" lon="3.35852">
        <ele>1082</ele>
        <time>2012-09-10T07:54:41Z</time>
      </trkpt>
      <trkpt lat="44.75487" lon="3.35851">
        <ele>1082</ele>
        <time>2012-09-10T07:54:53Z</time>
      </trkpt>
      <trkpt lat="44.75474" lon="3.35853">
        <ele>1080</ele>
        <time>2012-09-10T07:55:06Z</time>
      </trkpt>
      <trkpt lat="44.75457" lon="3.35851">
        <ele>1084</ele>
        <time>2012-09-10T07:55:18Z</time>
      </trkpt>
      <trkpt lat="44.75443" lon="3.35848">
        <ele>1078</ele>
        <time>2012-09-10T07:55:29Z</time>
      </trkpt>
      <trkpt lat="44.75432" lon="3.35844">
        <ele>1080</ele>
        <time>2012-09-10T07:55:39Z</time>
      </trkpt>
      <trkpt lat="44.75418" lon="3.35838">
        <ele>1075</ele>
        <time>2012-09-10T07:55:50Z</time>
      </trkpt>
      <trkpt lat="44.75405" lon="3.35831">
        <ele>1077</ele>
        <time>2012-09-10T07:56:01Z</time>
      </trkpt>
      <trkpt lat="44.75393" lon="3.35831">
        <ele>1083</ele>
        <time>2012-09-10T07:56:12Z</time>
      </trkpt>
      <trkpt lat="44.75383" lon="3.35833">
        <ele>1079</ele>
        <time>2012-09-10T07:56:23Z</time>
      </trkpt>
      <trkpt lat="44.75374" lon="3.35829">
        <ele>1082</ele>
        <time>2012-09-10T07:56:34Z</time>
      </trkpt>
      <trkpt lat="44.75364" lon="3.35815">
        <ele>1081</ele>
        <time>2012-09-10T07:56:46Z</time>
      </trkpt>
      <trkpt lat="44.75356" lon="3.35804">
        <ele>1076</ele>
        <time>2012-09-10T07:56:56Z</time>
      </trkpt>
      <trkpt lat="44.75345" lon="3.35791">
        <ele>1075</ele>
        <time>2012-09-10T07:57:07Z</time>
      </trkpt>
      <trkpt lat="44.75336" lon="3.35779">
        <ele>1080</ele>
        <time>2012-09-10T07:57:17Z</time>
      </trkpt>
      <trkpt lat="44.75327" lon="3.3577">
        <ele>1079</ele>
        <time>2012-09-10T07:57:28Z</time>
      </trkpt>
      <trkpt lat="44.7532" lon="3.35755">
        <ele>1079</ele>
        <time>2012-09-10T07:57:39Z</time>
      </trkpt>
      <trkpt lat="44.75311" lon="3.35745">
        <ele>1075</ele>
        <time>2012-09-10T07:57:50Z</time>
      </trkpt>
      <trkpt lat="44.75303" lon="3.35735">
        <ele>1076</ele>
        <time>2012-09-10T07:58:00Z</time>
      </trkpt>
      <trkpt lat="44.75296" lon="3.3572">
        <ele>1081</ele>
        <time>2012-09-10T07:58:10Z</time>
      </trkpt>
      <trkpt lat="44.7529" lon="3.35711">
        <ele>1076</ele>
        <time>2012-09-10T07:58:20Z</time>
      </trkpt>
      <trkpt lat="44.75278" lon="3.35705">
        <ele>1079</ele>
        <time>2012-09-10T07:58:31Z</time>
      </trkpt>
      <trkpt lat="44.75267" lon="3.35693">
        <ele>1077</ele>
        <time>2012-09-10T07:58:41Z</time>
      </trkpt>
      <trkpt lat="44.75256" lon="3.35681">
        <ele>1083</ele>
        <time>2012-09-10T07:58:54Z</time>
      </trkpt>
      <trkpt lat="44.75245" lon="3.35669">
        <ele>1083</ele>
        <time>2012-09-10T07:59:05Z</time>
      </trkpt>
      <trkpt lat="44.75233" lon="3.35659">
        <ele>1087</ele>
        <time>2012-09-10T07:59:17Z</time>
      </trkpt>
      <trkpt lat="44.75223" lon="3.35647">
        <ele>1082</ele>
        <time>2012-09-10T07:59:27Z</time>
      </trkpt>
      <trkpt lat="44.75213" lon="3.35638">
        <ele>1079</ele>
        <time>2012-09-10T07:59:38Z</time>
      </trkpt>
      <trkpt lat="44.75205" lon="3.35625">
        <ele>1079</ele>
        <time>2012-09-10T07:59:48Z</time>
      </trkpt>
      <trkpt lat="44.75196" lon="3.35613">
        <ele>1081</ele>
        <time>2012-09-10T07:59:59Z</time>
      </trkpt>
      <trkpt lat="44.75185" lon="3.35603">
        <ele>1085</ele>
        <time>2012-09-10T08:00:09Z</time>
      </trkpt>
      <trkpt lat="44.75174" lon="3.35593">
        <ele>1085</ele>
        <time>2012-09-10T08:00:20Z</time>
      </trkpt>
      <trkpt lat="44.75168" lon="3.35577">
        <ele>1084</ele>
        <time>2012-09-10T08:00:33Z</time>
      </trkpt>
      <trkpt lat="44.75167" lon="3.35559">
        <ele>1086</ele>
        <time>2012-09-10T08:00:45Z</time>
      </trkpt>
      <trkpt lat="44.75162" lon="3.35544">
        <ele>1092</ele>
        <time>2012-09-10T08:00:57Z</time>
      </trkpt>
      <trkpt lat="44.75151" lon="3.35538">
        <ele>1099</ele>
        <time>2012-09-10T08:01:08Z</time>
      </trkpt>
      <trkpt lat="44.75139" lon="3.35536">
        <ele>1098</ele>
        <time>2012-09-10T08:01:20Z</time>
      </trkpt>
      <trkpt lat="44.75126" lon="3.35531">
        <ele>1085</ele>
        <time>2012-09-10T08:01:35Z</time>
      </trkpt>
      <trkpt lat="44.75113" lon="3.35524">
        <ele>1095</ele>
        <time>2012-09-10T08:01:46Z</time>
      </trkpt>
      <trkpt lat="44.75111" lon="3.35529">
        <ele>1098</ele>
        <time>2012-09-10T08:01:59Z</time>
      </trkpt>
      <trkpt lat="44.75105" lon="3.35524">
        <ele>1092</ele>
        <time>2012-09-10T08:02:12Z</time>
      </trkpt>
      <trkpt lat="44.75092" lon="3.35517">
        <ele>1086</ele>
        <time>2012-09-10T08:02:23Z</time>
      </trkpt>
      <trkpt lat="44.75082" lon="3.3551">
        <ele>1085</ele>
        <time>2012-09-10T08:02:37Z</time>
      </trkpt>
      <trkpt lat="44.75064" lon="3.35495">
        <ele>1082</ele>
        <time>2012-09-10T08:02:48Z</time>
      </trkpt>
      <trkpt lat="44.75052" lon="3.35487">
        <ele>1077</ele>
        <time>2012-09-10T08:02:58Z</time>
      </trkpt>
      <trkpt lat="44.75035" lon="3.35475">
        <ele>1090</ele>
        <time>2012-09-10T08:03:10Z</time>
      </trkpt>
      <trkpt lat="44.75026" lon="3.35468">
        <ele>1090</ele>
        <time>2012-09-10T08:03:20Z</time>
      </trkpt>
      <trkpt lat="44.75014" lon="3.35461">
        <ele>1088</ele>
        <time>2012-09-10T08:03:31Z</time>
      </trkpt>
      <trkpt lat="44.75002" lon="3.35455">
        <ele>1088</ele>
        <time>2012-09-10T08:03:41Z</time>
      </trkpt>
      <trkpt lat="44.74986" lon="3.35448">
        <ele>1089</ele>
        <time>2012-09-10T08:03:53Z</time>
      </trkpt>
      <trkpt lat="44.74976" lon="3.35447">
        <ele>1090</ele>
        <time>2012-09-10T08:04:05Z</time>
      </trkpt>
      <trkpt lat="44.74963" lon="3.35439">
        <ele>1084</ele>
        <time>2012-09-10T08:04:18Z</time>
      </trkpt>
      <trkpt lat="44.74949" lon="3.35433">
        <ele>1089</ele>
        <time>2012-09-10T08:04:30Z</time>
      </trkpt>
      <trkpt lat="44.74938" lon="3.35422">
        <ele>1081</ele>
        <time>2012-09-10T08:04:42Z</time>
      </trkpt>
      <trkpt lat="44.74924" lon="3.35409">
        <ele>1082</ele>
        <time>2012-09-10T08:04:54Z</time>
      </trkpt>
      <trkpt lat="44.74918" lon="3.35403">
        <ele>1086</ele>
        <time>2012-09-10T08:05:09Z</time>
      </trkpt>
      <trkpt lat="44.74907" lon="3.3539">
        <ele>1092</ele>
        <time>2012-09-10T08:05:20Z</time>
      </trkpt>
      <trkpt lat="44.74897" lon="3.35381">
        <ele>1093</ele>
        <time>2012-09-10T08:05:32Z</time>
      </trkpt>
      <trkpt lat="44.74885" lon="3.35369">
        <ele>1089</ele>
        <time>2012-09-10T08:05:44Z</time>
      </trkpt>
      <trkpt lat="44.74873" lon="3.35353">
        <ele>1090</ele>
        <time>2012-09-10T08:05:57Z</time>
      </trkpt>
      <trkpt lat="44.74866" lon="3.35339">
        <ele>1089</ele>
        <time>2012-09-10T08:06:08Z</time>
      </trkpt>
      <trkpt lat="44.74862" lon="3.35318">
        <ele>1088</ele>
        <time>2012-09-10T08:06:20Z</time>
      </trkpt>
      <trkpt lat="44.74858" lon="3.35298">
        <ele>1085</ele>
        <time>2012-09-10T08:06:31Z</time>
      </trkpt>
      <trkpt lat="44.74851" lon="3.35281">
        <ele>1078</ele>
        <time>2012-09-10T08:06:43Z</time>
      </trkpt>
      <trkpt lat="44.74846" lon="3.35272">
        <ele>1079</ele>
        <time>2012-09-10T08:06:53Z</time>
      </trkpt>
      <trkpt lat="44.74837" lon="3.35254">
        <ele>1076</ele>
        <time>2012-09-10T08:07:04Z</time>
      </trkpt>
      <trkpt lat="44.74831" lon="3.35243">
        <ele>1075</ele>
        <time>2012-09-10T08:07:15Z</time>
      </trkpt>
      <trkpt lat="44.74825" lon="3.35232">
        <ele>1080</ele>
        <time>2012-09-10T08:07:26Z</time>
      </trkpt>
      <trkpt lat="44.74818" lon="3.35216">
        <ele>1082</ele>
        <time>2012-09-10T08:07:38Z</time>
      </trkpt>
      <trkpt lat="44.74809" lon="3.35202">
        <ele>1079</ele>
        <time>2012-09-10T08:07:50Z</time>
      </trkpt>
      <trkpt lat="44.74799" lon="3.35183">
        <ele>1075</ele>
        <time>2012-09-10T08:08:03Z</time>
      </trkpt>
      <trkpt lat="44.74791" lon="3.35169">
        <ele>1072</ele>
        <time>2012-09-10T08:08:14Z</time>
      </trkpt>
      <trkpt lat="44.74783" lon="3.35153">
        <ele>1078</ele>
        <time>2012-09-10T08:08:26Z</time>
      </trkpt>
      <trkpt lat="44.74772" lon="3.35141">
        <ele>1087</ele>
        <time>2012-09-10T08:08:36Z</time>
      </trkpt>
      <trkpt lat="44.74761" lon="3.35131">
        <ele>1080</ele>
        <time>2012-09-10T08:08:47Z</time>
      </trkpt>
      <trkpt lat="44.74752" lon="3.35115">
        <ele>1075</ele>
        <time>2012-09-10T08:08:59Z</time>
      </trkpt>
      <trkpt lat="44.74743" lon="3.35103">
        <ele>1074</ele>
        <time>2012-09-10T08:09:10Z</time>
      </trkpt>
      <trkpt lat="44.74731" lon="3.35086">
        <ele>1067</ele>
        <time>2012-09-10T08:09:23Z</time>
      </trkpt>
      <trkpt lat="44.74718" lon="3.35075">
        <ele>1077</ele>
        <time>2012-09-10T08:09:35Z</time>
      </trkpt>
      <trkpt lat="44.74707" lon="3.3507">
        <ele>1078</ele>
        <time>2012-09-10T08:09:46Z</time>
      </trkpt>
      <trkpt lat="44.74694" lon="3.35062">
        <ele>1079</ele>
        <time>2012-09-10T08:09:58Z</time>
      </trkpt>
      <trkpt lat="44.74681" lon="3.35056">
        <ele>1080</ele>
        <time>2012-09-10T08:10:11Z</time>
      </trkpt>
      <trkpt lat="44.7467" lon="3.35046">
        <ele>1076</ele>
        <time>2012-09-10T08:10:23Z</time>
      </trkpt>
      <trkpt lat="44.74657" lon="3.35039">
        <ele>1075</ele>
        <time>2012-09-10T08:10:35Z</time>
      </trkpt>
      <trkpt lat="44.74645" lon="3.35033">
        <ele>1076</ele>
        <time>2012-09-10T08:10:46Z</time>
      </trkpt>
      <trkpt lat="44.74633" lon="3.35028">
        <ele>1084</ele>
        <time>2012-09-10T08:10:58Z</time>
      </trkpt>
      <trkpt lat="44.74621" lon="3.35021">
        <ele>1073</ele>
        <time>2012-09-10T08:11:10Z</time>
      </trkpt>
      <trkpt lat="44.74607" lon="3.35018">
        <ele>1077</ele>
        <time>2012-09-10T08:11:22Z</time>
      </trkpt>
      <trkpt lat="44.74592" lon="3.35017">
        <ele>1078</ele>
        <time>2012-09-10T08:11:33Z</time>
      </trkpt>
      <trkpt lat="44.74576" lon="3.35017">
        <ele>1077</ele>
        <time>2012-09-10T08:11:46Z</time>
      </trkpt>
      <trkpt lat="44.74564" lon="3.35018">
        <ele>1079</ele>
        <time>2012-09-10T08:11:56Z</time>
      </trkpt>
      <trkpt lat="44.74551" lon="3.3502">
        <ele>1080</ele>
        <time>2012-09-10T08:12:06Z</time>
      </trkpt>
      <trkpt lat="44.74538" lon="3.35024">
        <ele>1079</ele>
        <time>2012-09-10T08:12:17Z</time>
      </trkpt>
      <trkpt lat="44.74528" lon="3.35029">
        <ele>1085</ele>
        <time>2012-09-10T08:12:27Z</time>
      </trkpt>
      <trkpt lat="44.74515" lon="3.35037">
        <ele>1079</ele>
        <time>2012-09-10T08:12:39Z</time>
      </trkpt>
      <trkpt lat="44.74504" lon="3.35048">
        <ele>1079</ele>
        <time>2012-09-10T08:12:52Z</time>
      </trkpt>
      <trkpt lat="44.74496" lon="3.35062">
        <ele>1076</ele>
        <time>2012-09-10T08:13:02Z</time>
      </trkpt>
      <trkpt lat="44.74486" lon="3.35075">
        <ele>1078</ele>
        <time>2012-09-10T08:13:13Z</time>
      </trkpt>
      <trkpt lat="44.74479" lon="3.35089">
        <ele>1076</ele>
        <time>2012-09-10T08:13:25Z</time>
      </trkpt>
      <trkpt lat="44.74475" lon="3.35105">
        <ele>1066</ele>
        <time>2012-09-10T08:13:37Z</time>
      </trkpt>
      <trkpt lat="44.74467" lon="3.35125">
        <ele>1069</ele>
        <time>2012-09-10T08:13:48Z</time>
      </trkpt>
      <trkpt lat="44.7446" lon="3.35141">
        <ele>1068</ele>
        <time>2012-09-10T08:14:01Z</time>
      </trkpt>
      <trkpt lat="44.74453" lon="3.35157">
        <ele>1075</ele>
        <time>2012-09-10T08:14:12Z</time>
      </trkpt>
      <trkpt lat="44.74451" lon="3.35176">
        <ele>1069</ele>
        <time>2012-09-10T08:14:24Z</time>
      </trkpt>
      <trkpt lat="44.74447" lon="3.35194">
        <ele>1069</ele>
        <time>2012-09-10T08:14:36Z</time>
      </trkpt>
      <trkpt lat="44.7444" lon="3.35207">
        <ele>1072</ele>
        <time>2012-09-10T08:14:46Z</time>
      </trkpt>
      <trkpt lat="44.74436" lon="3.35221">
        <ele>1070</ele>
        <time>2012-09-10T08:14:57Z</time>
      </trkpt>
      <trkpt lat="44.74433" lon="3.35233">
        <ele>1076</ele>
        <time>2012-09-10T08:15:20Z</time>
      </trkpt>
      <trkpt lat="44.74434" lon="3.35239">
        <ele>1075</ele>
        <time>2012-09-10T08:15:35Z</time>
      </trkpt>
      <trkpt lat="44.74431" lon="3.35241">
        <ele>1082</ele>
        <time>2012-09-10T08:15:49Z</time>
      </trkpt>
      <trkpt lat="44.74425" lon="3.35241">
        <ele>1079</ele>
        <time>2012-09-10T08:15:59Z</time>
      </trkpt>
      <trkpt lat="44.7442" lon="3.35237">
        <ele>1080</ele>
        <time>2012-09-10T08:16:19Z</time>
      </trkpt>
      <trkpt lat="44.74421" lon="3.35232">
        <ele>1072</ele>
        <time>2012-09-10T08:16:52Z</time>
      </trkpt>
      <trkpt lat="44.74424" lon="3.35232">
        <ele>1064</ele>
        <time>2012-09-10T08:17:20Z</time>
      </trkpt>
      <trkpt lat="44.74428" lon="3.35231">
        <ele>1071</ele>
        <time>2012-09-10T08:17:36Z</time>
      </trkpt>
      <trkpt lat="44.74428" lon="3.35235">
        <ele>1078</ele>
        <time>2012-09-10T08:17:55Z</time>
      </trkpt>
      <trkpt lat="44.74426" lon="3.35242">
        <ele>1095</ele>
        <time>2012-09-10T08:18:49Z</time>
      </trkpt>
      <trkpt lat="44.74436" lon="3.35252">
        <ele>1073</ele>
        <time>2012-09-10T08:18:59Z</time>
      </trkpt>
      <trkpt lat="44.74437" lon="3.3526">
        <ele>1069</ele>
        <time>2012-09-10T08:19:09Z</time>
      </trkpt>
      <trkpt lat="44.74425" lon="3.35263">
        <ele>1076</ele>
        <time>2012-09-10T08:19:20Z</time>
      </trkpt>
      <trkpt lat="44.74424" lon="3.35256">
        <ele>1082</ele>
        <time>2012-09-10T08:19:35Z</time>
      </trkpt>
      <trkpt lat="44.74422" lon="3.35249">
        <ele>1081</ele>
        <time>2012-09-10T08:19:59Z</time>
      </trkpt>
      <trkpt lat="44.74417" lon="3.35243">
        <ele>1082</ele>
        <time>2012-09-10T08:20:13Z</time>
      </trkpt>
      <trkpt lat="44.74418" lon="3.35239">
        <ele>1070</ele>
        <time>2012-09-10T08:20:29Z</time>
      </trkpt>
      <trkpt lat="44.74414" lon="3.35241">
        <ele>1064</ele>
        <time>2012-09-10T08:20:59Z</time>
      </trkpt>
      <trkpt lat="44.74411" lon="3.35252">
        <ele>1057</ele>
        <time>2012-09-10T08:21:12Z</time>
      </trkpt>
      <trkpt lat="44.74416" lon="3.35251">
        <ele>1086</ele>
        <time>2012-09-10T08:21:57Z</time>
      </trkpt>
      <trkpt lat="44.74424" lon="3.35237">
        <ele>1094</ele>
        <time>2012-09-10T08:22:29Z</time>
      </trkpt>
      <trkpt lat="44.7442" lon="3.35239">
        <ele>1082</ele>
        <time>2012-09-10T08:23:07Z</time>
      </trkpt>
      <trkpt lat="44.74419" lon="3.35244">
        <ele>1067</ele>
        <time>2012-09-10T08:23:28Z</time>
      </trkpt>
      <trkpt lat="44.74421" lon="3.35241">
        <ele>1066</ele>
        <time>2012-09-10T08:23:55Z</time>
      </trkpt>
      <trkpt lat="44.74424" lon="3.35236">
        <ele>1078</ele>
        <time>2012-09-10T08:24:10Z</time>
      </trkpt>
      <trkpt lat="44.74426" lon="3.35238">
        <ele>1078</ele>
        <time>2012-09-10T08:24:43Z</time>
      </trkpt>
      <trkpt lat="44.74424" lon="3.35242">
        <ele>1082</ele>
        <time>2012-09-10T08:25:21Z</time>
      </trkpt>
      <trkpt lat="44.74425" lon="3.35238">
        <ele>1046</ele>
        <time>2012-09-10T08:26:23Z</time>
      </trkpt>
      <trkpt lat="44.74425" lon="3.35242">
        <ele>1067</ele>
        <time>2012-09-10T08:26:43Z</time>
      </trkpt>
      <trkpt lat="44.74418" lon="3.35254">
        <ele>1071</ele>
        <time>2012-09-10T08:26:54Z</time>
      </trkpt>
      <trkpt lat="44.74406" lon="3.35266">
        <ele>1076</ele>
        <time>2012-09-10T08:27:07Z</time>
      </trkpt>
      <trkpt lat="44.74396" lon="3.35275">
        <ele>1072</ele>
        <time>2012-09-10T08:27:18Z</time>
      </trkpt>
      <trkpt lat="44.74389" lon="3.35287">
        <ele>1064</ele>
        <time>2012-09-10T08:27:30Z</time>
      </trkpt>
      <trkpt lat="44.74393" lon="3.35301">
        <ele>1067</ele>
        <time>2012-09-10T08:27:40Z</time>
      </trkpt>
      <trkpt lat="44.744" lon="3.35316">
        <ele>1068</ele>
        <time>2012-09-10T08:27:53Z</time>
      </trkpt>
      <trkpt lat="44.74393" lon="3.35334">
        <ele>1063</ele>
        <time>2012-09-10T08:28:04Z</time>
      </trkpt>
      <trkpt lat="44.74384" lon="3.35334">
        <ele>1063</ele>
        <time>2012-09-10T08:28:16Z</time>
      </trkpt>
      <trkpt lat="44.74372" lon="3.35335">
        <ele>1065</ele>
        <time>2012-09-10T08:28:29Z</time>
      </trkpt>
      <trkpt lat="44.74364" lon="3.35328">
        <ele>1055</ele>
        <time>2012-09-10T08:28:41Z</time>
      </trkpt>
      <trkpt lat="44.74353" lon="3.35321">
        <ele>1053</ele>
        <time>2012-09-10T08:28:54Z</time>
      </trkpt>
      <trkpt lat="44.74345" lon="3.35313">
        <ele>1042</ele>
        <time>2012-09-10T08:29:43Z</time>
      </trkpt>
      <trkpt lat="44.7434" lon="3.35308">
        <ele>1042</ele>
        <time>2012-09-10T08:29:54Z</time>
      </trkpt>
      <trkpt lat="44.74328" lon="3.35302">
        <ele>1043</ele>
        <time>2012-09-10T08:30:07Z</time>
      </trkpt>
      <trkpt lat="44.74312" lon="3.35299">
        <ele>1044</ele>
        <time>2012-09-10T08:30:20Z</time>
      </trkpt>
      <trkpt lat="44.743" lon="3.353">
        <ele>1041</ele>
        <time>2012-09-10T08:30:31Z</time>
      </trkpt>
      <trkpt lat="44.74287" lon="3.35294">
        <ele>1042</ele>
        <time>2012-09-10T08:30:43Z</time>
      </trkpt>
      <trkpt lat="44.74278" lon="3.35294">
        <ele>1039</ele>
        <time>2012-09-10T08:30:53Z</time>
      </trkpt>
      <trkpt lat="44.74266" lon="3.35299">
        <ele>1039</ele>
        <time>2012-09-10T08:31:05Z</time>
      </trkpt>
      <trkpt lat="44.74253" lon="3.35301">
        <ele>1028</ele>
        <time>2012-09-10T08:31:20Z</time>
      </trkpt>
      <trkpt lat="44.74247" lon="3.35298">
        <ele>1025</ele>
        <time>2012-09-10T08:33:43Z</time>
      </trkpt>
      <trkpt lat="44.74237" lon="3.353">
        <ele>1027</ele>
        <time>2012-09-10T08:33:53Z</time>
      </trkpt>
      <trkpt lat="44.74228" lon="3.35303">
        <ele>1018</ele>
        <time>2012-09-10T08:34:31Z</time>
      </trkpt>
      <trkpt lat="44.74215" lon="3.35306">
        <ele>1014</ele>
        <time>2012-09-10T08:34:43Z</time>
      </trkpt>
      <trkpt lat="44.74202" lon="3.35303">
        <ele>1015</ele>
        <time>2012-09-10T08:34:55Z</time>
      </trkpt>
      <trkpt lat="44.74199" lon="3.35301">
        <ele>1013</ele>
        <time>2012-09-10T08:35:05Z</time>
      </trkpt>
      <trkpt lat="44.74194" lon="3.35301">
        <ele>1010</ele>
        <time>2012-09-10T08:35:43Z</time>
      </trkpt>
      <trkpt lat="44.74185" lon="3.35304">
        <ele>1008</ele>
        <time>2012-09-10T08:35:53Z</time>
      </trkpt>
      <trkpt lat="44.74173" lon="3.35304">
        <ele>1002</ele>
        <time>2012-09-10T08:36:04Z</time>
      </trkpt>
      <trkpt lat="44.74161" lon="3.35304">
        <ele>1012</ele>
        <time>2012-09-10T08:36:15Z</time>
      </trkpt>
      <trkpt lat="44.7415" lon="3.35317">
        <ele>1007</ele>
        <time>2012-09-10T08:36:28Z</time>
      </trkpt>
      <trkpt lat="44.74139" lon="3.3532">
        <ele>1011</ele>
        <time>2012-09-10T08:36:41Z</time>
      </trkpt>
      <trkpt lat="44.74139" lon="3.35317">
        <ele>1003</ele>
        <time>2012-09-10T08:37:18Z</time>
      </trkpt>
      <trkpt lat="44.74133" lon="3.35307">
        <ele>1002</ele>
        <time>2012-09-10T08:37:53Z</time>
      </trkpt>
      <trkpt lat="44.74127" lon="3.35298">
        <ele>1004</ele>
        <time>2012-09-10T08:38:04Z</time>
      </trkpt>
      <trkpt lat="44.74119" lon="3.35297">
        <ele>1007</ele>
        <time>2012-09-10T08:38:15Z</time>
      </trkpt>
      <trkpt lat="44.74117" lon="3.35299">
        <ele>999</ele>
        <time>2012-09-10T08:38:40Z</time>
      </trkpt>
      <trkpt lat="44.74115" lon="3.35313">
        <ele>999</ele>
        <time>2012-09-10T08:38:50Z</time>
      </trkpt>
      <trkpt lat="44.74111" lon="3.35322">
        <ele>1003</ele>
        <time>2012-09-10T08:39:00Z</time>
      </trkpt>
      <trkpt lat="44.74104" lon="3.3532">
        <ele>1001</ele>
        <time>2012-09-10T08:39:11Z</time>
      </trkpt>
      <trkpt lat="44.741" lon="3.35305">
        <ele>993</ele>
        <time>2012-09-10T08:39:21Z</time>
      </trkpt>
      <trkpt lat="44.74096" lon="3.35288">
        <ele>993</ele>
        <time>2012-09-10T08:39:33Z</time>
      </trkpt>
      <trkpt lat="44.74098" lon="3.35274">
        <ele>989</ele>
        <time>2012-09-10T08:39:43Z</time>
      </trkpt>
      <trkpt lat="44.74092" lon="3.35256">
        <ele>993</ele>
        <time>2012-09-10T08:39:55Z</time>
      </trkpt>
      <trkpt lat="44.74094" lon="3.35237">
        <ele>997</ele>
        <time>2012-09-10T08:40:07Z</time>
      </trkpt>
      <trkpt lat="44.74098" lon="3.35219">
        <ele>991</ele>
        <time>2012-09-10T08:40:18Z</time>
      </trkpt>
      <trkpt lat="44.74098" lon="3.35197">
        <ele>988</ele>
        <time>2012-09-10T08:40:31Z</time>
      </trkpt>
      <trkpt lat="44.74095" lon="3.3518">
        <ele>988</ele>
        <time>2012-09-10T08:40:42Z</time>
      </trkpt>
      <trkpt lat="44.741" lon="3.35163">
        <ele>999</ele>
        <time>2012-09-10T08:40:54Z</time>
      </trkpt>
      <trkpt lat="44.74104" lon="3.35142">
        <ele>989</ele>
        <time>2012-09-10T08:41:07Z</time>
      </trkpt>
      <trkpt lat="44.741" lon="3.35131">
        <ele>980</ele>
        <time>2012-09-10T08:41:17Z</time>
      </trkpt>
      <trkpt lat="44.74101" lon="3.35112">
        <ele>992</ele>
        <time>2012-09-10T08:41:29Z</time>
      </trkpt>
      <trkpt lat="44.74091" lon="3.351">
        <ele>1003</ele>
        <time>2012-09-10T08:41:54Z</time>
      </trkpt>
      <trkpt lat="44.74091" lon="3.35092">
        <ele>1008</ele>
        <time>2012-09-10T08:42:17Z</time>
      </trkpt>
      <trkpt lat="44.74078" lon="3.35085">
        <ele>993</ele>
        <time>2012-09-10T08:42:30Z</time>
      </trkpt>
      <trkpt lat="44.7407" lon="3.35075">
        <ele>990</ele>
        <time>2012-09-10T08:42:41Z</time>
      </trkpt>
      <trkpt lat="44.7406" lon="3.35063">
        <ele>989</ele>
        <time>2012-09-10T08:42:52Z</time>
      </trkpt>
      <trkpt lat="44.7405" lon="3.35049">
        <ele>985</ele>
        <time>2012-09-10T08:43:03Z</time>
      </trkpt>
      <trkpt lat="44.74041" lon="3.35038">
        <ele>985</ele>
        <time>2012-09-10T08:43:14Z</time>
      </trkpt>
      <trkpt lat="44.74031" lon="3.35025">
        <ele>984</ele>
        <time>2012-09-10T08:43:25Z</time>
      </trkpt>
      <trkpt lat="44.74021" lon="3.3501">
        <ele>987</ele>
        <time>2012-09-10T08:43:37Z</time>
      </trkpt>
      <trkpt lat="44.74012" lon="3.34996">
        <ele>981</ele>
        <time>2012-09-10T08:43:48Z</time>
      </trkpt>
      <trkpt lat="44.74008" lon="3.34983">
        <ele>981</ele>
        <time>2012-09-10T08:43:58Z</time>
      </trkpt>
      <trkpt lat="44.73999" lon="3.34968">
        <ele>980</ele>
        <time>2012-09-10T08:44:10Z</time>
      </trkpt>
      <trkpt lat="44.73996" lon="3.34949">
        <ele>985</ele>
        <time>2012-09-10T08:44:23Z</time>
      </trkpt>
      <trkpt lat="44.73994" lon="3.34942">
        <ele>985</ele>
        <time>2012-09-10T08:44:34Z</time>
      </trkpt>
      <trkpt lat="44.73989" lon="3.34927">
        <ele>984</ele>
        <time>2012-09-10T08:44:45Z</time>
      </trkpt>
      <trkpt lat="44.73982" lon="3.34914">
        <ele>986</ele>
        <time>2012-09-10T08:44:56Z</time>
      </trkpt>
      <trkpt lat="44.73983" lon="3.349">
        <ele>984</ele>
        <time>2012-09-10T08:45:08Z</time>
      </trkpt>
      <trkpt lat="44.73991" lon="3.34884">
        <ele>981</ele>
        <time>2012-09-10T08:45:19Z</time>
      </trkpt>
      <trkpt lat="44.73999" lon="3.34867">
        <ele>977</ele>
        <time>2012-09-10T08:45:31Z</time>
      </trkpt>
      <trkpt lat="44.74007" lon="3.34852">
        <ele>975</ele>
        <time>2012-09-10T08:45:42Z</time>
      </trkpt>
      <trkpt lat="44.74015" lon="3.34837">
        <ele>980</ele>
        <time>2012-09-10T08:45:54Z</time>
      </trkpt>
      <trkpt lat="44.74022" lon="3.34821">
        <ele>983</ele>
        <time>2012-09-10T08:46:06Z</time>
      </trkpt>
      <trkpt lat="44.74031" lon="3.34806">
        <ele>983</ele>
        <time>2012-09-10T08:46:18Z</time>
      </trkpt>
      <trkpt lat="44.74044" lon="3.34791">
        <ele>983</ele>
        <time>2012-09-10T08:46:31Z</time>
      </trkpt>
      <trkpt lat="44.74052" lon="3.34777">
        <ele>982</ele>
        <time>2012-09-10T08:46:43Z</time>
      </trkpt>
      <trkpt lat="44.7406" lon="3.34764">
        <ele>985</ele>
        <time>2012-09-10T08:46:55Z</time>
      </trkpt>
      <trkpt lat="44.74059" lon="3.34747">
        <ele>987</ele>
        <time>2012-09-10T08:47:05Z</time>
      </trkpt>
      <trkpt lat="44.74054" lon="3.34731">
        <ele>986</ele>
        <time>2012-09-10T08:47:18Z</time>
      </trkpt>
      <trkpt lat="44.74056" lon="3.34715">
        <ele>988</ele>
        <time>2012-09-10T08:47:31Z</time>
      </trkpt>
      <trkpt lat="44.74063" lon="3.34705">
        <ele>990</ele>
        <time>2012-09-10T08:47:41Z</time>
      </trkpt>
      <trkpt lat="44.74067" lon="3.3469">
        <ele>991</ele>
        <time>2012-09-10T08:47:53Z</time>
      </trkpt>
      <trkpt lat="44.74072" lon="3.34674">
        <ele>989</ele>
        <time>2012-09-10T08:48:05Z</time>
      </trkpt>
      <trkpt lat="44.74075" lon="3.34661">
        <ele>990</ele>
        <time>2012-09-10T08:48:15Z</time>
      </trkpt>
      <trkpt lat="44.74082" lon="3.34647">
        <ele>989</ele>
        <time>2012-09-10T08:48:27Z</time>
      </trkpt>
      <trkpt lat="44.74086" lon="3.34635">
        <ele>992</ele>
        <time>2012-09-10T08:48:37Z</time>
      </trkpt>
      <trkpt lat="44.74089" lon="3.34623">
        <ele>994</ele>
        <time>2012-09-10T08:48:49Z</time>
      </trkpt>
      <trkpt lat="44.74088" lon="3.34605">
        <ele>998</ele>
        <time>2012-09-10T08:49:01Z</time>
      </trkpt>
      <trkpt lat="44.74085" lon="3.34593">
        <ele>999</ele>
        <time>2012-09-10T08:49:12Z</time>
      </trkpt>
      <trkpt lat="44.74084" lon="3.3458">
        <ele>1002</ele>
        <time>2012-09-10T08:49:22Z</time>
      </trkpt>
      <trkpt lat="44.74078" lon="3.34571">
        <ele>1000</ele>
        <time>2012-09-10T08:49:34Z</time>
      </trkpt>
      <trkpt lat="44.74067" lon="3.34561">
        <ele>1001</ele>
        <time>2012-09-10T08:49:47Z</time>
      </trkpt>
      <trkpt lat="44.7406" lon="3.34554">
        <ele>1002</ele>
        <time>2012-09-10T08:49:59Z</time>
      </trkpt>
      <trkpt lat="44.74047" lon="3.34551">
        <ele>1008</ele>
        <time>2012-09-10T08:50:11Z</time>
      </trkpt>
      <trkpt lat="44.74038" lon="3.3455">
        <ele>1010</ele>
        <time>2012-09-10T08:50:21Z</time>
      </trkpt>
      <trkpt lat="44.74028" lon="3.34546">
        <ele>1013</ele>
        <time>2012-09-10T08:50:33Z</time>
      </trkpt>
      <trkpt lat="44.74017" lon="3.34549">
        <ele>1013</ele>
        <time>2012-09-10T08:50:45Z</time>
      </trkpt>
      <trkpt lat="44.74011" lon="3.34551">
        <ele>1012</ele>
        <time>2012-09-10T08:51:34Z</time>
      </trkpt>
      <trkpt lat="44.74008" lon="3.34553">
        <ele>1016</ele>
        <time>2012-09-10T08:52:37Z</time>
      </trkpt>
      <trkpt lat="44.73994" lon="3.34553">
        <ele>1016</ele>
        <time>2012-09-10T08:52:49Z</time>
      </trkpt>
      <trkpt lat="44.73985" lon="3.34555">
        <ele>1013</ele>
        <time>2012-09-10T08:53:00Z</time>
      </trkpt>
      <trkpt lat="44.73973" lon="3.3456">
        <ele>1014</ele>
        <time>2012-09-10T08:53:12Z</time>
      </trkpt>
      <trkpt lat="44.73964" lon="3.34567">
        <ele>1013</ele>
        <time>2012-09-10T08:53:24Z</time>
      </trkpt>
      <trkpt lat="44.73952" lon="3.34575">
        <ele>1016</ele>
        <time>2012-09-10T08:53:36Z</time>
      </trkpt>
      <trkpt lat="44.73941" lon="3.34575">
        <ele>1019</ele>
        <time>2012-09-10T08:53:46Z</time>
      </trkpt>
      <trkpt lat="44.73932" lon="3.34564">
        <ele>1024</ele>
        <time>2012-09-10T08:53:59Z</time>
      </trkpt>
      <trkpt lat="44.73923" lon="3.34557">
        <ele>1032</ele>
        <time>2012-09-10T08:54:10Z</time>
      </trkpt>
      <trkpt lat="44.73915" lon="3.34552">
        <ele>1018</ele>
        <time>2012-09-10T08:54:21Z</time>
      </trkpt>
      <trkpt lat="44.73906" lon="3.34543">
        <ele>1027</ele>
        <time>2012-09-10T08:54:32Z</time>
      </trkpt>
      <trkpt lat="44.73899" lon="3.34535">
        <ele>1023</ele>
        <time>2012-09-10T08:54:43Z</time>
      </trkpt>
      <trkpt lat="44.73886" lon="3.34527">
        <ele>1024</ele>
        <time>2012-09-10T08:54:56Z</time>
      </trkpt>
      <trkpt lat="44.73879" lon="3.3452">
        <ele>1028</ele>
        <time>2012-09-10T08:55:06Z</time>
      </trkpt>
      <trkpt lat="44.73872" lon="3.3451">
        <ele>1031</ele>
        <time>2012-09-10T08:55:17Z</time>
      </trkpt>
      <trkpt lat="44.73863" lon="3.34503">
        <ele>1039</ele>
        <time>2012-09-10T08:55:29Z</time>
      </trkpt>
      <trkpt lat="44.73851" lon="3.34496">
        <ele>1039</ele>
        <time>2012-09-10T08:55:42Z</time>
      </trkpt>
      <trkpt lat="44.7384" lon="3.34485">
        <ele>1032</ele>
        <time>2012-09-10T08:55:55Z</time>
      </trkpt>
      <trkpt lat="44.7383" lon="3.34474">
        <ele>1039</ele>
        <time>2012-09-10T08:56:08Z</time>
      </trkpt>
      <trkpt lat="44.73818" lon="3.34468">
        <ele>1038</ele>
        <time>2012-09-10T08:56:20Z</time>
      </trkpt>
      <trkpt lat="44.73806" lon="3.34461">
        <ele>1039</ele>
        <time>2012-09-10T08:56:32Z</time>
      </trkpt>
      <trkpt lat="44.73794" lon="3.34451">
        <ele>1035</ele>
        <time>2012-09-10T08:56:44Z</time>
      </trkpt>
      <trkpt lat="44.73782" lon="3.34442">
        <ele>1037</ele>
        <time>2012-09-10T08:56:56Z</time>
      </trkpt>
      <trkpt lat="44.73771" lon="3.34431">
        <ele>1042</ele>
        <time>2012-09-10T08:57:08Z</time>
      </trkpt>
      <trkpt lat="44.73763" lon="3.34423">
        <ele>1038</ele>
        <time>2012-09-10T08:57:18Z</time>
      </trkpt>
      <trkpt lat="44.73755" lon="3.34413">
        <ele>1040</ele>
        <time>2012-09-10T08:57:28Z</time>
      </trkpt>
      <trkpt lat="44.73746" lon="3.34399">
        <ele>1038</ele>
        <time>2012-09-10T08:57:40Z</time>
      </trkpt>
      <trkpt lat="44.73738" lon="3.34384">
        <ele>1040</ele>
        <time>2012-09-10T08:57:53Z</time>
      </trkpt>
      <trkpt lat="44.73733" lon="3.34368">
        <ele>1042</ele>
        <time>2012-09-10T08:58:05Z</time>
      </trkpt>
      <trkpt lat="44.73725" lon="3.34352">
        <ele>1049</ele>
        <time>2012-09-10T08:58:16Z</time>
      </trkpt>
      <trkpt lat="44.73717" lon="3.34341">
        <ele>1052</ele>
        <time>2012-09-10T08:58:27Z</time>
      </trkpt>
      <trkpt lat="44.73708" lon="3.34328">
        <ele>1055</ele>
        <time>2012-09-10T08:58:38Z</time>
      </trkpt>
      <trkpt lat="44.737" lon="3.34311">
        <ele>1057</ele>
        <time>2012-09-10T08:58:50Z</time>
      </trkpt>
      <trkpt lat="44.73697" lon="3.34304">
        <ele>1054</ele>
        <time>2012-09-10T09:01:56Z</time>
      </trkpt>
      <trkpt lat="44.73693" lon="3.34292">
        <ele>1046</ele>
        <time>2012-09-10T09:02:13Z</time>
      </trkpt>
      <trkpt lat="44.73686" lon="3.34282">
        <ele>1047</ele>
        <time>2012-09-10T09:02:24Z</time>
      </trkpt>
      <trkpt lat="44.73679" lon="3.34272">
        <ele>1050</ele>
        <time>2012-09-10T09:02:37Z</time>
      </trkpt>
      <trkpt lat="44.73672" lon="3.34261">
        <ele>1053</ele>
        <time>2012-09-10T09:02:48Z</time>
      </trkpt>
      <trkpt lat="44.73666" lon="3.3425">
        <ele>1051</ele>
        <time>2012-09-10T09:02:59Z</time>
      </trkpt>
      <trkpt lat="44.7366" lon="3.3424">
        <ele>1052</ele>
        <time>2012-09-10T09:03:13Z</time>
      </trkpt>
      <trkpt lat="44.73651" lon="3.34229">
        <ele>1046</ele>
        <time>2012-09-10T09:03:25Z</time>
      </trkpt>
      <trkpt lat="44.73645" lon="3.34216">
        <ele>1046</ele>
        <time>2012-09-10T09:03:36Z</time>
      </trkpt>
      <trkpt lat="44.73638" lon="3.34202">
        <ele>1054</ele>
        <time>2012-09-10T09:03:48Z</time>
      </trkpt>
      <trkpt lat="44.73631" lon="3.34186">
        <ele>1050</ele>
        <time>2012-09-10T09:04:00Z</time>
      </trkpt>
      <trkpt lat="44.73626" lon="3.3417">
        <ele>1048</ele>
        <time>2012-09-10T09:04:12Z</time>
      </trkpt>
      <trkpt lat="44.7362" lon="3.34153">
        <ele>1050</ele>
        <time>2012-09-10T09:04:25Z</time>
      </trkpt>
      <trkpt lat="44.73614" lon="3.34138">
        <ele>1045</ele>
        <time>2012-09-10T09:04:42Z</time>
      </trkpt>
      <trkpt lat="44.73605" lon="3.34124">
        <ele>1048</ele>
        <time>2012-09-10T09:04:54Z</time>
      </trkpt>
      <trkpt lat="44.73597" lon="3.3411">
        <ele>1043</ele>
        <time>2012-09-10T09:05:06Z</time>
      </trkpt>
      <trkpt lat="44.73588" lon="3.34109">
        <ele>1048</ele>
        <time>2012-09-10T09:05:20Z</time>
      </trkpt>
      <trkpt lat="44.73578" lon="3.34107">
        <ele>1051</ele>
        <time>2012-09-10T09:05:31Z</time>
      </trkpt>
      <trkpt lat="44.73569" lon="3.341">
        <ele>1042</ele>
        <time>2012-09-10T09:05:43Z</time>
      </trkpt>
      <trkpt lat="44.7356" lon="3.3409">
        <ele>1041</ele>
        <time>2012-09-10T09:05:55Z</time>
      </trkpt>
      <trkpt lat="44.7355" lon="3.34082">
        <ele>1041</ele>
        <time>2012-09-10T09:06:06Z</time>
      </trkpt>
      <trkpt lat="44.73538" lon="3.34073">
        <ele>1035</ele>
        <time>2012-09-10T09:06:18Z</time>
      </trkpt>
      <trkpt lat="44.7353" lon="3.34066">
        <ele>1041</ele>
        <time>2012-09-10T09:06:28Z</time>
      </trkpt>
      <trkpt lat="44.7352" lon="3.3406">
        <ele>1036</ele>
        <time>2012-09-10T09:06:39Z</time>
      </trkpt>
      <trkpt lat="44.73507" lon="3.34054">
        <ele>1041</ele>
        <time>2012-09-10T09:06:51Z</time>
      </trkpt>
      <trkpt lat="44.73496" lon="3.34042">
        <ele>1040</ele>
        <time>2012-09-10T09:07:03Z</time>
      </trkpt>
      <trkpt lat="44.73487" lon="3.34036">
        <ele>1038</ele>
        <time>2012-09-10T09:07:15Z</time>
      </trkpt>
      <trkpt lat="44.73474" lon="3.34029">
        <ele>1037</ele>
        <time>2012-09-10T09:07:27Z</time>
      </trkpt>
      <trkpt lat="44.73462" lon="3.34018">
        <ele>1034</ele>
        <time>2012-09-10T09:07:39Z</time>
      </trkpt>
      <trkpt lat="44.73449" lon="3.34013">
        <ele>1037</ele>
        <time>2012-09-10T09:07:51Z</time>
      </trkpt>
      <trkpt lat="44.73436" lon="3.34007">
        <ele>1036</ele>
        <time>2012-09-10T09:08:06Z</time>
      </trkpt>
      <trkpt lat="44.7342" lon="3.34005">
        <ele>1035</ele>
        <time>2012-09-10T09:08:19Z</time>
      </trkpt>
      <trkpt lat="44.73407" lon="3.34">
        <ele>1032</ele>
        <time>2012-09-10T09:08:32Z</time>
      </trkpt>
      <trkpt lat="44.73402" lon="3.33991">
        <ele>1030</ele>
        <time>2012-09-10T09:09:39Z</time>
      </trkpt>
      <trkpt lat="44.73406" lon="3.33978">
        <ele>1029</ele>
        <time>2012-09-10T09:09:51Z</time>
      </trkpt>
      <trkpt lat="44.73409" lon="3.33963">
        <ele>1026</ele>
        <time>2012-09-10T09:10:04Z</time>
      </trkpt>
      <trkpt lat="44.73409" lon="3.33949">
        <ele>1031</ele>
        <time>2012-09-10T09:10:15Z</time>
      </trkpt>
      <trkpt lat="44.7341" lon="3.33936">
        <ele>1024</ele>
        <time>2012-09-10T09:10:55Z</time>
      </trkpt>
      <trkpt lat="44.73411" lon="3.33934">
        <ele>1029</ele>
        <time>2012-09-10T09:11:22Z</time>
      </trkpt>
      <trkpt lat="44.73402" lon="3.33929">
        <ele>1026</ele>
        <time>2012-09-10T09:11:32Z</time>
      </trkpt>
      <trkpt lat="44.73401" lon="3.33927">
        <ele>1021</ele>
        <time>2012-09-10T09:12:59Z</time>
      </trkpt>
      <trkpt lat="44.73398" lon="3.33929">
        <ele>1020</ele>
        <time>2012-09-10T09:13:14Z</time>
      </trkpt>
      <trkpt lat="44.73392" lon="3.33931">
        <ele>1025</ele>
        <time>2012-09-10T09:13:45Z</time>
      </trkpt>
      <trkpt lat="44.73394" lon="3.33928">
        <ele>1033</ele>
        <time>2012-09-10T09:14:33Z</time>
      </trkpt>
      <trkpt lat="44.73395" lon="3.33929">
        <ele>1023</ele>
        <time>2012-09-10T09:15:01Z</time>
      </trkpt>
      <trkpt lat="44.73399" lon="3.33929">
        <ele>1024</ele>
        <time>2012-09-10T09:16:05Z</time>
      </trkpt>
      <trkpt lat="44.73402" lon="3.33928">
        <ele>1017</ele>
        <time>2012-09-10T09:16:42Z</time>
      </trkpt>
      <trkpt lat="44.73399" lon="3.33927">
        <ele>1017</ele>
        <time>2012-09-10T09:17:22Z</time>
      </trkpt>
      <trkpt lat="44.73396" lon="3.33928">
        <ele>1030</ele>
        <time>2012-09-10T09:18:32Z</time>
      </trkpt>
      <trkpt lat="44.73394" lon="3.33931">
        <ele>1026</ele>
        <time>2012-09-10T09:19:49Z</time>
      </trkpt>
      <trkpt lat="44.7339" lon="3.33935">
        <ele>1035</ele>
        <time>2012-09-10T09:20:09Z</time>
      </trkpt>
      <trkpt lat="44.73389" lon="3.33931">
        <ele>1033</ele>
        <time>2012-09-10T09:20:46Z</time>
      </trkpt>
      <trkpt lat="44.73389" lon="3.33935">
        <ele>1034</ele>
        <time>2012-09-10T09:21:29Z</time>
      </trkpt>
      <trkpt lat="44.73387" lon="3.33942">
        <ele>1033</ele>
        <time>2012-09-10T09:21:41Z</time>
      </trkpt>
      <trkpt lat="44.73389" lon="3.33939">
        <ele>1034</ele>
        <time>2012-09-10T09:21:57Z</time>
      </trkpt>
      <trkpt lat="44.73399" lon="3.33934">
        <ele>1030</ele>
        <time>2012-09-10T09:22:15Z</time>
      </trkpt>
      <trkpt lat="44.73396" lon="3.33933">
        <ele>1031</ele>
        <time>2012-09-10T09:23:19Z</time>
      </trkpt>
      <trkpt lat="44.73397" lon="3.3393">
        <ele>1025</ele>
        <time>2012-09-10T09:25:18Z</time>
      </trkpt>
      <trkpt lat="44.73401" lon="3.33929">
        <ele>1031</ele>
        <time>2012-09-10T09:26:33Z</time>
      </trkpt>
      <trkpt lat="44.73398" lon="3.3393">
        <ele>1030</ele>
        <time>2012-09-10T09:27:05Z</time>
      </trkpt>
      <trkpt lat="44.73398" lon="3.3393">
        <ele>1024</ele>
        <time>2012-09-10T09:28:16Z</time>
      </trkpt>
      <trkpt lat="44.73396" lon="3.33931">
        <ele>1023</ele>
        <time>2012-09-10T09:31:44Z</time>
      </trkpt>
      <trkpt lat="44.73397" lon="3.33928">
        <ele>1011</ele>
        <time>2012-09-10T09:32:20Z</time>
      </trkpt>
      <trkpt lat="44.73401" lon="3.3393">
        <ele>1032</ele>
        <time>2012-09-10T09:32:52Z</time>
      </trkpt>
      <trkpt lat="44.73397" lon="3.33931">
        <ele>1033</ele>
        <time>2012-09-10T09:33:16Z</time>
      </trkpt>
      <trkpt lat="44.73401" lon="3.3393">
        <ele>1034</ele>
        <time>2012-09-10T09:40:18Z</time>
      </trkpt>
      <trkpt lat="44.73398" lon="3.33931">
        <ele>1032</ele>
        <time>2012-09-10T09:40:39Z</time>
      </trkpt>
      <trkpt lat="44.73396" lon="3.33928">
        <ele>1024</ele>
        <time>2012-09-10T09:41:46Z</time>
      </trkpt>
      <trkpt lat="44.73399" lon="3.33927">
        <ele>1048</ele>
        <time>2012-09-10T09:43:43Z</time>
      </trkpt>
      <trkpt lat="44.73397" lon="3.3393">
        <ele>1032</ele>
        <time>2012-09-10T09:44:05Z</time>
      </trkpt>
      <trkpt lat="44.734" lon="3.33928">
        <ele>1016</ele>
        <time>2012-09-10T09:45:42Z</time>
      </trkpt>
      <trkpt lat="44.73398" lon="3.33925">
        <ele>1027</ele>
        <time>2012-09-10T09:46:54Z</time>
      </trkpt>
      <trkpt lat="44.73399" lon="3.33929">
        <ele>1028</ele>
        <time>2012-09-10T09:47:36Z</time>
      </trkpt>
      <trkpt lat="44.73408" lon="3.33934">
        <ele>1023</ele>
        <time>2012-09-10T09:47:48Z</time>
      </trkpt>
      <trkpt lat="44.73412" lon="3.33925">
        <ele>1026</ele>
        <time>2012-09-10T09:48:01Z</time>
      </trkpt>
      <trkpt lat="44.73411" lon="3.33921">
        <ele>1031</ele>
        <time>2012-09-10T09:48:40Z</time>
      </trkpt>
      <trkpt lat="44.73412" lon="3.33903">
        <ele>1038</ele>
        <time>2012-09-10T09:48:52Z</time>
      </trkpt>
      <trkpt lat="44.73413" lon="3.33885">
        <ele>1031</ele>
        <time>2012-09-10T09:49:06Z</time>
      </trkpt>
      <trkpt lat="44.73416" lon="3.33868">
        <ele>1031</ele>
        <time>2012-09-10T09:49:19Z</time>
      </trkpt>
      <trkpt lat="44.73421" lon="3.33853">
        <ele>1032</ele>
        <time>2012-09-10T09:49:32Z</time>
      </trkpt>
      <trkpt lat="44.73429" lon="3.33841">
        <ele>1033</ele>
        <time>2012-09-10T09:49:45Z</time>
      </trkpt>
      <trkpt lat="44.73438" lon="3.33833">
        <ele>1032</ele>
        <time>2012-09-10T09:49:55Z</time>
      </trkpt>
      <trkpt lat="44.73446" lon="3.33822">
        <ele>1030</ele>
        <time>2012-09-10T09:50:07Z</time>
      </trkpt>
      <trkpt lat="44.73452" lon="3.33812">
        <ele>1032</ele>
        <time>2012-09-10T09:50:18Z</time>
      </trkpt>
      <trkpt lat="44.73456" lon="3.33797">
        <ele>1030</ele>
        <time>2012-09-10T09:50:31Z</time>
      </trkpt>
      <trkpt lat="44.73458" lon="3.33779">
        <ele>1031</ele>
        <time>2012-09-10T09:50:44Z</time>
      </trkpt>
      <trkpt lat="44.7346" lon="3.33765">
        <ele>1030</ele>
        <time>2012-09-10T09:50:54Z</time>
      </trkpt>
      <trkpt lat="44.73462" lon="3.33748">
        <ele>1029</ele>
        <time>2012-09-10T09:51:06Z</time>
      </trkpt>
      <trkpt lat="44.73461" lon="3.33729">
        <ele>1030</ele>
        <time>2012-09-10T09:51:18Z</time>
      </trkpt>
      <trkpt lat="44.73455" lon="3.33712">
        <ele>1030</ele>
        <time>2012-09-10T09:51:30Z</time>
      </trkpt>
      <trkpt lat="44.7345" lon="3.33695">
        <ele>1032</ele>
        <time>2012-09-10T09:51:44Z</time>
      </trkpt>
      <trkpt lat="44.73446" lon="3.33677">
        <ele>1032</ele>
        <time>2012-09-10T09:51:56Z</time>
      </trkpt>
      <trkpt lat="44.73444" lon="3.33664">
        <ele>1027</ele>
        <time>2012-09-10T09:52:06Z</time>
      </trkpt>
      <trkpt lat="44.73446" lon="3.33646">
        <ele>1030</ele>
        <time>2012-09-10T09:52:17Z</time>
      </trkpt>
      <trkpt lat="44.73447" lon="3.33626">
        <ele>1026</ele>
        <time>2012-09-10T09:52:29Z</time>
      </trkpt>
      <trkpt lat="44.73446" lon="3.33608">
        <ele>1026</ele>
        <time>2012-09-10T09:52:41Z</time>
      </trkpt>
      <trkpt lat="44.73446" lon="3.33595">
        <ele>1026</ele>
        <time>2012-09-10T09:52:51Z</time>
      </trkpt>
      <trkpt lat="44.73448" lon="3.33576">
        <ele>1026</ele>
        <time>2012-09-10T09:53:02Z</time>
      </trkpt>
      <trkpt lat="44.7345" lon="3.33563">
        <ele>1030</ele>
        <time>2012-09-10T09:53:13Z</time>
      </trkpt>
      <trkpt lat="44.73455" lon="3.33547">
        <ele>1030</ele>
        <time>2012-09-10T09:53:25Z</time>
      </trkpt>
      <trkpt lat="44.73461" lon="3.3353">
        <ele>1033</ele>
        <time>2012-09-10T09:53:37Z</time>
      </trkpt>
      <trkpt lat="44.73465" lon="3.33517">
        <ele>1033</ele>
        <time>2012-09-10T09:53:48Z</time>
      </trkpt>
      <trkpt lat="44.7347" lon="3.335">
        <ele>1031</ele>
        <time>2012-09-10T09:53:59Z</time>
      </trkpt>
      <trkpt lat="44.73475" lon="3.33488">
        <ele>1032</ele>
        <time>2012-09-10T09:54:09Z</time>
      </trkpt>
      <trkpt lat="44.73478" lon="3.33476">
        <ele>1035</ele>
        <time>2012-09-10T09:54:21Z</time>
      </trkpt>
      <trkpt lat="44.73479" lon="3.33458">
        <ele>1036</ele>
        <time>2012-09-10T09:54:33Z</time>
      </trkpt>
      <trkpt lat="44.73476" lon="3.33442">
        <ele>1035</ele>
        <time>2012-09-10T09:54:45Z</time>
      </trkpt>
      <trkpt lat="44.73473" lon="3.33425">
        <ele>1040</ele>
        <time>2012-09-10T09:54:58Z</time>
      </trkpt>
      <trkpt lat="44.7347" lon="3.33406">
        <ele>1039</ele>
        <time>2012-09-10T09:55:10Z</time>
      </trkpt>
      <trkpt lat="44.73466" lon="3.33394">
        <ele>1037</ele>
        <time>2012-09-10T09:55:22Z</time>
      </trkpt>
      <trkpt lat="44.73461" lon="3.33378">
        <ele>1035</ele>
        <time>2012-09-10T09:55:34Z</time>
      </trkpt>
      <trkpt lat="44.73456" lon="3.3336">
        <ele>1031</ele>
        <time>2012-09-10T09:55:46Z</time>
      </trkpt>
      <trkpt lat="44.7345" lon="3.33343">
        <ele>1033</ele>
        <time>2012-09-10T09:55:59Z</time>
      </trkpt>
      <trkpt lat="44.73442" lon="3.33328">
        <ele>1032</ele>
        <time>2012-09-10T09:56:11Z</time>
      </trkpt>
      <trkpt lat="44.73436" lon="3.33311">
        <ele>1035</ele>
        <time>2012-09-10T09:56:24Z</time>
      </trkpt>
      <trkpt lat="44.7343" lon="3.33296">
        <ele>1038</ele>
        <time>2012-09-10T09:56:36Z</time>
      </trkpt>
      <trkpt lat="44.7342" lon="3.33283">
        <ele>1033</ele>
        <time>2012-09-10T09:56:46Z</time>
      </trkpt>
      <trkpt lat="44.7341" lon="3.33272">
        <ele>1033</ele>
        <time>2012-09-10T09:56:58Z</time>
      </trkpt>
      <trkpt lat="44.73401" lon="3.33263">
        <ele>1031</ele>
        <time>2012-09-10T09:57:08Z</time>
      </trkpt>
      <trkpt lat="44.73393" lon="3.33257">
        <ele>1034</ele>
        <time>2012-09-10T09:57:18Z</time>
      </trkpt>
      <trkpt lat="44.7338" lon="3.33254">
        <ele>1037</ele>
        <time>2012-09-10T09:57:29Z</time>
      </trkpt>
      <trkpt lat="44.73367" lon="3.33246">
        <ele>1035</ele>
        <time>2012-09-10T09:57:41Z</time>
      </trkpt>
      <trkpt lat="44.73355" lon="3.33235">
        <ele>1032</ele>
        <time>2012-09-10T09:57:53Z</time>
      </trkpt>
      <trkpt lat="44.73345" lon="3.33225">
        <ele>1034</ele>
        <time>2012-09-10T09:58:05Z</time>
      </trkpt>
      <trkpt lat="44.73338" lon="3.33216">
        <ele>1037</ele>
        <time>2012-09-10T09:58:15Z</time>
      </trkpt>
      <trkpt lat="44.73326" lon="3.33202">
        <ele>1035</ele>
        <time>2012-09-10T09:58:27Z</time>
      </trkpt>
      <trkpt lat="44.73321" lon="3.33186">
        <ele>1028</ele>
        <time>2012-09-10T09:58:39Z</time>
      </trkpt>
      <trkpt lat="44.73313" lon="3.33171">
        <ele>1028</ele>
        <time>2012-09-10T09:58:51Z</time>
      </trkpt>
      <trkpt lat="44.73304" lon="3.33156">
        <ele>1038</ele>
        <time>2012-09-10T09:59:03Z</time>
      </trkpt>
      <trkpt lat="44.73295" lon="3.33141">
        <ele>1033</ele>
        <time>2012-09-10T09:59:14Z</time>
      </trkpt>
      <trkpt lat="44.7329" lon="3.33129">
        <ele>1030</ele>
        <time>2012-09-10T09:59:24Z</time>
      </trkpt>
      <trkpt lat="44.73284" lon="3.33115">
        <ele>1030</ele>
        <time>2012-09-10T09:59:34Z</time>
      </trkpt>
      <trkpt lat="44.7328" lon="3.33098">
        <ele>1038</ele>
        <time>2012-09-10T09:59:48Z</time>
      </trkpt>
      <trkpt lat="44.73275" lon="3.33079">
        <ele>1041</ele>
        <time>2012-09-10T09:59:59Z</time>
      </trkpt>
      <trkpt lat="44.7327" lon="3.33062">
        <ele>1046</ele>
        <time>2012-09-10T10:00:10Z</time>
      </trkpt>
      <trkpt lat="44.73263" lon="3.33047">
        <ele>1047</ele>
        <time>2012-09-10T10:00:22Z</time>
      </trkpt>
      <trkpt lat="44.73253" lon="3.33036">
        <ele>1040</ele>
        <time>2012-09-10T10:00:33Z</time>
      </trkpt>
      <trkpt lat="44.73243" lon="3.33026">
        <ele>1041</ele>
        <time>2012-09-10T10:00:43Z</time>
      </trkpt>
      <trkpt lat="44.73231" lon="3.33013">
        <ele>1041</ele>
        <time>2012-09-10T10:00:54Z</time>
      </trkpt>
      <trkpt lat="44.73217" lon="3.33007">
        <ele>1037</ele>
        <time>2012-09-10T10:01:06Z</time>
      </trkpt>
      <trkpt lat="44.73205" lon="3.33003">
        <ele>1045</ele>
        <time>2012-09-10T10:01:17Z</time>
      </trkpt>
      <trkpt lat="44.73193" lon="3.32995">
        <ele>1041</ele>
        <time>2012-09-10T10:01:29Z</time>
      </trkpt>
      <trkpt lat="44.7318" lon="3.32992">
        <ele>1045</ele>
        <time>2012-09-10T10:01:41Z</time>
      </trkpt>
      <trkpt lat="44.7317" lon="3.33001">
        <ele>1047</ele>
        <time>2012-09-10T10:01:54Z</time>
      </trkpt>
      <trkpt lat="44.73161" lon="3.33012">
        <ele>1047</ele>
        <time>2012-09-10T10:02:05Z</time>
      </trkpt>
      <trkpt lat="44.73154" lon="3.33022">
        <ele>1049</ele>
        <time>2012-09-10T10:02:17Z</time>
      </trkpt>
      <trkpt lat="44.7314" lon="3.33032">
        <ele>1042</ele>
        <time>2012-09-10T10:02:30Z</time>
      </trkpt>
      <trkpt lat="44.73132" lon="3.33039">
        <ele>1045</ele>
        <time>2012-09-10T10:02:42Z</time>
      </trkpt>
      <trkpt lat="44.73121" lon="3.33041">
        <ele>1048</ele>
        <time>2012-09-10T10:02:52Z</time>
      </trkpt>
      <trkpt lat="44.73112" lon="3.33039">
        <ele>1055</ele>
        <time>2012-09-10T10:03:03Z</time>
      </trkpt>
      <trkpt lat="44.73104" lon="3.33032">
        <ele>1041</ele>
        <time>2012-09-10T10:03:14Z</time>
      </trkpt>
      <trkpt lat="44.73095" lon="3.3302">
        <ele>1053</ele>
        <time>2012-09-10T10:03:27Z</time>
      </trkpt>
      <trkpt lat="44.73086" lon="3.33007">
        <ele>1048</ele>
        <time>2012-09-10T10:03:41Z</time>
      </trkpt>
      <trkpt lat="44.73078" lon="3.32999">
        <ele>1059</ele>
        <time>2012-09-10T10:03:53Z</time>
      </trkpt>
      <trkpt lat="44.73069" lon="3.32995">
        <ele>1056</ele>
        <time>2012-09-10T10:04:04Z</time>
      </trkpt>
      <trkpt lat="44.73053" lon="3.32996">
        <ele>1067</ele>
        <time>2012-09-10T10:04:16Z</time>
      </trkpt>
      <trkpt lat="44.73039" lon="3.32992">
        <ele>1067</ele>
        <time>2012-09-10T10:04:26Z</time>
      </trkpt>
      <trkpt lat="44.73027" lon="3.32992">
        <ele>1065</ele>
        <time>2012-09-10T10:04:36Z</time>
      </trkpt>
      <trkpt lat="44.73014" lon="3.32992">
        <ele>1066</ele>
        <time>2012-09-10T10:04:49Z</time>
      </trkpt>
      <trkpt lat="44.73001" lon="3.32995">
        <ele>1066</ele>
        <time>2012-09-10T10:05:02Z</time>
      </trkpt>
      <trkpt lat="44.72986" lon="3.32997">
        <ele>1073</ele>
        <time>2012-09-10T10:05:14Z</time>
      </trkpt>
      <trkpt lat="44.72972" lon="3.32999">
        <ele>1071</ele>
        <time>2012-09-10T10:05:26Z</time>
      </trkpt>
      <trkpt lat="44.7296" lon="3.32998">
        <ele>1070</ele>
        <time>2012-09-10T10:05:37Z</time>
      </trkpt>
      <trkpt lat="44.72948" lon="3.32998">
        <ele>1077</ele>
        <time>2012-09-10T10:05:50Z</time>
      </trkpt>
      <trkpt lat="44.72934" lon="3.32999">
        <ele>1070</ele>
        <time>2012-09-10T10:06:03Z</time>
      </trkpt>
      <trkpt lat="44.72924" lon="3.33008">
        <ele>1077</ele>
        <time>2012-09-10T10:06:20Z</time>
      </trkpt>
      <trkpt lat="44.72912" lon="3.33016">
        <ele>1080</ele>
        <time>2012-09-10T10:06:32Z</time>
      </trkpt>
      <trkpt lat="44.729" lon="3.33022">
        <ele>1076</ele>
        <time>2012-09-10T10:06:44Z</time>
      </trkpt>
      <trkpt lat="44.72891" lon="3.33027">
        <ele>1079</ele>
        <time>2012-09-10T10:06:54Z</time>
      </trkpt>
      <trkpt lat="44.72881" lon="3.33031">
        <ele>1088</ele>
        <time>2012-09-10T10:07:05Z</time>
      </trkpt>
      <trkpt lat="44.72867" lon="3.33034">
        <ele>1082</ele>
        <time>2012-09-10T10:07:18Z</time>
      </trkpt>
      <trkpt lat="44.72858" lon="3.3304">
        <ele>1083</ele>
        <time>2012-09-10T10:07:28Z</time>
      </trkpt>
      <trkpt lat="44.72847" lon="3.33049">
        <ele>1089</ele>
        <time>2012-09-10T10:07:38Z</time>
      </trkpt>
      <trkpt lat="44.72839" lon="3.33058">
        <ele>1085</ele>
        <time>2012-09-10T10:07:48Z</time>
      </trkpt>
      <trkpt lat="44.7283" lon="3.33069">
        <ele>1090</ele>
        <time>2012-09-10T10:08:00Z</time>
      </trkpt>
      <trkpt lat="44.7282" lon="3.3308">
        <ele>1091</ele>
        <time>2012-09-10T10:08:12Z</time>
      </trkpt>
      <trkpt lat="44.72808" lon="3.3309">
        <ele>1091</ele>
        <time>2012-09-10T10:08:23Z</time>
      </trkpt>
      <trkpt lat="44.72797" lon="3.33101">
        <ele>1093</ele>
        <time>2012-09-10T10:08:35Z</time>
      </trkpt>
      <trkpt lat="44.72789" lon="3.33107">
        <ele>1091</ele>
        <time>2012-09-10T10:08:46Z</time>
      </trkpt>
      <trkpt lat="44.72778" lon="3.33117">
        <ele>1094</ele>
        <time>2012-09-10T10:08:56Z</time>
      </trkpt>
      <trkpt lat="44.72767" lon="3.33127">
        <ele>1091</ele>
        <time>2012-09-10T10:09:07Z</time>
      </trkpt>
      <trkpt lat="44.72754" lon="3.33135">
        <ele>1093</ele>
        <time>2012-09-10T10:09:19Z</time>
      </trkpt>
      <trkpt lat="44.72741" lon="3.33141">
        <ele>1094</ele>
        <time>2012-09-10T10:09:30Z</time>
      </trkpt>
      <trkpt lat="44.72731" lon="3.33143">
        <ele>1095</ele>
        <time>2012-09-10T10:09:40Z</time>
      </trkpt>
      <trkpt lat="44.72716" lon="3.33144">
        <ele>1092</ele>
        <time>2012-09-10T10:09:52Z</time>
      </trkpt>
      <trkpt lat="44.72705" lon="3.33144">
        <ele>1096</ele>
        <time>2012-09-10T10:10:02Z</time>
      </trkpt>
      <trkpt lat="44.72693" lon="3.33151">
        <ele>1100</ele>
        <time>2012-09-10T10:10:13Z</time>
      </trkpt>
      <trkpt lat="44.72681" lon="3.33156">
        <ele>1096</ele>
        <time>2012-09-10T10:10:24Z</time>
      </trkpt>
      <trkpt lat="44.72668" lon="3.33161">
        <ele>1088</ele>
        <time>2012-09-10T10:10:35Z</time>
      </trkpt>
      <trkpt lat="44.72655" lon="3.33167">
        <ele>1091</ele>
        <time>2012-09-10T10:10:47Z</time>
      </trkpt>
      <trkpt lat="44.72644" lon="3.33173">
        <ele>1092</ele>
        <time>2012-09-10T10:10:58Z</time>
      </trkpt>
      <trkpt lat="44.72631" lon="3.33179">
        <ele>1098</ele>
        <time>2012-09-10T10:11:09Z</time>
      </trkpt>
      <trkpt lat="44.72618" lon="3.33184">
        <ele>1098</ele>
        <time>2012-09-10T10:11:21Z</time>
      </trkpt>
      <trkpt lat="44.72605" lon="3.33179">
        <ele>1100</ele>
        <time>2012-09-10T10:11:32Z</time>
      </trkpt>
      <trkpt lat="44.72594" lon="3.33166">
        <ele>1097</ele>
        <time>2012-09-10T10:11:45Z</time>
      </trkpt>
      <trkpt lat="44.72583" lon="3.33153">
        <ele>1103</ele>
        <time>2012-09-10T10:11:56Z</time>
      </trkpt>
      <trkpt lat="44.72578" lon="3.33136">
        <ele>1099</ele>
        <time>2012-09-10T10:12:08Z</time>
      </trkpt>
      <trkpt lat="44.72573" lon="3.33123">
        <ele>1102</ele>
        <time>2012-09-10T10:12:18Z</time>
      </trkpt>
      <trkpt lat="44.72563" lon="3.33114">
        <ele>1105</ele>
        <time>2012-09-10T10:12:29Z</time>
      </trkpt>
      <trkpt lat="44.72554" lon="3.33101">
        <ele>1107</ele>
        <time>2012-09-10T10:12:41Z</time>
      </trkpt>
      <trkpt lat="44.72547" lon="3.33094">
        <ele>1115</ele>
        <time>2012-09-10T10:12:51Z</time>
      </trkpt>
      <trkpt lat="44.72536" lon="3.33079">
        <ele>1113</ele>
        <time>2012-09-10T10:13:04Z</time>
      </trkpt>
      <trkpt lat="44.7253" lon="3.33063">
        <ele>1110</ele>
        <time>2012-09-10T10:13:16Z</time>
      </trkpt>
      <trkpt lat="44.7252" lon="3.33044">
        <ele>1111</ele>
        <time>2012-09-10T10:13:29Z</time>
      </trkpt>
      <trkpt lat="44.72514" lon="3.33025">
        <ele>1108</ele>
        <time>2012-09-10T10:13:42Z</time>
      </trkpt>
      <trkpt lat="44.72507" lon="3.33006">
        <ele>1109</ele>
        <time>2012-09-10T10:13:54Z</time>
      </trkpt>
      <trkpt lat="44.72501" lon="3.3299">
        <ele>1109</ele>
        <time>2012-09-10T10:14:05Z</time>
      </trkpt>
      <trkpt lat="44.72491" lon="3.3298">
        <ele>1111</ele>
        <time>2012-09-10T10:14:15Z</time>
      </trkpt>
      <trkpt lat="44.7248" lon="3.32967">
        <ele>1109</ele>
        <time>2012-09-10T10:14:26Z</time>
      </trkpt>
      <trkpt lat="44.72472" lon="3.32952">
        <ele>1110</ele>
        <time>2012-09-10T10:14:37Z</time>
      </trkpt>
      <trkpt lat="44.72468" lon="3.32937">
        <ele>1106</ele>
        <time>2012-09-10T10:14:59Z</time>
      </trkpt>
      <trkpt lat="44.72471" lon="3.32935">
        <ele>1103</ele>
        <time>2012-09-10T10:15:52Z</time>
      </trkpt>
      <trkpt lat="44.72466" lon="3.32938">
        <ele>1107</ele>
        <time>2012-09-10T10:16:27Z</time>
      </trkpt>
      <trkpt lat="44.72466" lon="3.32942">
        <ele>1119</ele>
        <time>2012-09-10T10:17:00Z</time>
      </trkpt>
      <trkpt lat="44.72466" lon="3.32938">
        <ele>1108</ele>
        <time>2012-09-10T10:17:21Z</time>
      </trkpt>
      <trkpt lat="44.72462" lon="3.32924">
        <ele>1105</ele>
        <time>2012-09-10T10:17:33Z</time>
      </trkpt>
      <trkpt lat="44.72458" lon="3.32909">
        <ele>1105</ele>
        <time>2012-09-10T10:17:44Z</time>
      </trkpt>
      <trkpt lat="44.72451" lon="3.32888">
        <ele>1100</ele>
        <time>2012-09-10T10:17:58Z</time>
      </trkpt>
      <trkpt lat="44.72447" lon="3.32875">
        <ele>1104</ele>
        <time>2012-09-10T10:18:09Z</time>
      </trkpt>
      <trkpt lat="44.72443" lon="3.32857">
        <ele>1102</ele>
        <time>2012-09-10T10:18:21Z</time>
      </trkpt>
      <trkpt lat="44.72438" lon="3.32841">
        <ele>1109</ele>
        <time>2012-09-10T10:18:37Z</time>
      </trkpt>
      <trkpt lat="44.72428" lon="3.32847">
        <ele>1110</ele>
        <time>2012-09-10T10:18:48Z</time>
      </trkpt>
      <trkpt lat="44.72425" lon="3.3286">
        <ele>1103</ele>
        <time>2012-09-10T10:18:59Z</time>
      </trkpt>
      <trkpt lat="44.72421" lon="3.32866">
        <ele>1105</ele>
        <time>2012-09-10T10:19:17Z</time>
      </trkpt>
      <trkpt lat="44.72425" lon="3.32848">
        <ele>1105</ele>
        <time>2012-09-10T10:19:30Z</time>
      </trkpt>
      <trkpt lat="44.72427" lon="3.3284">
        <ele>1103</ele>
        <time>2012-09-10T10:19:40Z</time>
      </trkpt>
      <trkpt lat="44.72428" lon="3.32819">
        <ele>1099</ele>
        <time>2012-09-10T10:19:52Z</time>
      </trkpt>
      <trkpt lat="44.72424" lon="3.32798">
        <ele>1099</ele>
        <time>2012-09-10T10:20:04Z</time>
      </trkpt>
      <trkpt lat="44.7242" lon="3.32781">
        <ele>1098</ele>
        <time>2012-09-10T10:20:15Z</time>
      </trkpt>
      <trkpt lat="44.72415" lon="3.32764">
        <ele>1102</ele>
        <time>2012-09-10T10:20:27Z</time>
      </trkpt>
      <trkpt lat="44.72408" lon="3.32748">
        <ele>1106</ele>
        <time>2012-09-10T10:20:38Z</time>
      </trkpt>
      <trkpt lat="44.72402" lon="3.32732">
        <ele>1099</ele>
        <time>2012-09-10T10:20:48Z</time>
      </trkpt>
      <trkpt lat="44.72396" lon="3.32714">
        <ele>1099</ele>
        <time>2012-09-10T10:21:01Z</time>
      </trkpt>
      <trkpt lat="44.72392" lon="3.32697">
        <ele>1101</ele>
        <time>2012-09-10T10:21:12Z</time>
      </trkpt>
      <trkpt lat="44.72389" lon="3.32679">
        <ele>1097</ele>
        <time>2012-09-10T10:21:24Z</time>
      </trkpt>
      <trkpt lat="44.72392" lon="3.32655">
        <ele>1099</ele>
        <time>2012-09-10T10:21:36Z</time>
      </trkpt>
      <trkpt lat="44.72393" lon="3.32638">
        <ele>1104</ele>
        <time>2012-09-10T10:21:47Z</time>
      </trkpt>
      <trkpt lat="44.72393" lon="3.32619">
        <ele>1099</ele>
        <time>2012-09-10T10:21:59Z</time>
      </trkpt>
      <trkpt lat="44.72395" lon="3.32602">
        <ele>1098</ele>
        <time>2012-09-10T10:22:10Z</time>
      </trkpt>
      <trkpt lat="44.72395" lon="3.32582">
        <ele>1096</ele>
        <time>2012-09-10T10:22:22Z</time>
      </trkpt>
      <trkpt lat="44.72398" lon="3.32563">
        <ele>1103</ele>
        <time>2012-09-10T10:22:34Z</time>
      </trkpt>
      <trkpt lat="44.724" lon="3.32545">
        <ele>1106</ele>
        <time>2012-09-10T10:22:46Z</time>
      </trkpt>
      <trkpt lat="44.72403" lon="3.32525">
        <ele>1105</ele>
        <time>2012-09-10T10:22:58Z</time>
      </trkpt>
      <trkpt lat="44.72405" lon="3.32506">
        <ele>1099</ele>
        <time>2012-09-10T10:23:10Z</time>
      </trkpt>
      <trkpt lat="44.72406" lon="3.32486">
        <ele>1100</ele>
        <time>2012-09-10T10:23:22Z</time>
      </trkpt>
      <trkpt lat="44.72409" lon="3.32468">
        <ele>1102</ele>
        <time>2012-09-10T10:23:34Z</time>
      </trkpt>
      <trkpt lat="44.72411" lon="3.32449">
        <ele>1105</ele>
        <time>2012-09-10T10:23:46Z</time>
      </trkpt>
      <trkpt lat="44.72412" lon="3.32427">
        <ele>1109</ele>
        <time>2012-09-10T10:23:58Z</time>
      </trkpt>
      <trkpt lat="44.72415" lon="3.32409">
        <ele>1101</ele>
        <time>2012-09-10T10:24:11Z</time>
      </trkpt>
      <trkpt lat="44.72421" lon="3.32393">
        <ele>1105</ele>
        <time>2012-09-10T10:24:22Z</time>
      </trkpt>
      <trkpt lat="44.72422" lon="3.32373">
        <ele>1107</ele>
        <time>2012-09-10T10:24:33Z</time>
      </trkpt>
      <trkpt lat="44.72427" lon="3.32355">
        <ele>1109</ele>
        <time>2012-09-10T10:24:45Z</time>
      </trkpt>
      <trkpt lat="44.72427" lon="3.32338">
        <ele>1106</ele>
        <time>2012-09-10T10:24:57Z</time>
      </trkpt>
      <trkpt lat="44.7243" lon="3.32317">
        <ele>1105</ele>
        <time>2012-09-10T10:25:10Z</time>
      </trkpt>
      <trkpt lat="44.72435" lon="3.32301">
        <ele>1102</ele>
        <time>2012-09-10T10:25:21Z</time>
      </trkpt>
      <trkpt lat="44.72435" lon="3.32278">
        <ele>1102</ele>
        <time>2012-09-10T10:25:33Z</time>
      </trkpt>
      <trkpt lat="44.72436" lon="3.3226">
        <ele>1106</ele>
        <time>2012-09-10T10:25:44Z</time>
      </trkpt>
      <trkpt lat="44.72437" lon="3.32241">
        <ele>1103</ele>
        <time>2012-09-10T10:25:56Z</time>
      </trkpt>
      <trkpt lat="44.72436" lon="3.32223">
        <ele>1105</ele>
        <time>2012-09-10T10:26:07Z</time>
      </trkpt>
      <trkpt lat="44.72434" lon="3.32203">
        <ele>1107</ele>
        <time>2012-09-10T10:26:19Z</time>
      </trkpt>
      <trkpt lat="44.72433" lon="3.32184">
        <ele>1103</ele>
        <time>2012-09-10T10:26:31Z</time>
      </trkpt>
      <trkpt lat="44.72432" lon="3.32168">
        <ele>1102</ele>
        <time>2012-09-10T10:26:42Z</time>
      </trkpt>
      <trkpt lat="44.72433" lon="3.32148">
        <ele>1102</ele>
        <time>2012-09-10T10:26:54Z</time>
      </trkpt>
      <trkpt lat="44.72436" lon="3.32129">
        <ele>1104</ele>
        <time>2012-09-10T10:27:06Z</time>
      </trkpt>
      <trkpt lat="44.72443" lon="3.32112">
        <ele>1105</ele>
        <time>2012-09-10T10:27:18Z</time>
      </trkpt>
      <trkpt lat="44.72452" lon="3.32097">
        <ele>1104</ele>
        <time>2012-09-10T10:27:30Z</time>
      </trkpt>
      <trkpt lat="44.72462" lon="3.32086">
        <ele>1101</ele>
        <time>2012-09-10T10:27:40Z</time>
      </trkpt>
      <trkpt lat="44.72471" lon="3.32071">
        <ele>1100</ele>
        <time>2012-09-10T10:27:52Z</time>
      </trkpt>
      <trkpt lat="44.72479" lon="3.32058">
        <ele>1102</ele>
        <time>2012-09-10T10:28:03Z</time>
      </trkpt>
      <trkpt lat="44.72485" lon="3.32041">
        <ele>1104</ele>
        <time>2012-09-10T10:28:14Z</time>
      </trkpt>
      <trkpt lat="44.72487" lon="3.32023">
        <ele>1110</ele>
        <time>2012-09-10T10:28:27Z</time>
      </trkpt>
      <trkpt lat="44.72487" lon="3.32002">
        <ele>1106</ele>
        <time>2012-09-10T10:28:39Z</time>
      </trkpt>
      <trkpt lat="44.72489" lon="3.3198">
        <ele>1111</ele>
        <time>2012-09-10T10:28:52Z</time>
      </trkpt>
      <trkpt lat="44.72491" lon="3.31961">
        <ele>1111</ele>
        <time>2012-09-10T10:29:04Z</time>
      </trkpt>
      <trkpt lat="44.72495" lon="3.31944">
        <ele>1109</ele>
        <time>2012-09-10T10:29:17Z</time>
      </trkpt>
      <trkpt lat="44.725" lon="3.31926">
        <ele>1110</ele>
        <time>2012-09-10T10:29:29Z</time>
      </trkpt>
      <trkpt lat="44.72504" lon="3.31909">
        <ele>1107</ele>
        <time>2012-09-10T10:29:40Z</time>
      </trkpt>
      <trkpt lat="44.72508" lon="3.3189">
        <ele>1109</ele>
        <time>2012-09-10T10:29:51Z</time>
      </trkpt>
      <trkpt lat="44.72508" lon="3.31877">
        <ele>1110</ele>
        <time>2012-09-10T10:30:01Z</time>
      </trkpt>
      <trkpt lat="44.72506" lon="3.31856">
        <ele>1109</ele>
        <time>2012-09-10T10:30:12Z</time>
      </trkpt>
      <trkpt lat="44.72507" lon="3.31839">
        <ele>1113</ele>
        <time>2012-09-10T10:30:23Z</time>
      </trkpt>
      <trkpt lat="44.72511" lon="3.3182">
        <ele>1112</ele>
        <time>2012-09-10T10:30:34Z</time>
      </trkpt>
      <trkpt lat="44.72513" lon="3.31801">
        <ele>1117</ele>
        <time>2012-09-10T10:30:46Z</time>
      </trkpt>
      <trkpt lat="44.72514" lon="3.31781">
        <ele>1107</ele>
        <time>2012-09-10T10:30:57Z</time>
      </trkpt>
      <trkpt lat="44.72515" lon="3.31762">
        <ele>1110</ele>
        <time>2012-09-10T10:31:09Z</time>
      </trkpt>
      <trkpt lat="44.7252" lon="3.31742">
        <ele>1106</ele>
        <time>2012-09-10T10:31:21Z</time>
      </trkpt>
      <trkpt lat="44.7252" lon="3.31723">
        <ele>1112</ele>
        <time>2012-09-10T10:31:33Z</time>
      </trkpt>
      <trkpt lat="44.72518" lon="3.31705">
        <ele>1113</ele>
        <time>2012-09-10T10:31:44Z</time>
      </trkpt>
      <trkpt lat="44.72517" lon="3.31686">
        <ele>1112</ele>
        <time>2012-09-10T10:31:57Z</time>
      </trkpt>
      <trkpt lat="44.72517" lon="3.31665">
        <ele>1114</ele>
        <time>2012-09-10T10:32:08Z</time>
      </trkpt>
      <trkpt lat="44.7252" lon="3.31648">
        <ele>1114</ele>
        <time>2012-09-10T10:32:20Z</time>
      </trkpt>
      <trkpt lat="44.72521" lon="3.3163">
        <ele>1114</ele>
        <time>2012-09-10T10:32:32Z</time>
      </trkpt>
      <trkpt lat="44.72527" lon="3.31612">
        <ele>1111</ele>
        <time>2012-09-10T10:32:43Z</time>
      </trkpt>
      <trkpt lat="44.72529" lon="3.31591">
        <ele>1111</ele>
        <time>2012-09-10T10:32:54Z</time>
      </trkpt>
      <trkpt lat="44.72533" lon="3.31575">
        <ele>1116</ele>
        <time>2012-09-10T10:33:06Z</time>
      </trkpt>
      <trkpt lat="44.72536" lon="3.31556">
        <ele>1118</ele>
        <time>2012-09-10T10:33:18Z</time>
      </trkpt>
      <trkpt lat="44.72535" lon="3.31534">
        <ele>1117</ele>
        <time>2012-09-10T10:33:30Z</time>
      </trkpt>
      <trkpt lat="44.72535" lon="3.31515">
        <ele>1117</ele>
        <time>2012-09-10T10:33:49Z</time>
      </trkpt>
      <trkpt lat="44.72538" lon="3.31498">
        <ele>1118</ele>
        <time>2012-09-10T10:34:01Z</time>
      </trkpt>
      <trkpt lat="44.72536" lon="3.31495">
        <ele>1121</ele>
        <time>2012-09-10T10:34:48Z</time>
      </trkpt>
      <trkpt lat="44.72536" lon="3.31495">
        <ele>1126</ele>
        <time>2012-09-10T10:35:19Z</time>
      </trkpt>
      <trkpt lat="44.72537" lon="3.31492">
        <ele>1119</ele>
        <time>2012-09-10T10:35:39Z</time>
      </trkpt>
      <trkpt lat="44.72538" lon="3.31478">
        <ele>1118</ele>
        <time>2012-09-10T10:35:49Z</time>
      </trkpt>
      <trkpt lat="44.72539" lon="3.31466">
        <ele>1117</ele>
        <time>2012-09-10T10:35:59Z</time>
      </trkpt>
      <trkpt lat="44.72539" lon="3.31446">
        <ele>1119</ele>
        <time>2012-09-10T10:36:10Z</time>
      </trkpt>
      <trkpt lat="44.72541" lon="3.31429">
        <ele>1123</ele>
        <time>2012-09-10T10:36:22Z</time>
      </trkpt>
      <trkpt lat="44.72542" lon="3.31411">
        <ele>1119</ele>
        <time>2012-09-10T10:36:34Z</time>
      </trkpt>
      <trkpt lat="44.72543" lon="3.31393">
        <ele>1121</ele>
        <time>2012-09-10T10:36:46Z</time>
      </trkpt>
      <trkpt lat="44.72545" lon="3.31374">
        <ele>1124</ele>
        <time>2012-09-10T10:36:58Z</time>
      </trkpt>
      <trkpt lat="44.72548" lon="3.31356">
        <ele>1124</ele>
        <time>2012-09-10T10:37:10Z</time>
      </trkpt>
      <trkpt lat="44.72549" lon="3.31337">
        <ele>1123</ele>
        <time>2012-09-10T10:37:21Z</time>
      </trkpt>
      <trkpt lat="44.72549" lon="3.31319">
        <ele>1120</ele>
        <time>2012-09-10T10:37:32Z</time>
      </trkpt>
      <trkpt lat="44.72551" lon="3.3131">
        <ele>1118</ele>
        <time>2012-09-10T10:37:44Z</time>
      </trkpt>
      <trkpt lat="44.72551" lon="3.31297">
        <ele>1125</ele>
        <time>2012-09-10T10:37:54Z</time>
      </trkpt>
      <trkpt lat="44.7255" lon="3.31278">
        <ele>1130</ele>
        <time>2012-09-10T10:38:06Z</time>
      </trkpt>
      <trkpt lat="44.72553" lon="3.31262">
        <ele>1127</ele>
        <time>2012-09-10T10:38:18Z</time>
      </trkpt>
      <trkpt lat="44.72553" lon="3.31242">
        <ele>1130</ele>
        <time>2012-09-10T10:38:30Z</time>
      </trkpt>
      <trkpt lat="44.72552" lon="3.31223">
        <ele>1127</ele>
        <time>2012-09-10T10:38:41Z</time>
      </trkpt>
      <trkpt lat="44.72554" lon="3.31205">
        <ele>1130</ele>
        <time>2012-09-10T10:38:54Z</time>
      </trkpt>
      <trkpt lat="44.72552" lon="3.31186">
        <ele>1128</ele>
        <time>2012-09-10T10:39:05Z</time>
      </trkpt>
      <trkpt lat="44.72553" lon="3.31173">
        <ele>1128</ele>
        <time>2012-09-10T10:39:15Z</time>
      </trkpt>
      <trkpt lat="44.72554" lon="3.31156">
        <ele>1136</ele>
        <time>2012-09-10T10:39:27Z</time>
      </trkpt>
      <trkpt lat="44.72555" lon="3.31143">
        <ele>1134</ele>
        <time>2012-09-10T10:39:37Z</time>
      </trkpt>
      <trkpt lat="44.72555" lon="3.31124">
        <ele>1135</ele>
        <time>2012-09-10T10:39:50Z</time>
      </trkpt>
      <trkpt lat="44.72556" lon="3.31111">
        <ele>1137</ele>
        <time>2012-09-10T10:40:01Z</time>
      </trkpt>
      <trkpt lat="44.72556" lon="3.31094">
        <ele>1140</ele>
        <time>2012-09-10T10:40:13Z</time>
      </trkpt>
      <trkpt lat="44.72557" lon="3.31076">
        <ele>1139</ele>
        <time>2012-09-10T10:40:25Z</time>
      </trkpt>
      <trkpt lat="44.72557" lon="3.31057">
        <ele>1138</ele>
        <time>2012-09-10T10:40:37Z</time>
      </trkpt>
      <trkpt lat="44.72555" lon="3.3104">
        <ele>1140</ele>
        <time>2012-09-10T10:40:49Z</time>
      </trkpt>
      <trkpt lat="44.72555" lon="3.31037">
        <ele>1144</ele>
        <time>2012-09-10T10:41:01Z</time>
      </trkpt>
      <trkpt lat="44.72554" lon="3.31017">
        <ele>1144</ele>
        <time>2012-09-10T10:41:13Z</time>
      </trkpt>
      <trkpt lat="44.72555" lon="3.30999">
        <ele>1134</ele>
        <time>2012-09-10T10:41:23Z</time>
      </trkpt>
      <trkpt lat="44.72555" lon="3.3098">
        <ele>1137</ele>
        <time>2012-09-10T10:41:34Z</time>
      </trkpt>
      <trkpt lat="44.72554" lon="3.30962">
        <ele>1146</ele>
        <time>2012-09-10T10:41:47Z</time>
      </trkpt>
      <trkpt lat="44.72553" lon="3.30944">
        <ele>1140</ele>
        <time>2012-09-10T10:41:57Z</time>
      </trkpt>
      <trkpt lat="44.72553" lon="3.30924">
        <ele>1137</ele>
        <time>2012-09-10T10:42:08Z</time>
      </trkpt>
      <trkpt lat="44.72552" lon="3.30902">
        <ele>1136</ele>
        <time>2012-09-10T10:42:21Z</time>
      </trkpt>
      <trkpt lat="44.72549" lon="3.30888">
        <ele>1139</ele>
        <time>2012-09-10T10:42:31Z</time>
      </trkpt>
      <trkpt lat="44.72547" lon="3.30871">
        <ele>1139</ele>
        <time>2012-09-10T10:42:44Z</time>
      </trkpt>
      <trkpt lat="44.72546" lon="3.30857">
        <ele>1134</ele>
        <time>2012-09-10T10:42:54Z</time>
      </trkpt>
      <trkpt lat="44.7254" lon="3.30836">
        <ele>1150</ele>
        <time>2012-09-10T10:43:07Z</time>
      </trkpt>
      <trkpt lat="44.72538" lon="3.30818">
        <ele>1146</ele>
        <time>2012-09-10T10:43:18Z</time>
      </trkpt>
      <trkpt lat="44.72534" lon="3.30802">
        <ele>1145</ele>
        <time>2012-09-10T10:43:29Z</time>
      </trkpt>
      <trkpt lat="44.7253" lon="3.30786">
        <ele>1145</ele>
        <time>2012-09-10T10:43:41Z</time>
      </trkpt>
      <trkpt lat="44.72523" lon="3.30765">
        <ele>1147</ele>
        <time>2012-09-10T10:43:55Z</time>
      </trkpt>
      <trkpt lat="44.72528" lon="3.30757">
        <ele>1148</ele>
        <time>2012-09-10T10:44:13Z</time>
      </trkpt>
      <trkpt lat="44.72544" lon="3.30762">
        <ele>1145</ele>
        <time>2012-09-10T10:44:25Z</time>
      </trkpt>
      <trkpt lat="44.72557" lon="3.30769">
        <ele>1143</ele>
        <time>2012-09-10T10:44:37Z</time>
      </trkpt>
      <trkpt lat="44.7257" lon="3.30775">
        <ele>1144</ele>
        <time>2012-09-10T10:44:50Z</time>
      </trkpt>
      <trkpt lat="44.72582" lon="3.3078">
        <ele>1146</ele>
        <time>2012-09-10T10:45:02Z</time>
      </trkpt>
      <trkpt lat="44.72596" lon="3.30786">
        <ele>1146</ele>
        <time>2012-09-10T10:45:14Z</time>
      </trkpt>
      <trkpt lat="44.72611" lon="3.30791">
        <ele>1142</ele>
        <time>2012-09-10T10:45:25Z</time>
      </trkpt>
      <trkpt lat="44.72623" lon="3.30796">
        <ele>1139</ele>
        <time>2012-09-10T10:45:36Z</time>
      </trkpt>
      <trkpt lat="44.72639" lon="3.30803">
        <ele>1140</ele>
        <time>2012-09-10T10:45:48Z</time>
      </trkpt>
      <trkpt lat="44.72649" lon="3.30807">
        <ele>1142</ele>
        <time>2012-09-10T10:46:00Z</time>
      </trkpt>
      <trkpt lat="44.72661" lon="3.30814">
        <ele>1136</ele>
        <time>2012-09-10T10:46:11Z</time>
      </trkpt>
      <trkpt lat="44.72671" lon="3.30817">
        <ele>1137</ele>
        <time>2012-09-10T10:46:21Z</time>
      </trkpt>
      <trkpt lat="44.72679" lon="3.3081">
        <ele>1136</ele>
        <time>2012-09-10T10:46:36Z</time>
      </trkpt>
      <trkpt lat="44.7267" lon="3.30797">
        <ele>1140</ele>
        <time>2012-09-10T10:46:48Z</time>
      </trkpt>
      <trkpt lat="44.72656" lon="3.30792">
        <ele>1142</ele>
        <time>2012-09-10T10:46:59Z</time>
      </trkpt>
      <trkpt lat="44.72644" lon="3.30783">
        <ele>1138</ele>
        <time>2012-09-10T10:47:10Z</time>
      </trkpt>
      <trkpt lat="44.72635" lon="3.30779">
        <ele>1144</ele>
        <time>2012-09-10T10:47:20Z</time>
      </trkpt>
      <trkpt lat="44.72623" lon="3.30771">
        <ele>1143</ele>
        <time>2012-09-10T10:47:32Z</time>
      </trkpt>
      <trkpt lat="44.72614" lon="3.3076">
        <ele>1139</ele>
        <time>2012-09-10T10:47:42Z</time>
      </trkpt>
      <trkpt lat="44.72602" lon="3.30751">
        <ele>1146</ele>
        <time>2012-09-10T10:47:53Z</time>
      </trkpt>
      <trkpt lat="44.72591" lon="3.30742">
        <ele>1144</ele>
        <time>2012-09-10T10:48:04Z</time>
      </trkpt>
      <trkpt lat="44.72582" lon="3.30732">
        <ele>1145</ele>
        <time>2012-09-10T10:48:14Z</time>
      </trkpt>
      <trkpt lat="44.7257" lon="3.3072">
        <ele>1147</ele>
        <time>2012-09-10T10:48:26Z</time>
      </trkpt>
      <trkpt lat="44.72561" lon="3.30705">
        <ele>1148</ele>
        <time>2012-09-10T10:48:38Z</time>
      </trkpt>
      <trkpt lat="44.72554" lon="3.30691">
        <ele>1146</ele>
        <time>2012-09-10T10:48:49Z</time>
      </trkpt>
      <trkpt lat="44.72545" lon="3.30674">
        <ele>1147</ele>
        <time>2012-09-10T10:49:00Z</time>
      </trkpt>
      <trkpt lat="44.72538" lon="3.30654">
        <ele>1149</ele>
        <time>2012-09-10T10:49:13Z</time>
      </trkpt>
      <trkpt lat="44.72533" lon="3.30636">
        <ele>1152</ele>
        <time>2012-09-10T10:49:24Z</time>
      </trkpt>
      <trkpt lat="44.72528" lon="3.30618">
        <ele>1148</ele>
        <time>2012-09-10T10:49:35Z</time>
      </trkpt>
      <trkpt lat="44.72524" lon="3.30601">
        <ele>1155</ele>
        <time>2012-09-10T10:49:48Z</time>
      </trkpt>
      <trkpt lat="44.72519" lon="3.30583">
        <ele>1150</ele>
        <time>2012-09-10T10:49:58Z</time>
      </trkpt>
      <trkpt lat="44.72514" lon="3.30564">
        <ele>1152</ele>
        <time>2012-09-10T10:51:07Z</time>
      </trkpt>
      <trkpt lat="44.72509" lon="3.30546">
        <ele>1152</ele>
        <time>2012-09-10T10:51:19Z</time>
      </trkpt>
      <trkpt lat="44.72506" lon="3.30529">
        <ele>1149</ele>
        <time>2012-09-10T10:51:30Z</time>
      </trkpt>
      <trkpt lat="44.72501" lon="3.30513">
        <ele>1149</ele>
        <time>2012-09-10T10:51:40Z</time>
      </trkpt>
      <trkpt lat="44.72495" lon="3.30493">
        <ele>1152</ele>
        <time>2012-09-10T10:51:53Z</time>
      </trkpt>
      <trkpt lat="44.72486" lon="3.30475">
        <ele>1149</ele>
        <time>2012-09-10T10:52:04Z</time>
      </trkpt>
      <trkpt lat="44.72478" lon="3.30461">
        <ele>1152</ele>
        <time>2012-09-10T10:52:15Z</time>
      </trkpt>
      <trkpt lat="44.72472" lon="3.30444">
        <ele>1154</ele>
        <time>2012-09-10T10:52:26Z</time>
      </trkpt>
      <trkpt lat="44.72466" lon="3.30424">
        <ele>1150</ele>
        <time>2012-09-10T10:52:38Z</time>
      </trkpt>
      <trkpt lat="44.72459" lon="3.30407">
        <ele>1152</ele>
        <time>2012-09-10T10:52:49Z</time>
      </trkpt>
      <trkpt lat="44.72453" lon="3.30386">
        <ele>1154</ele>
        <time>2012-09-10T10:53:03Z</time>
      </trkpt>
      <trkpt lat="44.72445" lon="3.3037">
        <ele>1152</ele>
        <time>2012-09-10T10:53:14Z</time>
      </trkpt>
      <trkpt lat="44.72437" lon="3.30353">
        <ele>1152</ele>
        <time>2012-09-10T10:53:26Z</time>
      </trkpt>
      <trkpt lat="44.72429" lon="3.30332">
        <ele>1150</ele>
        <time>2012-09-10T10:53:39Z</time>
      </trkpt>
      <trkpt lat="44.72423" lon="3.30315">
        <ele>1151</ele>
        <time>2012-09-10T10:53:50Z</time>
      </trkpt>
      <trkpt lat="44.72415" lon="3.30299">
        <ele>1153</ele>
        <time>2012-09-10T10:54:03Z</time>
      </trkpt>
      <trkpt lat="44.72406" lon="3.30283">
        <ele>1156</ele>
        <time>2012-09-10T10:54:15Z</time>
      </trkpt>
      <trkpt lat="44.72396" lon="3.30268">
        <ele>1150</ele>
        <time>2012-09-10T10:54:26Z</time>
      </trkpt>
      <trkpt lat="44.72386" lon="3.30253">
        <ele>1152</ele>
        <time>2012-09-10T10:54:38Z</time>
      </trkpt>
      <trkpt lat="44.72376" lon="3.30242">
        <ele>1152</ele>
        <time>2012-09-10T10:54:49Z</time>
      </trkpt>
      <trkpt lat="44.72366" lon="3.30228">
        <ele>1154</ele>
        <time>2012-09-10T10:55:01Z</time>
      </trkpt>
      <trkpt lat="44.72356" lon="3.30211">
        <ele>1156</ele>
        <time>2012-09-10T10:55:14Z</time>
      </trkpt>
      <trkpt lat="44.72345" lon="3.30196">
        <ele>1154</ele>
        <time>2012-09-10T10:55:26Z</time>
      </trkpt>
      <trkpt lat="44.72334" lon="3.30178">
        <ele>1149</ele>
        <time>2012-09-10T10:55:40Z</time>
      </trkpt>
      <trkpt lat="44.72329" lon="3.30164">
        <ele>1154</ele>
        <time>2012-09-10T10:55:50Z</time>
      </trkpt>
      <trkpt lat="44.7232" lon="3.30147">
        <ele>1154</ele>
        <time>2012-09-10T10:56:01Z</time>
      </trkpt>
      <trkpt lat="44.72313" lon="3.30127">
        <ele>1154</ele>
        <time>2012-09-10T10:56:14Z</time>
      </trkpt>
      <trkpt lat="44.72305" lon="3.30111">
        <ele>1157</ele>
        <time>2012-09-10T10:56:25Z</time>
      </trkpt>
      <trkpt lat="44.72304" lon="3.30107">
        <ele>1155</ele>
        <time>2012-09-10T10:58:20Z</time>
      </trkpt>
      <trkpt lat="44.72298" lon="3.30092">
        <ele>1155</ele>
        <time>2012-09-10T10:58:32Z</time>
      </trkpt>
      <trkpt lat="44.72289" lon="3.30075">
        <ele>1153</ele>
        <time>2012-09-10T10:58:46Z</time>
      </trkpt>
      <trkpt lat="44.72284" lon="3.30064">
        <ele>1153</ele>
        <time>2012-09-10T10:58:58Z</time>
      </trkpt>
      <trkpt lat="44.72279" lon="3.30046">
        <ele>1148</ele>
        <time>2012-09-10T10:59:10Z</time>
      </trkpt>
      <trkpt lat="44.72272" lon="3.30032">
        <ele>1146</ele>
        <time>2012-09-10T10:59:22Z</time>
      </trkpt>
      <trkpt lat="44.72268" lon="3.30019">
        <ele>1146</ele>
        <time>2012-09-10T10:59:32Z</time>
      </trkpt>
      <trkpt lat="44.7226" lon="3.30003">
        <ele>1148</ele>
        <time>2012-09-10T10:59:45Z</time>
      </trkpt>
      <trkpt lat="44.72254" lon="3.29991">
        <ele>1145</ele>
        <time>2012-09-10T10:59:56Z</time>
      </trkpt>
      <trkpt lat="44.72245" lon="3.29978">
        <ele>1142</ele>
        <time>2012-09-10T11:00:08Z</time>
      </trkpt>
      <trkpt lat="44.72235" lon="3.29969">
        <ele>1143</ele>
        <time>2012-09-10T11:00:18Z</time>
      </trkpt>
      <trkpt lat="44.72225" lon="3.29962">
        <ele>1141</ele>
        <time>2012-09-10T11:00:28Z</time>
      </trkpt>
      <trkpt lat="44.72213" lon="3.29953">
        <ele>1142</ele>
        <time>2012-09-10T11:00:40Z</time>
      </trkpt>
      <trkpt lat="44.72204" lon="3.29949">
        <ele>1144</ele>
        <time>2012-09-10T11:00:50Z</time>
      </trkpt>
      <trkpt lat="44.72191" lon="3.29945">
        <ele>1145</ele>
        <time>2012-09-10T11:01:03Z</time>
      </trkpt>
      <trkpt lat="44.72181" lon="3.29939">
        <ele>1139</ele>
        <time>2012-09-10T11:01:14Z</time>
      </trkpt>
      <trkpt lat="44.72165" lon="3.29928">
        <ele>1143</ele>
        <time>2012-09-10T11:01:26Z</time>
      </trkpt>
      <trkpt lat="44.72153" lon="3.29918">
        <ele>1139</ele>
        <time>2012-09-10T11:01:38Z</time>
      </trkpt>
      <trkpt lat="44.72138" lon="3.29906">
        <ele>1142</ele>
        <time>2012-09-10T11:01:49Z</time>
      </trkpt>
      <trkpt lat="44.72127" lon="3.29892">
        <ele>1136</ele>
        <time>2012-09-10T11:02:00Z</time>
      </trkpt>
      <trkpt lat="44.7212" lon="3.29884">
        <ele>1136</ele>
        <time>2012-09-10T11:02:10Z</time>
      </trkpt>
      <trkpt lat="44.72108" lon="3.29873">
        <ele>1135</ele>
        <time>2012-09-10T11:02:22Z</time>
      </trkpt>
      <trkpt lat="44.72099" lon="3.29859">
        <ele>1139</ele>
        <time>2012-09-10T11:02:34Z</time>
      </trkpt>
      <trkpt lat="44.72094" lon="3.29839">
        <ele>1137</ele>
        <time>2012-09-10T11:02:46Z</time>
      </trkpt>
      <trkpt lat="44.72092" lon="3.2982">
        <ele>1136</ele>
        <time>2012-09-10T11:02:58Z</time>
      </trkpt>
      <trkpt lat="44.7209" lon="3.29801">
        <ele>1137</ele>
        <time>2012-09-10T11:03:10Z</time>
      </trkpt>
      <trkpt lat="44.72089" lon="3.29782">
        <ele>1135</ele>
        <time>2012-09-10T11:03:22Z</time>
      </trkpt>
      <trkpt lat="44.72088" lon="3.29759">
        <ele>1138</ele>
        <time>2012-09-10T11:03:34Z</time>
      </trkpt>
      <trkpt lat="44.72085" lon="3.29739">
        <ele>1137</ele>
        <time>2012-09-10T11:03:46Z</time>
      </trkpt>
      <trkpt lat="44.72083" lon="3.29721">
        <ele>1135</ele>
        <time>2012-09-10T11:03:59Z</time>
      </trkpt>
      <trkpt lat="44.72083" lon="3.29717">
        <ele>1138</ele>
        <time>2012-09-10T11:05:03Z</time>
      </trkpt>
      <trkpt lat="44.72078" lon="3.29699">
        <ele>1137</ele>
        <time>2012-09-10T11:05:15Z</time>
      </trkpt>
      <trkpt lat="44.72078" lon="3.29685">
        <ele>1138</ele>
        <time>2012-09-10T11:05:38Z</time>
      </trkpt>
      <trkpt lat="44.72073" lon="3.29668">
        <ele>1137</ele>
        <time>2012-09-10T11:05:49Z</time>
      </trkpt>
      <trkpt lat="44.72071" lon="3.29653">
        <ele>1137</ele>
        <time>2012-09-10T11:05:59Z</time>
      </trkpt>
      <trkpt lat="44.7207" lon="3.29639">
        <ele>1136</ele>
        <time>2012-09-10T11:06:10Z</time>
      </trkpt>
      <trkpt lat="44.72068" lon="3.29626">
        <ele>1136</ele>
        <time>2012-09-10T11:06:20Z</time>
      </trkpt>
      <trkpt lat="44.72061" lon="3.29615">
        <ele>1130</ele>
        <time>2012-09-10T11:06:32Z</time>
      </trkpt>
      <trkpt lat="44.72056" lon="3.29603">
        <ele>1124</ele>
        <time>2012-09-10T11:06:44Z</time>
      </trkpt>
      <trkpt lat="44.72048" lon="3.29597">
        <ele>1132</ele>
        <time>2012-09-10T11:06:55Z</time>
      </trkpt>
      <trkpt lat="44.72041" lon="3.29591">
        <ele>1130</ele>
        <time>2012-09-10T11:07:10Z</time>
      </trkpt>
      <trkpt lat="44.72035" lon="3.2958">
        <ele>1129</ele>
        <time>2012-09-10T11:07:21Z</time>
      </trkpt>
      <trkpt lat="44.7203" lon="3.29577">
        <ele>1126</ele>
        <time>2012-09-10T11:08:32Z</time>
      </trkpt>
      <trkpt lat="44.72029" lon="3.29581">
        <ele>1120</ele>
        <time>2012-09-10T11:09:05Z</time>
      </trkpt>
      <trkpt lat="44.72026" lon="3.29579">
        <ele>1120</ele>
        <time>2012-09-10T11:09:24Z</time>
      </trkpt>
      <trkpt lat="44.72028" lon="3.29574">
        <ele>1131</ele>
        <time>2012-09-10T11:10:35Z</time>
      </trkpt>
      <trkpt lat="44.72034" lon="3.29574">
        <ele>1128</ele>
        <time>2012-09-10T11:10:50Z</time>
      </trkpt>
      <trkpt lat="44.72032" lon="3.29577">
        <ele>1128</ele>
        <time>2012-09-10T11:11:13Z</time>
      </trkpt>
      <trkpt lat="44.72025" lon="3.29576">
        <ele>1124</ele>
        <time>2012-09-10T11:12:07Z</time>
      </trkpt>
      <trkpt lat="44.72019" lon="3.29575">
        <ele>1121</ele>
        <time>2012-09-10T11:12:22Z</time>
      </trkpt>
      <trkpt lat="44.72017" lon="3.29577">
        <ele>1120</ele>
        <time>2012-09-10T11:13:28Z</time>
      </trkpt>
      <trkpt lat="44.7202" lon="3.29578">
        <ele>1127</ele>
        <time>2012-09-10T11:14:27Z</time>
      </trkpt>
      <trkpt lat="44.72023" lon="3.29576">
        <ele>1124</ele>
        <time>2012-09-10T11:14:45Z</time>
      </trkpt>
      <trkpt lat="44.72023" lon="3.29581">
        <ele>1124</ele>
        <time>2012-09-10T11:15:47Z</time>
      </trkpt>
      <trkpt lat="44.72025" lon="3.29579">
        <ele>1125</ele>
        <time>2012-09-10T11:16:25Z</time>
      </trkpt>
      <trkpt lat="44.72026" lon="3.29575">
        <ele>1126</ele>
        <time>2012-09-10T11:16:41Z</time>
      </trkpt>
      <trkpt lat="44.72025" lon="3.29559">
        <ele>1123</ele>
        <time>2012-09-10T11:16:52Z</time>
      </trkpt>
      <trkpt lat="44.72023" lon="3.29541">
        <ele>1123</ele>
        <time>2012-09-10T11:17:06Z</time>
      </trkpt>
      <trkpt lat="44.72021" lon="3.29527">
        <ele>1127</ele>
        <time>2012-09-10T11:17:16Z</time>
      </trkpt>
      <trkpt lat="44.72018" lon="3.2951">
        <ele>1130</ele>
        <time>2012-09-10T11:17:26Z</time>
      </trkpt>
      <trkpt lat="44.72018" lon="3.29493">
        <ele>1127</ele>
        <time>2012-09-10T11:17:38Z</time>
      </trkpt>
      <trkpt lat="44.7202" lon="3.29475">
        <ele>1127</ele>
        <time>2012-09-10T11:17:50Z</time>
      </trkpt>
      <trkpt lat="44.72025" lon="3.29459">
        <ele>1129</ele>
        <time>2012-09-10T11:18:01Z</time>
      </trkpt>
      <trkpt lat="44.72029" lon="3.29447">
        <ele>1128</ele>
        <time>2012-09-10T11:18:11Z</time>
      </trkpt>
      <trkpt lat="44.72032" lon="3.2943">
        <ele>1126</ele>
        <time>2012-09-10T11:18:23Z</time>
      </trkpt>
      <trkpt lat="44.72038" lon="3.29412">
        <ele>1128</ele>
        <time>2012-09-10T11:18:36Z</time>
      </trkpt>
      <trkpt lat="44.72039" lon="3.29404">
        <ele>1128</ele>
        <time>2012-09-10T11:18:49Z</time>
      </trkpt>
      <trkpt lat="44.72042" lon="3.29385">
        <ele>1124</ele>
        <time>2012-09-10T11:19:01Z</time>
      </trkpt>
      <trkpt lat="44.72047" lon="3.2937">
        <ele>1129</ele>
        <time>2012-09-10T11:19:13Z</time>
      </trkpt>
      <trkpt lat="44.72051" lon="3.29352">
        <ele>1124</ele>
        <time>2012-09-10T11:19:25Z</time>
      </trkpt>
      <trkpt lat="44.72055" lon="3.2934">
        <ele>1125</ele>
        <time>2012-09-10T11:19:36Z</time>
      </trkpt>
      <trkpt lat="44.72058" lon="3.29321">
        <ele>1129</ele>
        <time>2012-09-10T11:19:48Z</time>
      </trkpt>
      <trkpt lat="44.72063" lon="3.29305">
        <ele>1125</ele>
        <time>2012-09-10T11:20:01Z</time>
      </trkpt>
      <trkpt lat="44.72068" lon="3.29288">
        <ele>1129</ele>
        <time>2012-09-10T11:20:12Z</time>
      </trkpt>
      <trkpt lat="44.72072" lon="3.29277">
        <ele>1130</ele>
        <time>2012-09-10T11:20:22Z</time>
      </trkpt>
      <trkpt lat="44.72075" lon="3.29269">
        <ele>1139</ele>
        <time>2012-09-10T11:20:58Z</time>
      </trkpt>
      <trkpt lat="44.72079" lon="3.29257">
        <ele>1129</ele>
        <time>2012-09-10T11:21:08Z</time>
      </trkpt>
      <trkpt lat="44.72086" lon="3.29241">
        <ele>1126</ele>
        <time>2012-09-10T11:21:19Z</time>
      </trkpt>
      <trkpt lat="44.72092" lon="3.29225">
        <ele>1127</ele>
        <time>2012-09-10T11:21:31Z</time>
      </trkpt>
      <trkpt lat="44.72097" lon="3.29209">
        <ele>1125</ele>
        <time>2012-09-10T11:21:43Z</time>
      </trkpt>
      <trkpt lat="44.72102" lon="3.29193">
        <ele>1127</ele>
        <time>2012-09-10T11:21:55Z</time>
      </trkpt>
      <trkpt lat="44.72105" lon="3.29176">
        <ele>1125</ele>
        <time>2012-09-10T11:22:08Z</time>
      </trkpt>
      <trkpt lat="44.72109" lon="3.29155">
        <ele>1127</ele>
        <time>2012-09-10T11:22:20Z</time>
      </trkpt>
      <trkpt lat="44.72113" lon="3.29142">
        <ele>1130</ele>
        <time>2012-09-10T11:22:30Z</time>
      </trkpt>
      <trkpt lat="44.72116" lon="3.29129">
        <ele>1125</ele>
        <time>2012-09-10T11:22:40Z</time>
      </trkpt>
      <trkpt lat="44.72118" lon="3.29115">
        <ele>1128</ele>
        <time>2012-09-10T11:22:50Z</time>
      </trkpt>
      <trkpt lat="44.72123" lon="3.291">
        <ele>1121</ele>
        <time>2012-09-10T11:23:02Z</time>
      </trkpt>
      <trkpt lat="44.72127" lon="3.29087">
        <ele>1116</ele>
        <time>2012-09-10T11:23:13Z</time>
      </trkpt>
      <trkpt lat="44.72131" lon="3.29071">
        <ele>1118</ele>
        <time>2012-09-10T11:23:24Z</time>
      </trkpt>
      <trkpt lat="44.72135" lon="3.29058">
        <ele>1118</ele>
        <time>2012-09-10T11:23:34Z</time>
      </trkpt>
      <trkpt lat="44.72138" lon="3.29041">
        <ele>1115</ele>
        <time>2012-09-10T11:23:46Z</time>
      </trkpt>
      <trkpt lat="44.7214" lon="3.29028">
        <ele>1115</ele>
        <time>2012-09-10T11:23:58Z</time>
      </trkpt>
      <trkpt lat="44.72142" lon="3.29015">
        <ele>1115</ele>
        <time>2012-09-10T11:24:08Z</time>
      </trkpt>
      <trkpt lat="44.72147" lon="3.28999">
        <ele>1123</ele>
        <time>2012-09-10T11:24:21Z</time>
      </trkpt>
      <trkpt lat="44.72152" lon="3.28982">
        <ele>1117</ele>
        <time>2012-09-10T11:24:32Z</time>
      </trkpt>
      <trkpt lat="44.72157" lon="3.28963">
        <ele>1116</ele>
        <time>2012-09-10T11:24:44Z</time>
      </trkpt>
      <trkpt lat="44.72159" lon="3.28946">
        <ele>1112</ele>
        <time>2012-09-10T11:24:56Z</time>
      </trkpt>
      <trkpt lat="44.72161" lon="3.28929">
        <ele>1112</ele>
        <time>2012-09-10T11:25:08Z</time>
      </trkpt>
      <trkpt lat="44.72165" lon="3.28916">
        <ele>1111</ele>
        <time>2012-09-10T11:25:18Z</time>
      </trkpt>
      <trkpt lat="44.72171" lon="3.28901">
        <ele>1111</ele>
        <time>2012-09-10T11:25:29Z</time>
      </trkpt>
      <trkpt lat="44.72178" lon="3.28885">
        <ele>1113</ele>
        <time>2012-09-10T11:25:42Z</time>
      </trkpt>
      <trkpt lat="44.72182" lon="3.28874">
        <ele>1108</ele>
        <time>2012-09-10T11:25:52Z</time>
      </trkpt>
      <trkpt lat="44.72188" lon="3.28857">
        <ele>1110</ele>
        <time>2012-09-10T11:26:04Z</time>
      </trkpt>
      <trkpt lat="44.72193" lon="3.28837">
        <ele>1114</ele>
        <time>2012-09-10T11:26:17Z</time>
      </trkpt>
      <trkpt lat="44.72197" lon="3.28825">
        <ele>1110</ele>
        <time>2012-09-10T11:26:29Z</time>
      </trkpt>
      <trkpt lat="44.72201" lon="3.28807">
        <ele>1109</ele>
        <time>2012-09-10T11:26:41Z</time>
      </trkpt>
      <trkpt lat="44.72208" lon="3.28788">
        <ele>1111</ele>
        <time>2012-09-10T11:26:54Z</time>
      </trkpt>
      <trkpt lat="44.72216" lon="3.28772">
        <ele>1113</ele>
        <time>2012-09-10T11:27:05Z</time>
      </trkpt>
      <trkpt lat="44.7222" lon="3.28754">
        <ele>1116</ele>
        <time>2012-09-10T11:27:17Z</time>
      </trkpt>
      <trkpt lat="44.72226" lon="3.28738">
        <ele>1110</ele>
        <time>2012-09-10T11:27:31Z</time>
      </trkpt>
      <trkpt lat="44.72227" lon="3.28726">
        <ele>1108</ele>
        <time>2012-09-10T11:27:48Z</time>
      </trkpt>
      <trkpt lat="44.72229" lon="3.28714">
        <ele>1115</ele>
        <time>2012-09-10T11:28:11Z</time>
      </trkpt>
      <trkpt lat="44.72235" lon="3.28702">
        <ele>1109</ele>
        <time>2012-09-10T11:28:22Z</time>
      </trkpt>
      <trkpt lat="44.72237" lon="3.28697">
        <ele>1102</ele>
        <time>2012-09-10T11:28:37Z</time>
      </trkpt>
      <trkpt lat="44.72246" lon="3.28686">
        <ele>1104</ele>
        <time>2012-09-10T11:28:50Z</time>
      </trkpt>
      <trkpt lat="44.72245" lon="3.2869">
        <ele>1103</ele>
        <time>2012-09-10T11:29:41Z</time>
      </trkpt>
      <trkpt lat="44.72245" lon="3.28694">
        <ele>1105</ele>
        <time>2012-09-10T11:30:14Z</time>
      </trkpt>
      <trkpt lat="44.72239" lon="3.2871">
        <ele>1108</ele>
        <time>2012-09-10T11:30:25Z</time>
      </trkpt>
      <trkpt lat="44.72234" lon="3.28725">
        <ele>1107</ele>
        <time>2012-09-10T11:30:36Z</time>
      </trkpt>
      <trkpt lat="44.72232" lon="3.28735">
        <ele>1106</ele>
        <time>2012-09-10T11:30:51Z</time>
      </trkpt>
      <trkpt lat="44.72234" lon="3.28736">
        <ele>1107</ele>
        <time>2012-09-10T11:31:20Z</time>
      </trkpt>
      <trkpt lat="44.72239" lon="3.28741">
        <ele>1106</ele>
        <time>2012-09-10T11:31:40Z</time>
      </trkpt>
      <trkpt lat="44.72236" lon="3.2874">
        <ele>1112</ele>
        <time>2012-09-10T11:31:55Z</time>
      </trkpt>
      <trkpt lat="44.72234" lon="3.28737">
        <ele>1107</ele>
        <time>2012-09-10T11:32:19Z</time>
      </trkpt>
      <trkpt lat="44.72242" lon="3.28723">
        <ele>1108</ele>
        <time>2012-09-10T11:32:40Z</time>
      </trkpt>
      <trkpt lat="44.72239" lon="3.28708">
        <ele>1107</ele>
        <time>2012-09-10T11:32:51Z</time>
      </trkpt>
      <trkpt lat="44.72243" lon="3.28697">
        <ele>1103</ele>
        <time>2012-09-10T11:33:02Z</time>
      </trkpt>
      <trkpt lat="44.7225" lon="3.28682">
        <ele>1106</ele>
        <time>2012-09-10T11:33:15Z</time>
      </trkpt>
      <trkpt lat="44.72257" lon="3.28672">
        <ele>1100</ele>
        <time>2012-09-10T11:33:25Z</time>
      </trkpt>
      <trkpt lat="44.72264" lon="3.2866">
        <ele>1104</ele>
        <time>2012-09-10T11:33:36Z</time>
      </trkpt>
      <trkpt lat="44.72263" lon="3.28643">
        <ele>1106</ele>
        <time>2012-09-10T11:33:48Z</time>
      </trkpt>
      <trkpt lat="44.72259" lon="3.28624">
        <ele>1112</ele>
        <time>2012-09-10T11:34:00Z</time>
      </trkpt>
      <trkpt lat="44.72259" lon="3.28607">
        <ele>1104</ele>
        <time>2012-09-10T11:34:15Z</time>
      </trkpt>
      <trkpt lat="44.72257" lon="3.28592">
        <ele>1105</ele>
        <time>2012-09-10T11:34:27Z</time>
      </trkpt>
      <trkpt lat="44.72255" lon="3.28574">
        <ele>1107</ele>
        <time>2012-09-10T11:34:37Z</time>
      </trkpt>
      <trkpt lat="44.7225" lon="3.28557">
        <ele>1101</ele>
        <time>2012-09-10T11:34:49Z</time>
      </trkpt>
      <trkpt lat="44.72256" lon="3.28539">
        <ele>1103</ele>
        <time>2012-09-10T11:35:01Z</time>
      </trkpt>
      <trkpt lat="44.72252" lon="3.28526">
        <ele>1107</ele>
        <time>2012-09-10T11:35:12Z</time>
      </trkpt>
      <trkpt lat="44.72255" lon="3.28509">
        <ele>1100</ele>
        <time>2012-09-10T11:35:23Z</time>
      </trkpt>
      <trkpt lat="44.72254" lon="3.28492">
        <ele>1105</ele>
        <time>2012-09-10T11:35:34Z</time>
      </trkpt>
      <trkpt lat="44.72256" lon="3.28474">
        <ele>1098</ele>
        <time>2012-09-10T11:35:47Z</time>
      </trkpt>
      <trkpt lat="44.72257" lon="3.28467">
        <ele>1096</ele>
        <time>2012-09-10T11:36:06Z</time>
      </trkpt>
      <trkpt lat="44.72255" lon="3.2846">
        <ele>1103</ele>
        <time>2012-09-10T11:36:16Z</time>
      </trkpt>
      <trkpt lat="44.72251" lon="3.28448">
        <ele>1103</ele>
        <time>2012-09-10T11:36:26Z</time>
      </trkpt>
      <trkpt lat="44.72253" lon="3.28451">
        <ele>1135</ele>
        <time>2012-09-10T11:36:58Z</time>
      </trkpt>
      <trkpt lat="44.72258" lon="3.28448">
        <ele>1104</ele>
        <time>2012-09-10T11:37:24Z</time>
      </trkpt>
      <trkpt lat="44.72264" lon="3.28448">
        <ele>1100</ele>
        <time>2012-09-10T11:37:37Z</time>
      </trkpt>
      <trkpt lat="44.72275" lon="3.28456">
        <ele>1097</ele>
        <time>2012-09-10T11:37:48Z</time>
      </trkpt>
      <trkpt lat="44.72284" lon="3.28464">
        <ele>1102</ele>
        <time>2012-09-10T11:37:58Z</time>
      </trkpt>
      <trkpt lat="44.72295" lon="3.28476">
        <ele>1105</ele>
        <time>2012-09-10T11:38:09Z</time>
      </trkpt>
      <trkpt lat="44.72302" lon="3.28483">
        <ele>1106</ele>
        <time>2012-09-10T11:38:23Z</time>
      </trkpt>
      <trkpt lat="44.72315" lon="3.2849">
        <ele>1106</ele>
        <time>2012-09-10T11:38:35Z</time>
      </trkpt>
      <trkpt lat="44.72321" lon="3.28508">
        <ele>1103</ele>
        <time>2012-09-10T11:38:46Z</time>
      </trkpt>
      <trkpt lat="44.72325" lon="3.28521">
        <ele>1105</ele>
        <time>2012-09-10T11:38:58Z</time>
      </trkpt>
      <trkpt lat="44.72323" lon="3.28508">
        <ele>1103</ele>
        <time>2012-09-10T11:40:43Z</time>
      </trkpt>
      <trkpt lat="44.72323" lon="3.28496">
        <ele>1091</ele>
        <time>2012-09-10T11:40:57Z</time>
      </trkpt>
      <trkpt lat="44.72309" lon="3.2849">
        <ele>1103</ele>
        <time>2012-09-10T11:41:09Z</time>
      </trkpt>
      <trkpt lat="44.72295" lon="3.28489">
        <ele>1105</ele>
        <time>2012-09-10T11:41:24Z</time>
      </trkpt>
      <trkpt lat="44.7228" lon="3.28468">
        <ele>1105</ele>
        <time>2012-09-10T11:41:37Z</time>
      </trkpt>
      <trkpt lat="44.72275" lon="3.28457">
        <ele>1103</ele>
        <time>2012-09-10T11:41:49Z</time>
      </trkpt>
      <trkpt lat="44.72272" lon="3.2844">
        <ele>1107</ele>
        <time>2012-09-10T11:42:00Z</time>
      </trkpt>
      <trkpt lat="44.72266" lon="3.28427">
        <ele>1101</ele>
        <time>2012-09-10T11:42:11Z</time>
      </trkpt>
      <trkpt lat="44.72258" lon="3.28415">
        <ele>1099</ele>
        <time>2012-09-10T11:42:22Z</time>
      </trkpt>
      <trkpt lat="44.7225" lon="3.28403">
        <ele>1103</ele>
        <time>2012-09-10T11:42:35Z</time>
      </trkpt>
      <trkpt lat="44.72244" lon="3.28385">
        <ele>1105</ele>
        <time>2012-09-10T11:42:46Z</time>
      </trkpt>
      <trkpt lat="44.72239" lon="3.28373">
        <ele>1100</ele>
        <time>2012-09-10T11:42:56Z</time>
      </trkpt>
      <trkpt lat="44.72231" lon="3.28363">
        <ele>1099</ele>
        <time>2012-09-10T11:43:13Z</time>
      </trkpt>
      <trkpt lat="44.72218" lon="3.28363">
        <ele>1105</ele>
        <time>2012-09-10T11:43:28Z</time>
      </trkpt>
      <trkpt lat="44.72208" lon="3.28366">
        <ele>1105</ele>
        <time>2012-09-10T11:43:38Z</time>
      </trkpt>
      <trkpt lat="44.72193" lon="3.2836">
        <ele>1107</ele>
        <time>2012-09-10T11:43:51Z</time>
      </trkpt>
      <trkpt lat="44.72184" lon="3.28358">
        <ele>1108</ele>
        <time>2012-09-10T11:44:02Z</time>
      </trkpt>
    </trkseg>
  </trk>
</gpx>